<?xml version="1.0" encoding="UTF-8" standalone="no" ?>
<gpx xmlns="http://www.topografix.com/GPX/1/1" xmlns:xsi="http://www.w3.org/2001/XMLSchema-instance" xsi:schemaLocation="http://www.topografix.com/GPX/1/1 http://www.topografix.com/GPX/1/1/gpx.xsd" version="1.1" creator="VisuGPX - https://www.visugpx.com">
  <metadata>
    <name>SALAYE (Usson-en-Forez ) via le Siège de la Reine 27km 175300</name>
    <desc><![CDATA[27-08-2022 ]]></desc>
  </metadata>
  <trk>
    <name><![CDATA[Piste_2022-08-27 USSON 175300]]></name>
    <trkseg>
      <trkpt lat="45.42252" lon="3.91337">
        <ele>839.85</ele>
        <time>2022-08-27T08:10:14Z</time>
      </trkpt>
      <trkpt lat="45.42272" lon="3.91307">
        <ele>841.77</ele>
        <time>2022-08-27T08:10:36Z</time>
      </trkpt>
      <trkpt lat="45.42293" lon="3.9128">
        <ele>844.66</ele>
        <time>2022-08-27T08:10:57Z</time>
      </trkpt>
      <trkpt lat="45.42314" lon="3.91265">
        <ele>846.1</ele>
        <time>2022-08-27T08:11:15Z</time>
      </trkpt>
      <trkpt lat="45.42322" lon="3.91262">
        <ele>847.06</ele>
        <time>2022-08-27T08:11:21Z</time>
      </trkpt>
      <trkpt lat="45.42339" lon="3.91231">
        <ele>851.87</ele>
        <time>2022-08-27T08:11:42Z</time>
      </trkpt>
      <trkpt lat="45.42341" lon="3.91199">
        <ele>854.27</ele>
        <time>2022-08-27T08:11:58Z</time>
      </trkpt>
      <trkpt lat="45.42341" lon="3.91193">
        <ele>854.75</ele>
        <time>2022-08-27T08:12:01Z</time>
      </trkpt>
      <trkpt lat="45.42356" lon="3.91154">
        <ele>856.19</ele>
        <time>2022-08-27T08:12:21Z</time>
      </trkpt>
      <trkpt lat="45.42373" lon="3.91134">
        <ele>854.75</ele>
        <time>2022-08-27T08:12:37Z</time>
      </trkpt>
      <trkpt lat="45.42381" lon="3.9114">
        <ele>855.23</ele>
        <time>2022-08-27T08:12:47Z</time>
      </trkpt>
      <trkpt lat="45.42395" lon="3.91152">
        <ele>858.59</ele>
        <time>2022-08-27T08:13:02Z</time>
      </trkpt>
      <trkpt lat="45.42415" lon="3.91159">
        <ele>861.96</ele>
        <time>2022-08-27T08:13:21Z</time>
      </trkpt>
      <trkpt lat="45.42422" lon="3.91162">
        <ele>863.4</ele>
        <time>2022-08-27T08:13:28Z</time>
      </trkpt>
      <trkpt lat="45.4244" lon="3.91166">
        <ele>869.17</ele>
        <time>2022-08-27T08:13:48Z</time>
      </trkpt>
      <trkpt lat="45.42458" lon="3.91175">
        <ele>877.34</ele>
        <time>2022-08-27T08:14:07Z</time>
      </trkpt>
      <trkpt lat="45.4249" lon="3.91195">
        <ele>881.67</ele>
        <time>2022-08-27T08:14:29Z</time>
      </trkpt>
      <trkpt lat="45.42514" lon="3.91197">
        <ele>892.72</ele>
        <time>2022-08-27T08:14:52Z</time>
      </trkpt>
      <trkpt lat="45.42538" lon="3.91201">
        <ele>903.3</ele>
        <time>2022-08-27T08:15:11Z</time>
      </trkpt>
      <trkpt lat="45.42551" lon="3.91201">
        <ele>900.89</ele>
        <time>2022-08-27T08:15:31Z</time>
      </trkpt>
      <trkpt lat="45.42574" lon="3.91175">
        <ele>903.78</ele>
        <time>2022-08-27T08:15:52Z</time>
      </trkpt>
      <trkpt lat="45.42587" lon="3.91156">
        <ele>905.22</ele>
        <time>2022-08-27T08:16:10Z</time>
      </trkpt>
      <trkpt lat="45.42605" lon="3.91117">
        <ele>898.97</ele>
        <time>2022-08-27T08:16:32Z</time>
      </trkpt>
      <trkpt lat="45.42621" lon="3.91092">
        <ele>893.2</ele>
        <time>2022-08-27T08:16:49Z</time>
      </trkpt>
      <trkpt lat="45.42641" lon="3.91069">
        <ele>886.95</ele>
        <time>2022-08-27T08:17:04Z</time>
      </trkpt>
      <trkpt lat="45.4267" lon="3.91045">
        <ele>884.07</ele>
        <time>2022-08-27T08:17:25Z</time>
      </trkpt>
      <trkpt lat="45.42685" lon="3.91015">
        <ele>887.43</ele>
        <time>2022-08-27T08:17:46Z</time>
      </trkpt>
      <trkpt lat="45.42695" lon="3.90977">
        <ele>894.16</ele>
        <time>2022-08-27T08:18:11Z</time>
      </trkpt>
      <trkpt lat="45.42696" lon="3.90965">
        <ele>893.68</ele>
        <time>2022-08-27T08:18:14Z</time>
      </trkpt>
      <trkpt lat="45.42706" lon="3.90921">
        <ele>894.64</ele>
        <time>2022-08-27T08:18:34Z</time>
      </trkpt>
      <trkpt lat="45.42733" lon="3.90904">
        <ele>892.72</ele>
        <time>2022-08-27T08:18:58Z</time>
      </trkpt>
      <trkpt lat="45.42749" lon="3.90881">
        <ele>895.61</ele>
        <time>2022-08-27T08:19:19Z</time>
      </trkpt>
      <trkpt lat="45.42773" lon="3.90887">
        <ele>900.41</ele>
        <time>2022-08-27T08:19:38Z</time>
      </trkpt>
      <trkpt lat="45.42813" lon="3.9089">
        <ele>908.58</ele>
        <time>2022-08-27T08:20:01Z</time>
      </trkpt>
      <trkpt lat="45.4283" lon="3.90891">
        <ele>914.35</ele>
        <time>2022-08-27T08:20:22Z</time>
      </trkpt>
      <trkpt lat="45.4286" lon="3.90886">
        <ele>917.24</ele>
        <time>2022-08-27T08:20:46Z</time>
      </trkpt>
      <trkpt lat="45.42876" lon="3.90866">
        <ele>925.41</ele>
        <time>2022-08-27T08:21:09Z</time>
      </trkpt>
      <trkpt lat="45.42891" lon="3.90855">
        <ele>932.14</ele>
        <time>2022-08-27T08:21:26Z</time>
      </trkpt>
      <trkpt lat="45.42922" lon="3.90847">
        <ele>929.25</ele>
        <time>2022-08-27T08:21:44Z</time>
      </trkpt>
      <trkpt lat="45.42927" lon="3.90847">
        <ele>929.25</ele>
        <time>2022-08-27T08:21:46Z</time>
      </trkpt>
      <trkpt lat="45.42971" lon="3.90846">
        <ele>921.56</ele>
        <time>2022-08-27T08:22:08Z</time>
      </trkpt>
      <trkpt lat="45.42994" lon="3.9083">
        <ele>919.64</ele>
        <time>2022-08-27T08:22:28Z</time>
      </trkpt>
      <trkpt lat="45.4302" lon="3.90812">
        <ele>921.56</ele>
        <time>2022-08-27T08:22:50Z</time>
      </trkpt>
      <trkpt lat="45.43044" lon="3.90795">
        <ele>921.08</ele>
        <time>2022-08-27T08:23:11Z</time>
      </trkpt>
      <trkpt lat="45.4306" lon="3.90777">
        <ele>920.12</ele>
        <time>2022-08-27T08:23:30Z</time>
      </trkpt>
      <trkpt lat="45.43077" lon="3.90744">
        <ele>918.2</ele>
        <time>2022-08-27T08:23:51Z</time>
      </trkpt>
      <trkpt lat="45.43099" lon="3.90725">
        <ele>918.2</ele>
        <time>2022-08-27T08:24:09Z</time>
      </trkpt>
      <trkpt lat="45.4313" lon="3.90713">
        <ele>916.75</ele>
        <time>2022-08-27T08:24:30Z</time>
      </trkpt>
      <trkpt lat="45.43166" lon="3.90697">
        <ele>915.31</ele>
        <time>2022-08-27T08:24:51Z</time>
      </trkpt>
      <trkpt lat="45.43188" lon="3.9068">
        <ele>913.39</ele>
        <time>2022-08-27T08:25:11Z</time>
      </trkpt>
      <trkpt lat="45.43194" lon="3.90674">
        <ele>912.43</ele>
        <time>2022-08-27T08:25:17Z</time>
      </trkpt>
      <trkpt lat="45.43199" lon="3.90668">
        <ele>911.95</ele>
        <time>2022-08-27T08:25:22Z</time>
      </trkpt>
      <trkpt lat="45.4323" lon="3.90649">
        <ele>910.99</ele>
        <time>2022-08-27T08:25:44Z</time>
      </trkpt>
      <trkpt lat="45.43243" lon="3.90644">
        <ele>911.47</ele>
        <time>2022-08-27T08:25:54Z</time>
      </trkpt>
      <trkpt lat="45.43246" lon="3.90639">
        <ele>911.47</ele>
        <time>2022-08-27T08:25:58Z</time>
      </trkpt>
      <trkpt lat="45.43272" lon="3.90622">
        <ele>910.99</ele>
        <time>2022-08-27T08:26:18Z</time>
      </trkpt>
      <trkpt lat="45.43292" lon="3.90609">
        <ele>911.47</ele>
        <time>2022-08-27T08:26:34Z</time>
      </trkpt>
      <trkpt lat="45.43317" lon="3.90589">
        <ele>912.91</ele>
        <time>2022-08-27T08:26:55Z</time>
      </trkpt>
      <trkpt lat="45.43342" lon="3.90573">
        <ele>913.87</ele>
        <time>2022-08-27T08:27:14Z</time>
      </trkpt>
      <trkpt lat="45.43367" lon="3.90557">
        <ele>914.35</ele>
        <time>2022-08-27T08:27:34Z</time>
      </trkpt>
      <trkpt lat="45.43393" lon="3.90556">
        <ele>913.39</ele>
        <time>2022-08-27T08:27:54Z</time>
      </trkpt>
      <trkpt lat="45.43414" lon="3.90576">
        <ele>914.83</ele>
        <time>2022-08-27T08:28:14Z</time>
      </trkpt>
      <trkpt lat="45.43428" lon="3.90587">
        <ele>912.91</ele>
        <time>2022-08-27T08:28:27Z</time>
      </trkpt>
      <trkpt lat="45.43439" lon="3.90623">
        <ele>911.47</ele>
        <time>2022-08-27T08:28:48Z</time>
      </trkpt>
      <trkpt lat="45.43453" lon="3.90643">
        <ele>910.51</ele>
        <time>2022-08-27T08:29:06Z</time>
      </trkpt>
      <trkpt lat="45.43471" lon="3.90661">
        <ele>909.54</ele>
        <time>2022-08-27T08:29:23Z</time>
      </trkpt>
      <trkpt lat="45.43483" lon="3.90676">
        <ele>910.51</ele>
        <time>2022-08-27T08:29:39Z</time>
      </trkpt>
      <trkpt lat="45.43502" lon="3.90703">
        <ele>914.83</ele>
        <time>2022-08-27T08:29:57Z</time>
      </trkpt>
      <trkpt lat="45.43519" lon="3.90738">
        <ele>916.75</ele>
        <time>2022-08-27T08:30:16Z</time>
      </trkpt>
      <trkpt lat="45.43527" lon="3.9075">
        <ele>916.75</ele>
        <time>2022-08-27T08:30:31Z</time>
      </trkpt>
      <trkpt lat="45.43535" lon="3.90748">
        <ele>913.39</ele>
        <time>2022-08-27T08:30:50Z</time>
      </trkpt>
      <trkpt lat="45.43551" lon="3.90734">
        <ele>912.43</ele>
        <time>2022-08-27T08:31:10Z</time>
      </trkpt>
      <trkpt lat="45.43564" lon="3.9074">
        <ele>912.43</ele>
        <time>2022-08-27T08:31:20Z</time>
      </trkpt>
      <trkpt lat="45.43611" lon="3.90773">
        <ele>908.58</ele>
        <time>2022-08-27T08:31:40Z</time>
      </trkpt>
      <trkpt lat="45.4363" lon="3.908">
        <ele>908.1</ele>
        <time>2022-08-27T08:31:58Z</time>
      </trkpt>
      <trkpt lat="45.43635" lon="3.90828">
        <ele>904.74</ele>
        <time>2022-08-27T08:32:14Z</time>
      </trkpt>
      <trkpt lat="45.43644" lon="3.90852">
        <ele>906.18</ele>
        <time>2022-08-27T08:32:31Z</time>
      </trkpt>
      <trkpt lat="45.43659" lon="3.90879">
        <ele>912.91</ele>
        <time>2022-08-27T08:32:52Z</time>
      </trkpt>
      <trkpt lat="45.43675" lon="3.90901">
        <ele>911.95</ele>
        <time>2022-08-27T08:33:11Z</time>
      </trkpt>
      <trkpt lat="45.43689" lon="3.9092">
        <ele>912.91</ele>
        <time>2022-08-27T08:33:32Z</time>
      </trkpt>
      <trkpt lat="45.43702" lon="3.9094">
        <ele>906.66</ele>
        <time>2022-08-27T08:33:44Z</time>
      </trkpt>
      <trkpt lat="45.43717" lon="3.9095">
        <ele>899.45</ele>
        <time>2022-08-27T08:34:06Z</time>
      </trkpt>
      <trkpt lat="45.43728" lon="3.90953">
        <ele>898.01</ele>
        <time>2022-08-27T08:34:15Z</time>
      </trkpt>
      <trkpt lat="45.43756" lon="3.90952">
        <ele>894.16</ele>
        <time>2022-08-27T08:34:38Z</time>
      </trkpt>
      <trkpt lat="45.43786" lon="3.90944">
        <ele>890.8</ele>
        <time>2022-08-27T08:35:01Z</time>
      </trkpt>
      <trkpt lat="45.43809" lon="3.90941">
        <ele>887.91</ele>
        <time>2022-08-27T08:35:23Z</time>
      </trkpt>
      <trkpt lat="45.43833" lon="3.90944">
        <ele>885.03</ele>
        <time>2022-08-27T08:35:45Z</time>
      </trkpt>
      <trkpt lat="45.4386" lon="3.90954">
        <ele>883.59</ele>
        <time>2022-08-27T08:36:06Z</time>
      </trkpt>
      <trkpt lat="45.43889" lon="3.90969">
        <ele>885.51</ele>
        <time>2022-08-27T08:36:28Z</time>
      </trkpt>
      <trkpt lat="45.43908" lon="3.9098">
        <ele>891.28</ele>
        <time>2022-08-27T08:36:47Z</time>
      </trkpt>
      <trkpt lat="45.43934" lon="3.9098">
        <ele>896.09</ele>
        <time>2022-08-27T08:37:07Z</time>
      </trkpt>
      <trkpt lat="45.4397" lon="3.90958">
        <ele>893.2</ele>
        <time>2022-08-27T08:37:28Z</time>
      </trkpt>
      <trkpt lat="45.43979" lon="3.9094">
        <ele>895.61</ele>
        <time>2022-08-27T08:37:46Z</time>
      </trkpt>
      <trkpt lat="45.4399" lon="3.90911">
        <ele>900.89</ele>
        <time>2022-08-27T08:38:04Z</time>
      </trkpt>
      <trkpt lat="45.44003" lon="3.90878">
        <ele>900.41</ele>
        <time>2022-08-27T08:38:23Z</time>
      </trkpt>
      <trkpt lat="45.4402" lon="3.90836">
        <ele>897.53</ele>
        <time>2022-08-27T08:38:47Z</time>
      </trkpt>
      <trkpt lat="45.44029" lon="3.90811">
        <ele>898.01</ele>
        <time>2022-08-27T08:39:04Z</time>
      </trkpt>
      <trkpt lat="45.44032" lon="3.90811">
        <ele>898.01</ele>
        <time>2022-08-27T08:39:06Z</time>
      </trkpt>
      <trkpt lat="45.4405" lon="3.90811">
        <ele>898.49</ele>
        <time>2022-08-27T08:39:25Z</time>
      </trkpt>
      <trkpt lat="45.4407" lon="3.90808">
        <ele>899.45</ele>
        <time>2022-08-27T08:39:42Z</time>
      </trkpt>
      <trkpt lat="45.44095" lon="3.90808">
        <ele>902.33</ele>
        <time>2022-08-27T08:40:01Z</time>
      </trkpt>
      <trkpt lat="45.44113" lon="3.90805">
        <ele>905.7</ele>
        <time>2022-08-27T08:40:20Z</time>
      </trkpt>
      <trkpt lat="45.44131" lon="3.90807">
        <ele>905.7</ele>
        <time>2022-08-27T08:40:39Z</time>
      </trkpt>
      <trkpt lat="45.44158" lon="3.90808">
        <ele>905.7</ele>
        <time>2022-08-27T08:40:58Z</time>
      </trkpt>
      <trkpt lat="45.44173" lon="3.90811">
        <ele>905.7</ele>
        <time>2022-08-27T08:41:18Z</time>
      </trkpt>
      <trkpt lat="45.44195" lon="3.9081">
        <ele>906.18</ele>
        <time>2022-08-27T08:41:37Z</time>
      </trkpt>
      <trkpt lat="45.44211" lon="3.90806">
        <ele>906.18</ele>
        <time>2022-08-27T08:41:55Z</time>
      </trkpt>
      <trkpt lat="45.44225" lon="3.90793">
        <ele>906.66</ele>
        <time>2022-08-27T08:42:13Z</time>
      </trkpt>
      <trkpt lat="45.44252" lon="3.90792">
        <ele>907.14</ele>
        <time>2022-08-27T08:42:37Z</time>
      </trkpt>
      <trkpt lat="45.44309" lon="3.90828">
        <ele>907.14</ele>
        <time>2022-08-27T08:42:59Z</time>
      </trkpt>
      <trkpt lat="45.44337" lon="3.90839">
        <ele>907.14</ele>
        <time>2022-08-27T08:43:16Z</time>
      </trkpt>
      <trkpt lat="45.44367" lon="3.9081">
        <ele>897.05</ele>
        <time>2022-08-27T08:43:39Z</time>
      </trkpt>
      <trkpt lat="45.44391" lon="3.90802">
        <ele>886.95</ele>
        <time>2022-08-27T08:43:58Z</time>
      </trkpt>
      <trkpt lat="45.44406" lon="3.90797">
        <ele>885.51</ele>
        <time>2022-08-27T08:44:17Z</time>
      </trkpt>
      <trkpt lat="45.44423" lon="3.908">
        <ele>883.11</ele>
        <time>2022-08-27T08:44:38Z</time>
      </trkpt>
      <trkpt lat="45.44458" lon="3.90804">
        <ele>886.47</ele>
        <time>2022-08-27T08:44:59Z</time>
      </trkpt>
      <trkpt lat="45.44498" lon="3.90815">
        <ele>888.88</ele>
        <time>2022-08-27T08:45:22Z</time>
      </trkpt>
      <trkpt lat="45.44516" lon="3.90819">
        <ele>888.88</ele>
        <time>2022-08-27T08:45:39Z</time>
      </trkpt>
      <trkpt lat="45.44534" lon="3.90802">
        <ele>887.43</ele>
        <time>2022-08-27T08:46:00Z</time>
      </trkpt>
      <trkpt lat="45.44556" lon="3.90802">
        <ele>885.51</ele>
        <time>2022-08-27T08:46:10Z</time>
      </trkpt>
      <trkpt lat="45.44578" lon="3.90804">
        <ele>885.51</ele>
        <time>2022-08-27T08:46:30Z</time>
      </trkpt>
      <trkpt lat="45.44592" lon="3.90811">
        <ele>884.55</ele>
        <time>2022-08-27T08:46:48Z</time>
      </trkpt>
      <trkpt lat="45.44617" lon="3.90812">
        <ele>887.91</ele>
        <time>2022-08-27T08:47:10Z</time>
      </trkpt>
      <trkpt lat="45.44685" lon="3.90838">
        <ele>879.26</ele>
        <time>2022-08-27T08:47:29Z</time>
      </trkpt>
      <trkpt lat="45.44702" lon="3.90844">
        <ele>871.09</ele>
        <time>2022-08-27T08:47:46Z</time>
      </trkpt>
      <trkpt lat="45.44729" lon="3.90849">
        <ele>869.65</ele>
        <time>2022-08-27T08:48:03Z</time>
      </trkpt>
      <trkpt lat="45.44742" lon="3.90861">
        <ele>864.84</ele>
        <time>2022-08-27T08:48:18Z</time>
      </trkpt>
      <trkpt lat="45.44743" lon="3.90857">
        <ele>861.96</ele>
        <time>2022-08-27T08:48:35Z</time>
      </trkpt>
      <trkpt lat="45.44747" lon="3.90855">
        <ele>861</ele>
        <time>2022-08-27T08:48:54Z</time>
      </trkpt>
      <trkpt lat="45.44749" lon="3.90856">
        <ele>861.48</ele>
        <time>2022-08-27T08:49:19Z</time>
      </trkpt>
      <trkpt lat="45.44746" lon="3.90859">
        <ele>866.29</ele>
        <time>2022-08-27T08:49:46Z</time>
      </trkpt>
      <trkpt lat="45.44746" lon="3.90859">
        <ele>866.77</ele>
        <time>2022-08-27T08:50:13Z</time>
      </trkpt>
      <trkpt lat="45.44748" lon="3.90859">
        <ele>866.77</ele>
        <time>2022-08-27T08:50:43Z</time>
      </trkpt>
      <trkpt lat="45.44751" lon="3.90861">
        <ele>866.77</ele>
        <time>2022-08-27T08:51:10Z</time>
      </trkpt>
      <trkpt lat="45.4475" lon="3.90859">
        <ele>864.84</ele>
        <time>2022-08-27T08:51:40Z</time>
      </trkpt>
      <trkpt lat="45.44752" lon="3.90859">
        <ele>865.32</ele>
        <time>2022-08-27T08:52:08Z</time>
      </trkpt>
      <trkpt lat="45.44754" lon="3.90862">
        <ele>863.4</ele>
        <time>2022-08-27T08:52:36Z</time>
      </trkpt>
      <trkpt lat="45.4475" lon="3.90859">
        <ele>862.92</ele>
        <time>2022-08-27T08:52:41Z</time>
      </trkpt>
      <trkpt lat="45.44761" lon="3.90837">
        <ele>863.4</ele>
        <time>2022-08-27T08:52:57Z</time>
      </trkpt>
      <trkpt lat="45.44781" lon="3.90806">
        <ele>861.48</ele>
        <time>2022-08-27T08:53:19Z</time>
      </trkpt>
      <trkpt lat="45.44796" lon="3.90775">
        <ele>859.08</ele>
        <time>2022-08-27T08:53:40Z</time>
      </trkpt>
      <trkpt lat="45.44813" lon="3.90751">
        <ele>858.11</ele>
        <time>2022-08-27T08:53:58Z</time>
      </trkpt>
      <trkpt lat="45.44832" lon="3.90736">
        <ele>858.11</ele>
        <time>2022-08-27T08:54:16Z</time>
      </trkpt>
      <trkpt lat="45.4484" lon="3.90721">
        <ele>863.4</ele>
        <time>2022-08-27T08:54:26Z</time>
      </trkpt>
      <trkpt lat="45.44837" lon="3.90693">
        <ele>866.77</ele>
        <time>2022-08-27T08:54:43Z</time>
      </trkpt>
      <trkpt lat="45.44834" lon="3.9067">
        <ele>872.05</ele>
        <time>2022-08-27T08:54:58Z</time>
      </trkpt>
      <trkpt lat="45.44835" lon="3.90648">
        <ele>880.71</ele>
        <time>2022-08-27T08:55:13Z</time>
      </trkpt>
      <trkpt lat="45.44832" lon="3.90621">
        <ele>886.47</ele>
        <time>2022-08-27T08:55:30Z</time>
      </trkpt>
      <trkpt lat="45.44832" lon="3.90619">
        <ele>886.95</ele>
        <time>2022-08-27T08:55:31Z</time>
      </trkpt>
      <trkpt lat="45.4483" lon="3.90587">
        <ele>891.28</ele>
        <time>2022-08-27T08:55:50Z</time>
      </trkpt>
      <trkpt lat="45.44829" lon="3.90553">
        <ele>893.68</ele>
        <time>2022-08-27T08:56:07Z</time>
      </trkpt>
      <trkpt lat="45.44838" lon="3.9053">
        <ele>893.68</ele>
        <time>2022-08-27T08:56:22Z</time>
      </trkpt>
      <trkpt lat="45.44838" lon="3.90498">
        <ele>899.93</ele>
        <time>2022-08-27T08:56:40Z</time>
      </trkpt>
      <trkpt lat="45.44842" lon="3.90478">
        <ele>905.22</ele>
        <time>2022-08-27T08:57:01Z</time>
      </trkpt>
      <trkpt lat="45.44857" lon="3.90447">
        <ele>910.51</ele>
        <time>2022-08-27T08:57:18Z</time>
      </trkpt>
      <trkpt lat="45.44865" lon="3.90407">
        <ele>915.31</ele>
        <time>2022-08-27T08:57:40Z</time>
      </trkpt>
      <trkpt lat="45.44872" lon="3.90395">
        <ele>914.35</ele>
        <time>2022-08-27T08:57:57Z</time>
      </trkpt>
      <trkpt lat="45.44867" lon="3.9038">
        <ele>918.68</ele>
        <time>2022-08-27T08:58:26Z</time>
      </trkpt>
      <trkpt lat="45.44871" lon="3.9036">
        <ele>925.41</ele>
        <time>2022-08-27T08:58:48Z</time>
      </trkpt>
      <trkpt lat="45.44862" lon="3.90334">
        <ele>932.14</ele>
        <time>2022-08-27T08:59:07Z</time>
      </trkpt>
      <trkpt lat="45.44855" lon="3.90303">
        <ele>936.94</ele>
        <time>2022-08-27T08:59:24Z</time>
      </trkpt>
      <trkpt lat="45.44856" lon="3.90275">
        <ele>941.27</ele>
        <time>2022-08-27T08:59:40Z</time>
      </trkpt>
      <trkpt lat="45.44875" lon="3.90242">
        <ele>939.35</ele>
        <time>2022-08-27T08:59:57Z</time>
      </trkpt>
      <trkpt lat="45.44883" lon="3.90208">
        <ele>934.06</ele>
        <time>2022-08-27T09:00:14Z</time>
      </trkpt>
      <trkpt lat="45.44901" lon="3.90186">
        <ele>932.62</ele>
        <time>2022-08-27T09:00:32Z</time>
      </trkpt>
      <trkpt lat="45.44923" lon="3.90158">
        <ele>930.21</ele>
        <time>2022-08-27T09:00:48Z</time>
      </trkpt>
      <trkpt lat="45.44942" lon="3.90127">
        <ele>927.33</ele>
        <time>2022-08-27T09:01:08Z</time>
      </trkpt>
      <trkpt lat="45.44951" lon="3.90098">
        <ele>924.45</ele>
        <time>2022-08-27T09:01:26Z</time>
      </trkpt>
      <trkpt lat="45.44949" lon="3.90079">
        <ele>923</ele>
        <time>2022-08-27T09:01:42Z</time>
      </trkpt>
      <trkpt lat="45.44944" lon="3.90081">
        <ele>923</ele>
        <time>2022-08-27T09:02:13Z</time>
      </trkpt>
      <trkpt lat="45.44946" lon="3.90073">
        <ele>927.33</ele>
        <time>2022-08-27T09:02:42Z</time>
      </trkpt>
      <trkpt lat="45.44945" lon="3.90066">
        <ele>928.77</ele>
        <time>2022-08-27T09:02:45Z</time>
      </trkpt>
      <trkpt lat="45.44946" lon="3.90056">
        <ele>931.65</ele>
        <time>2022-08-27T09:02:49Z</time>
      </trkpt>
      <trkpt lat="45.4496" lon="3.90016">
        <ele>937.9</ele>
        <time>2022-08-27T09:03:10Z</time>
      </trkpt>
      <trkpt lat="45.44965" lon="3.90012">
        <ele>936.94</ele>
        <time>2022-08-27T09:03:23Z</time>
      </trkpt>
      <trkpt lat="45.44976" lon="3.89998">
        <ele>938.86</ele>
        <time>2022-08-27T09:03:38Z</time>
      </trkpt>
      <trkpt lat="45.44991" lon="3.89977">
        <ele>940.31</ele>
        <time>2022-08-27T09:04:00Z</time>
      </trkpt>
      <trkpt lat="45.45009" lon="3.8998">
        <ele>936.46</ele>
        <time>2022-08-27T09:04:18Z</time>
      </trkpt>
      <trkpt lat="45.45015" lon="3.90007">
        <ele>935.02</ele>
        <time>2022-08-27T09:04:33Z</time>
      </trkpt>
      <trkpt lat="45.45013" lon="3.90026">
        <ele>932.14</ele>
        <time>2022-08-27T09:04:43Z</time>
      </trkpt>
      <trkpt lat="45.45016" lon="3.90039">
        <ele>932.14</ele>
        <time>2022-08-27T09:04:57Z</time>
      </trkpt>
      <trkpt lat="45.45034" lon="3.90059">
        <ele>933.1</ele>
        <time>2022-08-27T09:05:13Z</time>
      </trkpt>
      <trkpt lat="45.45046" lon="3.9008">
        <ele>932.14</ele>
        <time>2022-08-27T09:05:30Z</time>
      </trkpt>
      <trkpt lat="45.45057" lon="3.90099">
        <ele>933.1</ele>
        <time>2022-08-27T09:05:49Z</time>
      </trkpt>
      <trkpt lat="45.45082" lon="3.90109">
        <ele>934.06</ele>
        <time>2022-08-27T09:06:11Z</time>
      </trkpt>
      <trkpt lat="45.45102" lon="3.90131">
        <ele>934.54</ele>
        <time>2022-08-27T09:06:32Z</time>
      </trkpt>
      <trkpt lat="45.4513" lon="3.90158">
        <ele>927.81</ele>
        <time>2022-08-27T09:06:52Z</time>
      </trkpt>
      <trkpt lat="45.45142" lon="3.90174">
        <ele>926.85</ele>
        <time>2022-08-27T09:07:11Z</time>
      </trkpt>
      <trkpt lat="45.45159" lon="3.90207">
        <ele>923</ele>
        <time>2022-08-27T09:07:30Z</time>
      </trkpt>
      <trkpt lat="45.4517" lon="3.90224">
        <ele>920.12</ele>
        <time>2022-08-27T09:07:46Z</time>
      </trkpt>
      <trkpt lat="45.45195" lon="3.90234">
        <ele>920.12</ele>
        <time>2022-08-27T09:08:11Z</time>
      </trkpt>
      <trkpt lat="45.4522" lon="3.90253">
        <ele>921.08</ele>
        <time>2022-08-27T09:08:34Z</time>
      </trkpt>
      <trkpt lat="45.45222" lon="3.90259">
        <ele>916.27</ele>
        <time>2022-08-27T09:08:59Z</time>
      </trkpt>
      <trkpt lat="45.45235" lon="3.90278">
        <ele>909.54</ele>
        <time>2022-08-27T09:09:18Z</time>
      </trkpt>
      <trkpt lat="45.45236" lon="3.90281">
        <ele>909.06</ele>
        <time>2022-08-27T09:09:41Z</time>
      </trkpt>
      <trkpt lat="45.45245" lon="3.90295">
        <ele>907.14</ele>
        <time>2022-08-27T09:09:56Z</time>
      </trkpt>
      <trkpt lat="45.4525" lon="3.90317">
        <ele>904.26</ele>
        <time>2022-08-27T09:10:12Z</time>
      </trkpt>
      <trkpt lat="45.45249" lon="3.90336">
        <ele>899.93</ele>
        <time>2022-08-27T09:10:28Z</time>
      </trkpt>
      <trkpt lat="45.45247" lon="3.90343">
        <ele>898.97</ele>
        <time>2022-08-27T09:10:33Z</time>
      </trkpt>
      <trkpt lat="45.45237" lon="3.90357">
        <ele>891.28</ele>
        <time>2022-08-27T09:10:48Z</time>
      </trkpt>
      <trkpt lat="45.45234" lon="3.90379">
        <ele>884.07</ele>
        <time>2022-08-27T09:11:07Z</time>
      </trkpt>
      <trkpt lat="45.45231" lon="3.90405">
        <ele>878.78</ele>
        <time>2022-08-27T09:11:25Z</time>
      </trkpt>
      <trkpt lat="45.45228" lon="3.90426">
        <ele>876.38</ele>
        <time>2022-08-27T09:11:40Z</time>
      </trkpt>
      <trkpt lat="45.4522" lon="3.90445">
        <ele>872.53</ele>
        <time>2022-08-27T09:11:56Z</time>
      </trkpt>
      <trkpt lat="45.45213" lon="3.90468">
        <ele>867.73</ele>
        <time>2022-08-27T09:12:14Z</time>
      </trkpt>
      <trkpt lat="45.45211" lon="3.90486">
        <ele>865.32</ele>
        <time>2022-08-27T09:12:27Z</time>
      </trkpt>
      <trkpt lat="45.45205" lon="3.90512">
        <ele>861.96</ele>
        <time>2022-08-27T09:12:44Z</time>
      </trkpt>
      <trkpt lat="45.452" lon="3.90546">
        <ele>856.67</ele>
        <time>2022-08-27T09:13:03Z</time>
      </trkpt>
      <trkpt lat="45.45213" lon="3.90565">
        <ele>855.23</ele>
        <time>2022-08-27T09:13:19Z</time>
      </trkpt>
      <trkpt lat="45.45218" lon="3.90568">
        <ele>854.75</ele>
        <time>2022-08-27T09:13:24Z</time>
      </trkpt>
      <trkpt lat="45.45225" lon="3.90603">
        <ele>852.83</ele>
        <time>2022-08-27T09:13:42Z</time>
      </trkpt>
      <trkpt lat="45.45228" lon="3.90618">
        <ele>851.87</ele>
        <time>2022-08-27T09:13:50Z</time>
      </trkpt>
      <trkpt lat="45.45231" lon="3.90625">
        <ele>851.87</ele>
        <time>2022-08-27T09:13:54Z</time>
      </trkpt>
      <trkpt lat="45.4524" lon="3.90645">
        <ele>853.79</ele>
        <time>2022-08-27T09:14:11Z</time>
      </trkpt>
      <trkpt lat="45.45242" lon="3.90645">
        <ele>855.23</ele>
        <time>2022-08-27T09:14:16Z</time>
      </trkpt>
      <trkpt lat="45.45266" lon="3.90621">
        <ele>861.96</ele>
        <time>2022-08-27T09:14:39Z</time>
      </trkpt>
      <trkpt lat="45.4529" lon="3.90609">
        <ele>863.4</ele>
        <time>2022-08-27T09:14:57Z</time>
      </trkpt>
      <trkpt lat="45.45288" lon="3.90627">
        <ele>865.32</ele>
        <time>2022-08-27T09:15:11Z</time>
      </trkpt>
      <trkpt lat="45.45292" lon="3.90674">
        <ele>868.69</ele>
        <time>2022-08-27T09:15:32Z</time>
      </trkpt>
      <trkpt lat="45.45292" lon="3.90696">
        <ele>871.09</ele>
        <time>2022-08-27T09:15:43Z</time>
      </trkpt>
      <trkpt lat="45.45303" lon="3.90725">
        <ele>875.42</ele>
        <time>2022-08-27T09:16:01Z</time>
      </trkpt>
      <trkpt lat="45.4532" lon="3.9074">
        <ele>881.67</ele>
        <time>2022-08-27T09:16:20Z</time>
      </trkpt>
      <trkpt lat="45.45339" lon="3.90758">
        <ele>883.11</ele>
        <time>2022-08-27T09:16:37Z</time>
      </trkpt>
      <trkpt lat="45.45356" lon="3.90785">
        <ele>889.36</ele>
        <time>2022-08-27T09:16:59Z</time>
      </trkpt>
      <trkpt lat="45.45375" lon="3.90799">
        <ele>894.16</ele>
        <time>2022-08-27T09:17:20Z</time>
      </trkpt>
      <trkpt lat="45.45397" lon="3.90802">
        <ele>898.97</ele>
        <time>2022-08-27T09:17:42Z</time>
      </trkpt>
      <trkpt lat="45.45397" lon="3.90801">
        <ele>900.41</ele>
        <time>2022-08-27T09:18:10Z</time>
      </trkpt>
      <trkpt lat="45.454" lon="3.90819">
        <ele>874.94</ele>
        <time>2022-08-27T09:18:36Z</time>
      </trkpt>
      <trkpt lat="45.45401" lon="3.90814">
        <ele>876.86</ele>
        <time>2022-08-27T09:18:59Z</time>
      </trkpt>
      <trkpt lat="45.45405" lon="3.90813">
        <ele>877.82</ele>
        <time>2022-08-27T09:19:04Z</time>
      </trkpt>
      <trkpt lat="45.45426" lon="3.90797">
        <ele>880.71</ele>
        <time>2022-08-27T09:19:24Z</time>
      </trkpt>
      <trkpt lat="45.45447" lon="3.90771">
        <ele>877.82</ele>
        <time>2022-08-27T09:19:43Z</time>
      </trkpt>
      <trkpt lat="45.45467" lon="3.90749">
        <ele>875.42</ele>
        <time>2022-08-27T09:20:01Z</time>
      </trkpt>
      <trkpt lat="45.45492" lon="3.9073">
        <ele>876.38</ele>
        <time>2022-08-27T09:20:19Z</time>
      </trkpt>
      <trkpt lat="45.4552" lon="3.90719">
        <ele>878.78</ele>
        <time>2022-08-27T09:20:38Z</time>
      </trkpt>
      <trkpt lat="45.45551" lon="3.907">
        <ele>880.22</ele>
        <time>2022-08-27T09:21:00Z</time>
      </trkpt>
      <trkpt lat="45.45578" lon="3.90695">
        <ele>883.59</ele>
        <time>2022-08-27T09:21:21Z</time>
      </trkpt>
      <trkpt lat="45.45604" lon="3.90695">
        <ele>886.95</ele>
        <time>2022-08-27T09:21:40Z</time>
      </trkpt>
      <trkpt lat="45.45627" lon="3.9071">
        <ele>886.47</ele>
        <time>2022-08-27T09:22:00Z</time>
      </trkpt>
      <trkpt lat="45.45653" lon="3.90716">
        <ele>885.03</ele>
        <time>2022-08-27T09:22:20Z</time>
      </trkpt>
      <trkpt lat="45.45674" lon="3.90721">
        <ele>884.07</ele>
        <time>2022-08-27T09:22:37Z</time>
      </trkpt>
      <trkpt lat="45.45689" lon="3.90726">
        <ele>891.28</ele>
        <time>2022-08-27T09:22:51Z</time>
      </trkpt>
      <trkpt lat="45.45698" lon="3.9072">
        <ele>892.72</ele>
        <time>2022-08-27T09:23:00Z</time>
      </trkpt>
      <trkpt lat="45.45731" lon="3.9071">
        <ele>887.91</ele>
        <time>2022-08-27T09:23:19Z</time>
      </trkpt>
      <trkpt lat="45.45758" lon="3.90695">
        <ele>894.64</ele>
        <time>2022-08-27T09:23:38Z</time>
      </trkpt>
      <trkpt lat="45.45761" lon="3.90684">
        <ele>896.09</ele>
        <time>2022-08-27T09:23:48Z</time>
      </trkpt>
      <trkpt lat="45.45759" lon="3.9068">
        <ele>896.57</ele>
        <time>2022-08-27T09:23:53Z</time>
      </trkpt>
      <trkpt lat="45.45736" lon="3.90664">
        <ele>896.09</ele>
        <time>2022-08-27T09:24:12Z</time>
      </trkpt>
      <trkpt lat="45.45715" lon="3.90638">
        <ele>894.16</ele>
        <time>2022-08-27T09:24:32Z</time>
      </trkpt>
      <trkpt lat="45.45711" lon="3.90599">
        <ele>892.72</ele>
        <time>2022-08-27T09:24:51Z</time>
      </trkpt>
      <trkpt lat="45.45718" lon="3.90565">
        <ele>891.76</ele>
        <time>2022-08-27T09:25:10Z</time>
      </trkpt>
      <trkpt lat="45.45726" lon="3.90528">
        <ele>890.32</ele>
        <time>2022-08-27T09:25:31Z</time>
      </trkpt>
      <trkpt lat="45.45736" lon="3.90492">
        <ele>887.91</ele>
        <time>2022-08-27T09:25:49Z</time>
      </trkpt>
      <trkpt lat="45.45756" lon="3.90473">
        <ele>885.99</ele>
        <time>2022-08-27T09:26:06Z</time>
      </trkpt>
      <trkpt lat="45.45779" lon="3.9046">
        <ele>884.07</ele>
        <time>2022-08-27T09:26:24Z</time>
      </trkpt>
      <trkpt lat="45.458" lon="3.90467">
        <ele>883.11</ele>
        <time>2022-08-27T09:26:41Z</time>
      </trkpt>
      <trkpt lat="45.45802" lon="3.90466">
        <ele>883.11</ele>
        <time>2022-08-27T09:26:42Z</time>
      </trkpt>
      <trkpt lat="45.45821" lon="3.90454">
        <ele>886.95</ele>
        <time>2022-08-27T09:26:59Z</time>
      </trkpt>
      <trkpt lat="45.45823" lon="3.90451">
        <ele>887.43</ele>
        <time>2022-08-27T09:27:01Z</time>
      </trkpt>
      <trkpt lat="45.45823" lon="3.9045">
        <ele>887.43</ele>
        <time>2022-08-27T09:27:02Z</time>
      </trkpt>
      <trkpt lat="45.45843" lon="3.90424">
        <ele>887.91</ele>
        <time>2022-08-27T09:27:20Z</time>
      </trkpt>
      <trkpt lat="45.45861" lon="3.90394">
        <ele>891.76</ele>
        <time>2022-08-27T09:27:40Z</time>
      </trkpt>
      <trkpt lat="45.45875" lon="3.90367">
        <ele>893.68</ele>
        <time>2022-08-27T09:27:58Z</time>
      </trkpt>
      <trkpt lat="45.4589" lon="3.90349">
        <ele>894.64</ele>
        <time>2022-08-27T09:28:14Z</time>
      </trkpt>
      <trkpt lat="45.45909" lon="3.90325">
        <ele>892.24</ele>
        <time>2022-08-27T09:28:32Z</time>
      </trkpt>
      <trkpt lat="45.45926" lon="3.90296">
        <ele>893.68</ele>
        <time>2022-08-27T09:28:50Z</time>
      </trkpt>
      <trkpt lat="45.45949" lon="3.90269">
        <ele>896.09</ele>
        <time>2022-08-27T09:29:09Z</time>
      </trkpt>
      <trkpt lat="45.45974" lon="3.90242">
        <ele>893.68</ele>
        <time>2022-08-27T09:29:29Z</time>
      </trkpt>
      <trkpt lat="45.45989" lon="3.90221">
        <ele>895.12</ele>
        <time>2022-08-27T09:29:49Z</time>
      </trkpt>
      <trkpt lat="45.46006" lon="3.90197">
        <ele>896.57</ele>
        <time>2022-08-27T09:30:08Z</time>
      </trkpt>
      <trkpt lat="45.46015" lon="3.90168">
        <ele>894.16</ele>
        <time>2022-08-27T09:30:28Z</time>
      </trkpt>
      <trkpt lat="45.46029" lon="3.90136">
        <ele>892.24</ele>
        <time>2022-08-27T09:30:47Z</time>
      </trkpt>
      <trkpt lat="45.46049" lon="3.9011">
        <ele>888.4</ele>
        <time>2022-08-27T09:31:06Z</time>
      </trkpt>
      <trkpt lat="45.46066" lon="3.90088">
        <ele>887.43</ele>
        <time>2022-08-27T09:31:22Z</time>
      </trkpt>
      <trkpt lat="45.4608" lon="3.90068">
        <ele>884.55</ele>
        <time>2022-08-27T09:31:37Z</time>
      </trkpt>
      <trkpt lat="45.46097" lon="3.90042">
        <ele>881.19</ele>
        <time>2022-08-27T09:31:55Z</time>
      </trkpt>
      <trkpt lat="45.46116" lon="3.90026">
        <ele>879.26</ele>
        <time>2022-08-27T09:32:12Z</time>
      </trkpt>
      <trkpt lat="45.46124" lon="3.9002">
        <ele>877.82</ele>
        <time>2022-08-27T09:32:19Z</time>
      </trkpt>
      <trkpt lat="45.4615" lon="3.90006">
        <ele>874.46</ele>
        <time>2022-08-27T09:32:38Z</time>
      </trkpt>
      <trkpt lat="45.46175" lon="3.89999">
        <ele>872.05</ele>
        <time>2022-08-27T09:32:57Z</time>
      </trkpt>
      <trkpt lat="45.46193" lon="3.89994">
        <ele>872.53</ele>
        <time>2022-08-27T09:33:14Z</time>
      </trkpt>
      <trkpt lat="45.4621" lon="3.89989">
        <ele>871.57</ele>
        <time>2022-08-27T09:33:32Z</time>
      </trkpt>
      <trkpt lat="45.4623" lon="3.89967">
        <ele>869.17</ele>
        <time>2022-08-27T09:33:51Z</time>
      </trkpt>
      <trkpt lat="45.46232" lon="3.89955">
        <ele>866.77</ele>
        <time>2022-08-27T09:33:58Z</time>
      </trkpt>
      <trkpt lat="45.46237" lon="3.89944">
        <ele>863.4</ele>
        <time>2022-08-27T09:34:06Z</time>
      </trkpt>
      <trkpt lat="45.46258" lon="3.89935">
        <ele>857.15</ele>
        <time>2022-08-27T09:34:26Z</time>
      </trkpt>
      <trkpt lat="45.46271" lon="3.89927">
        <ele>860.52</ele>
        <time>2022-08-27T09:34:44Z</time>
      </trkpt>
      <trkpt lat="45.46296" lon="3.89909">
        <ele>866.77</ele>
        <time>2022-08-27T09:35:02Z</time>
      </trkpt>
      <trkpt lat="45.46311" lon="3.89905">
        <ele>867.25</ele>
        <time>2022-08-27T09:35:13Z</time>
      </trkpt>
      <trkpt lat="45.46337" lon="3.8989">
        <ele>874.46</ele>
        <time>2022-08-27T09:35:34Z</time>
      </trkpt>
      <trkpt lat="45.46342" lon="3.89894">
        <ele>874.46</ele>
        <time>2022-08-27T09:35:53Z</time>
      </trkpt>
      <trkpt lat="45.46339" lon="3.89889">
        <ele>870.13</ele>
        <time>2022-08-27T09:36:19Z</time>
      </trkpt>
      <trkpt lat="45.4634" lon="3.89887">
        <ele>867.73</ele>
        <time>2022-08-27T09:36:42Z</time>
      </trkpt>
      <trkpt lat="45.46337" lon="3.89877">
        <ele>867.73</ele>
        <time>2022-08-27T09:37:11Z</time>
      </trkpt>
      <trkpt lat="45.46342" lon="3.89872">
        <ele>868.21</ele>
        <time>2022-08-27T09:37:30Z</time>
      </trkpt>
      <trkpt lat="45.46344" lon="3.89869">
        <ele>865.32</ele>
        <time>2022-08-27T09:38:04Z</time>
      </trkpt>
      <trkpt lat="45.46346" lon="3.89864">
        <ele>864.84</ele>
        <time>2022-08-27T09:38:31Z</time>
      </trkpt>
      <trkpt lat="45.46344" lon="3.89862">
        <ele>865.8</ele>
        <time>2022-08-27T09:39:00Z</time>
      </trkpt>
      <trkpt lat="45.46347" lon="3.89861">
        <ele>864.36</ele>
        <time>2022-08-27T09:39:24Z</time>
      </trkpt>
      <trkpt lat="45.46346" lon="3.89862">
        <ele>863.88</ele>
        <time>2022-08-27T09:39:53Z</time>
      </trkpt>
      <trkpt lat="45.46349" lon="3.89869">
        <ele>860.04</ele>
        <time>2022-08-27T09:40:21Z</time>
      </trkpt>
      <trkpt lat="45.46356" lon="3.89874">
        <ele>859.56</ele>
        <time>2022-08-27T09:40:54Z</time>
      </trkpt>
      <trkpt lat="45.46352" lon="3.89869">
        <ele>861.96</ele>
        <time>2022-08-27T09:41:22Z</time>
      </trkpt>
      <trkpt lat="45.46347" lon="3.89886">
        <ele>860.52</ele>
        <time>2022-08-27T09:41:41Z</time>
      </trkpt>
      <trkpt lat="45.4635" lon="3.89899">
        <ele>862.44</ele>
        <time>2022-08-27T09:41:57Z</time>
      </trkpt>
      <trkpt lat="45.46346" lon="3.899">
        <ele>863.88</ele>
        <time>2022-08-27T09:42:20Z</time>
      </trkpt>
      <trkpt lat="45.46347" lon="3.89903">
        <ele>866.77</ele>
        <time>2022-08-27T09:42:39Z</time>
      </trkpt>
      <trkpt lat="45.4635" lon="3.89902">
        <ele>867.73</ele>
        <time>2022-08-27T09:43:00Z</time>
      </trkpt>
      <trkpt lat="45.46353" lon="3.89902">
        <ele>868.21</ele>
        <time>2022-08-27T09:43:27Z</time>
      </trkpt>
      <trkpt lat="45.46348" lon="3.89902">
        <ele>870.13</ele>
        <time>2022-08-27T09:43:50Z</time>
      </trkpt>
      <trkpt lat="45.46343" lon="3.89898">
        <ele>864.84</ele>
        <time>2022-08-27T09:44:11Z</time>
      </trkpt>
      <trkpt lat="45.46339" lon="3.89892">
        <ele>867.73</ele>
        <time>2022-08-27T09:44:38Z</time>
      </trkpt>
      <trkpt lat="45.46345" lon="3.89903">
        <ele>866.29</ele>
        <time>2022-08-27T09:44:54Z</time>
      </trkpt>
      <trkpt lat="45.46351" lon="3.89911">
        <ele>870.13</ele>
        <time>2022-08-27T09:45:19Z</time>
      </trkpt>
      <trkpt lat="45.46347" lon="3.89921">
        <ele>874.94</ele>
        <time>2022-08-27T09:45:48Z</time>
      </trkpt>
      <trkpt lat="45.46347" lon="3.8992">
        <ele>881.67</ele>
        <time>2022-08-27T09:46:25Z</time>
      </trkpt>
      <trkpt lat="45.4635" lon="3.89919">
        <ele>879.26</ele>
        <time>2022-08-27T09:46:49Z</time>
      </trkpt>
      <trkpt lat="45.46344" lon="3.89914">
        <ele>879.26</ele>
        <time>2022-08-27T09:47:09Z</time>
      </trkpt>
      <trkpt lat="45.46343" lon="3.89906">
        <ele>876.38</ele>
        <time>2022-08-27T09:47:29Z</time>
      </trkpt>
      <trkpt lat="45.46346" lon="3.89907">
        <ele>872.05</ele>
        <time>2022-08-27T09:48:00Z</time>
      </trkpt>
      <trkpt lat="45.46344" lon="3.89902">
        <ele>868.69</ele>
        <time>2022-08-27T09:48:28Z</time>
      </trkpt>
      <trkpt lat="45.46344" lon="3.89896">
        <ele>870.13</ele>
        <time>2022-08-27T09:48:56Z</time>
      </trkpt>
      <trkpt lat="45.46342" lon="3.89895">
        <ele>866.29</ele>
        <time>2022-08-27T09:49:16Z</time>
      </trkpt>
      <trkpt lat="45.46342" lon="3.89897">
        <ele>866.29</ele>
        <time>2022-08-27T09:49:45Z</time>
      </trkpt>
      <trkpt lat="45.46343" lon="3.89895">
        <ele>866.29</ele>
        <time>2022-08-27T09:50:13Z</time>
      </trkpt>
      <trkpt lat="45.46344" lon="3.89896">
        <ele>866.29</ele>
        <time>2022-08-27T09:50:44Z</time>
      </trkpt>
      <trkpt lat="45.46339" lon="3.89895">
        <ele>867.73</ele>
        <time>2022-08-27T09:51:05Z</time>
      </trkpt>
      <trkpt lat="45.46341" lon="3.89897">
        <ele>869.17</ele>
        <time>2022-08-27T09:51:28Z</time>
      </trkpt>
      <trkpt lat="45.46343" lon="3.89897">
        <ele>871.09</ele>
        <time>2022-08-27T09:52:01Z</time>
      </trkpt>
      <trkpt lat="45.46343" lon="3.89891">
        <ele>870.13</ele>
        <time>2022-08-27T09:52:23Z</time>
      </trkpt>
      <trkpt lat="45.46343" lon="3.89889">
        <ele>873.5</ele>
        <time>2022-08-27T09:52:43Z</time>
      </trkpt>
      <trkpt lat="45.46341" lon="3.89886">
        <ele>873.01</ele>
        <time>2022-08-27T09:53:08Z</time>
      </trkpt>
      <trkpt lat="45.46349" lon="3.89894">
        <ele>870.13</ele>
        <time>2022-08-27T09:53:29Z</time>
      </trkpt>
      <trkpt lat="45.46347" lon="3.89895">
        <ele>868.21</ele>
        <time>2022-08-27T09:53:50Z</time>
      </trkpt>
      <trkpt lat="45.46351" lon="3.89895">
        <ele>866.77</ele>
        <time>2022-08-27T09:54:07Z</time>
      </trkpt>
      <trkpt lat="45.46351" lon="3.89901">
        <ele>864.84</ele>
        <time>2022-08-27T09:54:29Z</time>
      </trkpt>
      <trkpt lat="45.46358" lon="3.89891">
        <ele>869.17</ele>
        <time>2022-08-27T09:54:50Z</time>
      </trkpt>
      <trkpt lat="45.46371" lon="3.89882">
        <ele>871.57</ele>
        <time>2022-08-27T09:55:06Z</time>
      </trkpt>
      <trkpt lat="45.46396" lon="3.89868">
        <ele>871.09</ele>
        <time>2022-08-27T09:55:26Z</time>
      </trkpt>
      <trkpt lat="45.46418" lon="3.8986">
        <ele>869.65</ele>
        <time>2022-08-27T09:55:46Z</time>
      </trkpt>
      <trkpt lat="45.46447" lon="3.89847">
        <ele>870.61</ele>
        <time>2022-08-27T09:56:01Z</time>
      </trkpt>
      <trkpt lat="45.46468" lon="3.89836">
        <ele>870.13</ele>
        <time>2022-08-27T09:56:18Z</time>
      </trkpt>
      <trkpt lat="45.4647" lon="3.89832">
        <ele>871.57</ele>
        <time>2022-08-27T09:56:31Z</time>
      </trkpt>
      <trkpt lat="45.46468" lon="3.89828">
        <ele>874.94</ele>
        <time>2022-08-27T09:56:36Z</time>
      </trkpt>
      <trkpt lat="45.46453" lon="3.89791">
        <ele>879.26</ele>
        <time>2022-08-27T09:56:56Z</time>
      </trkpt>
      <trkpt lat="45.46446" lon="3.8976">
        <ele>884.55</ele>
        <time>2022-08-27T09:57:10Z</time>
      </trkpt>
      <trkpt lat="45.46439" lon="3.89736">
        <ele>888.88</ele>
        <time>2022-08-27T09:57:24Z</time>
      </trkpt>
      <trkpt lat="45.46426" lon="3.89698">
        <ele>882.15</ele>
        <time>2022-08-27T09:57:43Z</time>
      </trkpt>
      <trkpt lat="45.46417" lon="3.89676">
        <ele>880.71</ele>
        <time>2022-08-27T09:57:59Z</time>
      </trkpt>
      <trkpt lat="45.46415" lon="3.89675">
        <ele>881.19</ele>
        <time>2022-08-27T09:58:02Z</time>
      </trkpt>
      <trkpt lat="45.46395" lon="3.89685">
        <ele>879.74</ele>
        <time>2022-08-27T09:58:20Z</time>
      </trkpt>
      <trkpt lat="45.46382" lon="3.8969">
        <ele>878.78</ele>
        <time>2022-08-27T09:58:31Z</time>
      </trkpt>
      <trkpt lat="45.46366" lon="3.89662">
        <ele>876.38</ele>
        <time>2022-08-27T09:58:49Z</time>
      </trkpt>
      <trkpt lat="45.46353" lon="3.89634">
        <ele>879.74</ele>
        <time>2022-08-27T09:59:05Z</time>
      </trkpt>
      <trkpt lat="45.46338" lon="3.89605">
        <ele>885.99</ele>
        <time>2022-08-27T09:59:25Z</time>
      </trkpt>
      <trkpt lat="45.46329" lon="3.89578">
        <ele>892.72</ele>
        <time>2022-08-27T09:59:37Z</time>
      </trkpt>
      <trkpt lat="45.46326" lon="3.89573">
        <ele>894.64</ele>
        <time>2022-08-27T09:59:43Z</time>
      </trkpt>
      <trkpt lat="45.4631" lon="3.89584">
        <ele>901.85</ele>
        <time>2022-08-27T10:00:00Z</time>
      </trkpt>
      <trkpt lat="45.46292" lon="3.89598">
        <ele>906.18</ele>
        <time>2022-08-27T10:00:15Z</time>
      </trkpt>
      <trkpt lat="45.46268" lon="3.8961">
        <ele>907.62</ele>
        <time>2022-08-27T10:00:28Z</time>
      </trkpt>
      <trkpt lat="45.46256" lon="3.89604">
        <ele>909.54</ele>
        <time>2022-08-27T10:00:42Z</time>
      </trkpt>
      <trkpt lat="45.46231" lon="3.89594">
        <ele>910.99</ele>
        <time>2022-08-27T10:00:59Z</time>
      </trkpt>
      <trkpt lat="45.46215" lon="3.89584">
        <ele>913.87</ele>
        <time>2022-08-27T10:01:18Z</time>
      </trkpt>
      <trkpt lat="45.46201" lon="3.89561">
        <ele>919.64</ele>
        <time>2022-08-27T10:01:38Z</time>
      </trkpt>
      <trkpt lat="45.46195" lon="3.89527">
        <ele>923.96</ele>
        <time>2022-08-27T10:01:57Z</time>
      </trkpt>
      <trkpt lat="45.46204" lon="3.89485">
        <ele>920.6</ele>
        <time>2022-08-27T10:02:16Z</time>
      </trkpt>
      <trkpt lat="45.46207" lon="3.89476">
        <ele>917.24</ele>
        <time>2022-08-27T10:02:18Z</time>
      </trkpt>
      <trkpt lat="45.46236" lon="3.89458">
        <ele>908.58</ele>
        <time>2022-08-27T10:02:36Z</time>
      </trkpt>
      <trkpt lat="45.46254" lon="3.89441">
        <ele>907.14</ele>
        <time>2022-08-27T10:02:49Z</time>
      </trkpt>
      <trkpt lat="45.46269" lon="3.89412">
        <ele>901.37</ele>
        <time>2022-08-27T10:03:07Z</time>
      </trkpt>
      <trkpt lat="45.46274" lon="3.89386">
        <ele>894.64</ele>
        <time>2022-08-27T10:03:22Z</time>
      </trkpt>
      <trkpt lat="45.4629" lon="3.89378">
        <ele>889.84</ele>
        <time>2022-08-27T10:03:33Z</time>
      </trkpt>
      <trkpt lat="45.46311" lon="3.89381">
        <ele>885.51</ele>
        <time>2022-08-27T10:03:48Z</time>
      </trkpt>
      <trkpt lat="45.4633" lon="3.89385">
        <ele>883.11</ele>
        <time>2022-08-27T10:04:04Z</time>
      </trkpt>
      <trkpt lat="45.46335" lon="3.89387">
        <ele>881.67</ele>
        <time>2022-08-27T10:04:09Z</time>
      </trkpt>
      <trkpt lat="45.46335" lon="3.89378">
        <ele>881.19</ele>
        <time>2022-08-27T10:04:13Z</time>
      </trkpt>
      <trkpt lat="45.46335" lon="3.89375">
        <ele>881.19</ele>
        <time>2022-08-27T10:04:14Z</time>
      </trkpt>
      <trkpt lat="45.46335" lon="3.89372">
        <ele>880.71</ele>
        <time>2022-08-27T10:04:15Z</time>
      </trkpt>
      <trkpt lat="45.46335" lon="3.89369">
        <ele>880.71</ele>
        <time>2022-08-27T10:04:16Z</time>
      </trkpt>
      <trkpt lat="45.46335" lon="3.89367">
        <ele>880.71</ele>
        <time>2022-08-27T10:04:17Z</time>
      </trkpt>
      <trkpt lat="45.46335" lon="3.89365">
        <ele>880.22</ele>
        <time>2022-08-27T10:04:18Z</time>
      </trkpt>
      <trkpt lat="45.46334" lon="3.89363">
        <ele>880.22</ele>
        <time>2022-08-27T10:04:19Z</time>
      </trkpt>
      <trkpt lat="45.46337" lon="3.89332">
        <ele>882.63</ele>
        <time>2022-08-27T10:04:35Z</time>
      </trkpt>
      <trkpt lat="45.46329" lon="3.89301">
        <ele>887.91</ele>
        <time>2022-08-27T10:04:56Z</time>
      </trkpt>
      <trkpt lat="45.46316" lon="3.89269">
        <ele>897.53</ele>
        <time>2022-08-27T10:05:16Z</time>
      </trkpt>
      <trkpt lat="45.46309" lon="3.89235">
        <ele>908.58</ele>
        <time>2022-08-27T10:05:35Z</time>
      </trkpt>
      <trkpt lat="45.46301" lon="3.89223">
        <ele>912.91</ele>
        <time>2022-08-27T10:05:45Z</time>
      </trkpt>
      <trkpt lat="45.46282" lon="3.89208">
        <ele>918.2</ele>
        <time>2022-08-27T10:06:04Z</time>
      </trkpt>
      <trkpt lat="45.46271" lon="3.89186">
        <ele>923</ele>
        <time>2022-08-27T10:06:21Z</time>
      </trkpt>
      <trkpt lat="45.46264" lon="3.89155">
        <ele>928.29</ele>
        <time>2022-08-27T10:06:41Z</time>
      </trkpt>
      <trkpt lat="45.46258" lon="3.89123">
        <ele>935.02</ele>
        <time>2022-08-27T10:07:00Z</time>
      </trkpt>
      <trkpt lat="45.46251" lon="3.89084">
        <ele>939.83</ele>
        <time>2022-08-27T10:07:22Z</time>
      </trkpt>
      <trkpt lat="45.46251" lon="3.89048">
        <ele>944.15</ele>
        <time>2022-08-27T10:07:45Z</time>
      </trkpt>
      <trkpt lat="45.46255" lon="3.89016">
        <ele>947.04</ele>
        <time>2022-08-27T10:08:05Z</time>
      </trkpt>
      <trkpt lat="45.46248" lon="3.88995">
        <ele>948</ele>
        <time>2022-08-27T10:08:13Z</time>
      </trkpt>
      <trkpt lat="45.46239" lon="3.88959">
        <ele>955.21</ele>
        <time>2022-08-27T10:08:33Z</time>
      </trkpt>
      <trkpt lat="45.46233" lon="3.88929">
        <ele>951.36</ele>
        <time>2022-08-27T10:08:47Z</time>
      </trkpt>
      <trkpt lat="45.46232" lon="3.88917">
        <ele>946.07</ele>
        <time>2022-08-27T10:08:53Z</time>
      </trkpt>
      <trkpt lat="45.46218" lon="3.88893">
        <ele>939.83</ele>
        <time>2022-08-27T10:09:11Z</time>
      </trkpt>
      <trkpt lat="45.46207" lon="3.88868">
        <ele>937.42</ele>
        <time>2022-08-27T10:09:27Z</time>
      </trkpt>
      <trkpt lat="45.46196" lon="3.88839">
        <ele>938.86</ele>
        <time>2022-08-27T10:09:45Z</time>
      </trkpt>
      <trkpt lat="45.46184" lon="3.88819">
        <ele>942.23</ele>
        <time>2022-08-27T10:10:01Z</time>
      </trkpt>
      <trkpt lat="45.46175" lon="3.88789">
        <ele>945.11</ele>
        <time>2022-08-27T10:10:18Z</time>
      </trkpt>
      <trkpt lat="45.46162" lon="3.88767">
        <ele>949.92</ele>
        <time>2022-08-27T10:10:36Z</time>
      </trkpt>
      <trkpt lat="45.46152" lon="3.88742">
        <ele>951.84</ele>
        <time>2022-08-27T10:10:51Z</time>
      </trkpt>
      <trkpt lat="45.46143" lon="3.88719">
        <ele>957.13</ele>
        <time>2022-08-27T10:11:09Z</time>
      </trkpt>
      <trkpt lat="45.46134" lon="3.88669">
        <ele>965.3</ele>
        <time>2022-08-27T10:11:28Z</time>
      </trkpt>
      <trkpt lat="45.46135" lon="3.8861">
        <ele>963.86</ele>
        <time>2022-08-27T10:11:43Z</time>
      </trkpt>
      <trkpt lat="45.4613" lon="3.88565">
        <ele>963.86</ele>
        <time>2022-08-27T10:12:07Z</time>
      </trkpt>
      <trkpt lat="45.46126" lon="3.88522">
        <ele>964.34</ele>
        <time>2022-08-27T10:12:29Z</time>
      </trkpt>
      <trkpt lat="45.46126" lon="3.88504">
        <ele>964.82</ele>
        <time>2022-08-27T10:12:47Z</time>
      </trkpt>
      <trkpt lat="45.4612" lon="3.88497">
        <ele>966.74</ele>
        <time>2022-08-27T10:13:04Z</time>
      </trkpt>
      <trkpt lat="45.46124" lon="3.88451">
        <ele>966.26</ele>
        <time>2022-08-27T10:13:25Z</time>
      </trkpt>
      <trkpt lat="45.46121" lon="3.8844">
        <ele>968.18</ele>
        <time>2022-08-27T10:13:44Z</time>
      </trkpt>
      <trkpt lat="45.4612" lon="3.88413">
        <ele>972.03</ele>
        <time>2022-08-27T10:14:03Z</time>
      </trkpt>
      <trkpt lat="45.4613" lon="3.88379">
        <ele>975.39</ele>
        <time>2022-08-27T10:14:23Z</time>
      </trkpt>
      <trkpt lat="45.46133" lon="3.88356">
        <ele>976.84</ele>
        <time>2022-08-27T10:14:45Z</time>
      </trkpt>
      <trkpt lat="45.46136" lon="3.88334">
        <ele>979.72</ele>
        <time>2022-08-27T10:14:55Z</time>
      </trkpt>
      <trkpt lat="45.46156" lon="3.88288">
        <ele>982.12</ele>
        <time>2022-08-27T10:15:15Z</time>
      </trkpt>
      <trkpt lat="45.46167" lon="3.88257">
        <ele>987.41</ele>
        <time>2022-08-27T10:15:34Z</time>
      </trkpt>
      <trkpt lat="45.46168" lon="3.88229">
        <ele>994.14</ele>
        <time>2022-08-27T10:15:53Z</time>
      </trkpt>
      <trkpt lat="45.46176" lon="3.882">
        <ele>997.02</ele>
        <time>2022-08-27T10:16:08Z</time>
      </trkpt>
      <trkpt lat="45.46192" lon="3.88168">
        <ele>996.54</ele>
        <time>2022-08-27T10:16:23Z</time>
      </trkpt>
      <trkpt lat="45.46205" lon="3.88136">
        <ele>994.14</ele>
        <time>2022-08-27T10:16:41Z</time>
      </trkpt>
      <trkpt lat="45.46216" lon="3.88093">
        <ele>993.18</ele>
        <time>2022-08-27T10:16:59Z</time>
      </trkpt>
      <trkpt lat="45.46227" lon="3.8806">
        <ele>991.74</ele>
        <time>2022-08-27T10:17:16Z</time>
      </trkpt>
      <trkpt lat="45.46243" lon="3.88035">
        <ele>991.26</ele>
        <time>2022-08-27T10:17:34Z</time>
      </trkpt>
      <trkpt lat="45.46252" lon="3.88015">
        <ele>992.22</ele>
        <time>2022-08-27T10:17:49Z</time>
      </trkpt>
      <trkpt lat="45.46264" lon="3.87994">
        <ele>995.1</ele>
        <time>2022-08-27T10:18:07Z</time>
      </trkpt>
      <trkpt lat="45.46278" lon="3.8797">
        <ele>1000.39</ele>
        <time>2022-08-27T10:18:26Z</time>
      </trkpt>
      <trkpt lat="45.463" lon="3.87964">
        <ele>1010</ele>
        <time>2022-08-27T10:18:52Z</time>
      </trkpt>
      <trkpt lat="45.46321" lon="3.87957">
        <ele>1022.02</ele>
        <time>2022-08-27T10:19:16Z</time>
      </trkpt>
      <trkpt lat="45.46333" lon="3.87942">
        <ele>1029.23</ele>
        <time>2022-08-27T10:19:38Z</time>
      </trkpt>
      <trkpt lat="45.46338" lon="3.87907">
        <ele>1032.11</ele>
        <time>2022-08-27T10:20:00Z</time>
      </trkpt>
      <trkpt lat="45.46347" lon="3.87878">
        <ele>1035</ele>
        <time>2022-08-27T10:20:21Z</time>
      </trkpt>
      <trkpt lat="45.46357" lon="3.87844">
        <ele>1035.48</ele>
        <time>2022-08-27T10:20:39Z</time>
      </trkpt>
      <trkpt lat="45.46361" lon="3.87829">
        <ele>1044.13</ele>
        <time>2022-08-27T10:20:56Z</time>
      </trkpt>
      <trkpt lat="45.46351" lon="3.8781">
        <ele>1057.11</ele>
        <time>2022-08-27T10:21:16Z</time>
      </trkpt>
      <trkpt lat="45.46326" lon="3.87771">
        <ele>1057.11</ele>
        <time>2022-08-27T10:21:37Z</time>
      </trkpt>
      <trkpt lat="45.46308" lon="3.87745">
        <ele>1061.91</ele>
        <time>2022-08-27T10:21:58Z</time>
      </trkpt>
      <trkpt lat="45.46308" lon="3.87703">
        <ele>1064.8</ele>
        <time>2022-08-27T10:22:17Z</time>
      </trkpt>
      <trkpt lat="45.46316" lon="3.87666">
        <ele>1062.39</ele>
        <time>2022-08-27T10:22:36Z</time>
      </trkpt>
      <trkpt lat="45.4633" lon="3.87627">
        <ele>1054.22</ele>
        <time>2022-08-27T10:22:57Z</time>
      </trkpt>
      <trkpt lat="45.46341" lon="3.876">
        <ele>1060.47</ele>
        <time>2022-08-27T10:23:14Z</time>
      </trkpt>
      <trkpt lat="45.46352" lon="3.87584">
        <ele>1066.72</ele>
        <time>2022-08-27T10:23:28Z</time>
      </trkpt>
      <trkpt lat="45.46362" lon="3.8756">
        <ele>1069.6</ele>
        <time>2022-08-27T10:23:47Z</time>
      </trkpt>
      <trkpt lat="45.46373" lon="3.87534">
        <ele>1070.57</ele>
        <time>2022-08-27T10:24:06Z</time>
      </trkpt>
      <trkpt lat="45.46385" lon="3.87487">
        <ele>1073.45</ele>
        <time>2022-08-27T10:24:23Z</time>
      </trkpt>
      <trkpt lat="45.464" lon="3.87428">
        <ele>1069.6</ele>
        <time>2022-08-27T10:24:40Z</time>
      </trkpt>
      <trkpt lat="45.46409" lon="3.8741">
        <ele>1066.24</ele>
        <time>2022-08-27T10:24:53Z</time>
      </trkpt>
      <trkpt lat="45.4643" lon="3.8738">
        <ele>1065.28</ele>
        <time>2022-08-27T10:25:11Z</time>
      </trkpt>
      <trkpt lat="45.46445" lon="3.87355">
        <ele>1064.32</ele>
        <time>2022-08-27T10:25:26Z</time>
      </trkpt>
      <trkpt lat="45.46465" lon="3.87334">
        <ele>1061.43</ele>
        <time>2022-08-27T10:25:43Z</time>
      </trkpt>
      <trkpt lat="45.46485" lon="3.87317">
        <ele>1058.07</ele>
        <time>2022-08-27T10:26:01Z</time>
      </trkpt>
      <trkpt lat="45.46511" lon="3.87301">
        <ele>1056.15</ele>
        <time>2022-08-27T10:26:18Z</time>
      </trkpt>
      <trkpt lat="45.46534" lon="3.87284">
        <ele>1055.67</ele>
        <time>2022-08-27T10:26:34Z</time>
      </trkpt>
      <trkpt lat="45.4655" lon="3.87262">
        <ele>1056.63</ele>
        <time>2022-08-27T10:26:52Z</time>
      </trkpt>
      <trkpt lat="45.46566" lon="3.87238">
        <ele>1059.03</ele>
        <time>2022-08-27T10:27:11Z</time>
      </trkpt>
      <trkpt lat="45.46579" lon="3.87208">
        <ele>1060.95</ele>
        <time>2022-08-27T10:27:30Z</time>
      </trkpt>
      <trkpt lat="45.4658" lon="3.87203">
        <ele>1061.43</ele>
        <time>2022-08-27T10:27:33Z</time>
      </trkpt>
      <trkpt lat="45.46573" lon="3.87172">
        <ele>1062.87</ele>
        <time>2022-08-27T10:27:54Z</time>
      </trkpt>
      <trkpt lat="45.46565" lon="3.87166">
        <ele>1065.28</ele>
        <time>2022-08-27T10:28:02Z</time>
      </trkpt>
      <trkpt lat="45.46552" lon="3.87129">
        <ele>1067.68</ele>
        <time>2022-08-27T10:28:17Z</time>
      </trkpt>
      <trkpt lat="45.46546" lon="3.87093">
        <ele>1067.2</ele>
        <time>2022-08-27T10:28:33Z</time>
      </trkpt>
      <trkpt lat="45.46538" lon="3.87053">
        <ele>1067.68</ele>
        <time>2022-08-27T10:28:52Z</time>
      </trkpt>
      <trkpt lat="45.46523" lon="3.8702">
        <ele>1068.64</ele>
        <time>2022-08-27T10:29:13Z</time>
      </trkpt>
      <trkpt lat="45.46513" lon="3.86993">
        <ele>1070.08</ele>
        <time>2022-08-27T10:29:34Z</time>
      </trkpt>
      <trkpt lat="45.46509" lon="3.86986">
        <ele>1070.57</ele>
        <time>2022-08-27T10:29:51Z</time>
      </trkpt>
      <trkpt lat="45.46501" lon="3.86987">
        <ele>1070.08</ele>
        <time>2022-08-27T10:30:01Z</time>
      </trkpt>
      <trkpt lat="45.46491" lon="3.86991">
        <ele>1069.12</ele>
        <time>2022-08-27T10:30:16Z</time>
      </trkpt>
      <trkpt lat="45.46477" lon="3.87">
        <ele>1067.68</ele>
        <time>2022-08-27T10:30:32Z</time>
      </trkpt>
      <trkpt lat="45.46458" lon="3.87002">
        <ele>1062.39</ele>
        <time>2022-08-27T10:30:51Z</time>
      </trkpt>
      <trkpt lat="45.46441" lon="3.87002">
        <ele>1059.03</ele>
        <time>2022-08-27T10:31:08Z</time>
      </trkpt>
      <trkpt lat="45.46427" lon="3.86994">
        <ele>1055.18</ele>
        <time>2022-08-27T10:31:23Z</time>
      </trkpt>
      <trkpt lat="45.46412" lon="3.86976">
        <ele>1050.86</ele>
        <time>2022-08-27T10:31:44Z</time>
      </trkpt>
      <trkpt lat="45.46403" lon="3.86953">
        <ele>1047.97</ele>
        <time>2022-08-27T10:32:03Z</time>
      </trkpt>
      <trkpt lat="45.46402" lon="3.86951">
        <ele>1047.49</ele>
        <time>2022-08-27T10:32:04Z</time>
      </trkpt>
      <trkpt lat="45.46401" lon="3.86948">
        <ele>1047.49</ele>
        <time>2022-08-27T10:32:05Z</time>
      </trkpt>
      <trkpt lat="45.464" lon="3.86945">
        <ele>1047.01</ele>
        <time>2022-08-27T10:32:06Z</time>
      </trkpt>
      <trkpt lat="45.46399" lon="3.86942">
        <ele>1047.01</ele>
        <time>2022-08-27T10:32:07Z</time>
      </trkpt>
      <trkpt lat="45.46399" lon="3.86938">
        <ele>1047.01</ele>
        <time>2022-08-27T10:32:08Z</time>
      </trkpt>
      <trkpt lat="45.46394" lon="3.86916">
        <ele>1044.61</ele>
        <time>2022-08-27T10:32:18Z</time>
      </trkpt>
      <trkpt lat="45.46385" lon="3.86912">
        <ele>1041.25</ele>
        <time>2022-08-27T10:32:33Z</time>
      </trkpt>
      <trkpt lat="45.46365" lon="3.86909">
        <ele>1041.25</ele>
        <time>2022-08-27T10:32:54Z</time>
      </trkpt>
      <trkpt lat="45.46348" lon="3.86909">
        <ele>1039.8</ele>
        <time>2022-08-27T10:33:10Z</time>
      </trkpt>
      <trkpt lat="45.46323" lon="3.86916">
        <ele>1037.4</ele>
        <time>2022-08-27T10:33:32Z</time>
      </trkpt>
      <trkpt lat="45.46297" lon="3.86927">
        <ele>1033.55</ele>
        <time>2022-08-27T10:33:52Z</time>
      </trkpt>
      <trkpt lat="45.46265" lon="3.86938">
        <ele>1028.75</ele>
        <time>2022-08-27T10:34:15Z</time>
      </trkpt>
      <trkpt lat="45.46239" lon="3.86949">
        <ele>1025.86</ele>
        <time>2022-08-27T10:34:34Z</time>
      </trkpt>
      <trkpt lat="45.46217" lon="3.86957">
        <ele>1022.5</ele>
        <time>2022-08-27T10:34:53Z</time>
      </trkpt>
      <trkpt lat="45.46198" lon="3.86974">
        <ele>1022.98</ele>
        <time>2022-08-27T10:35:13Z</time>
      </trkpt>
      <trkpt lat="45.46177" lon="3.86991">
        <ele>1020.58</ele>
        <time>2022-08-27T10:35:33Z</time>
      </trkpt>
      <trkpt lat="45.46154" lon="3.86997">
        <ele>1014.33</ele>
        <time>2022-08-27T10:35:51Z</time>
      </trkpt>
      <trkpt lat="45.46137" lon="3.86991">
        <ele>1008.56</ele>
        <time>2022-08-27T10:36:08Z</time>
      </trkpt>
      <trkpt lat="45.46122" lon="3.86979">
        <ele>1005.2</ele>
        <time>2022-08-27T10:36:27Z</time>
      </trkpt>
      <trkpt lat="45.4612" lon="3.86976">
        <ele>1004.72</ele>
        <time>2022-08-27T10:36:30Z</time>
      </trkpt>
      <trkpt lat="45.46115" lon="3.86954">
        <ele>1002.79</ele>
        <time>2022-08-27T10:36:49Z</time>
      </trkpt>
      <trkpt lat="45.4611" lon="3.86932">
        <ele>999.43</ele>
        <time>2022-08-27T10:37:08Z</time>
      </trkpt>
      <trkpt lat="45.46104" lon="3.86909">
        <ele>995.1</ele>
        <time>2022-08-27T10:37:27Z</time>
      </trkpt>
      <trkpt lat="45.46097" lon="3.86886">
        <ele>991.74</ele>
        <time>2022-08-27T10:37:46Z</time>
      </trkpt>
      <trkpt lat="45.46086" lon="3.86863">
        <ele>989.81</ele>
        <time>2022-08-27T10:38:06Z</time>
      </trkpt>
      <trkpt lat="45.46076" lon="3.86859">
        <ele>986.45</ele>
        <time>2022-08-27T10:38:18Z</time>
      </trkpt>
      <trkpt lat="45.46074" lon="3.86839">
        <ele>983.57</ele>
        <time>2022-08-27T10:38:33Z</time>
      </trkpt>
      <trkpt lat="45.46074" lon="3.86837">
        <ele>984.05</ele>
        <time>2022-08-27T10:38:34Z</time>
      </trkpt>
      <trkpt lat="45.46074" lon="3.86835">
        <ele>984.05</ele>
        <time>2022-08-27T10:38:35Z</time>
      </trkpt>
      <trkpt lat="45.46082" lon="3.86792">
        <ele>983.09</ele>
        <time>2022-08-27T10:38:57Z</time>
      </trkpt>
      <trkpt lat="45.46088" lon="3.86755">
        <ele>985.01</ele>
        <time>2022-08-27T10:39:18Z</time>
      </trkpt>
      <trkpt lat="45.46091" lon="3.86715">
        <ele>985.97</ele>
        <time>2022-08-27T10:39:39Z</time>
      </trkpt>
      <trkpt lat="45.46094" lon="3.86685">
        <ele>984.05</ele>
        <time>2022-08-27T10:39:58Z</time>
      </trkpt>
      <trkpt lat="45.46101" lon="3.8666">
        <ele>978.28</ele>
        <time>2022-08-27T10:40:18Z</time>
      </trkpt>
      <trkpt lat="45.46096" lon="3.86644">
        <ele>974.91</ele>
        <time>2022-08-27T10:40:39Z</time>
      </trkpt>
      <trkpt lat="45.46091" lon="3.86619">
        <ele>971.55</ele>
        <time>2022-08-27T10:40:57Z</time>
      </trkpt>
      <trkpt lat="45.46097" lon="3.86592">
        <ele>969.15</ele>
        <time>2022-08-27T10:41:15Z</time>
      </trkpt>
      <trkpt lat="45.46105" lon="3.86573">
        <ele>968.67</ele>
        <time>2022-08-27T10:41:36Z</time>
      </trkpt>
      <trkpt lat="45.46106" lon="3.86572">
        <ele>965.78</ele>
        <time>2022-08-27T10:42:08Z</time>
      </trkpt>
      <trkpt lat="45.46108" lon="3.86576">
        <ele>966.74</ele>
        <time>2022-08-27T10:42:28Z</time>
      </trkpt>
      <trkpt lat="45.46112" lon="3.86565">
        <ele>966.74</ele>
        <time>2022-08-27T10:42:40Z</time>
      </trkpt>
      <trkpt lat="45.46113" lon="3.86565">
        <ele>966.74</ele>
        <time>2022-08-27T10:42:41Z</time>
      </trkpt>
      <trkpt lat="45.46114" lon="3.86564">
        <ele>966.74</ele>
        <time>2022-08-27T10:42:42Z</time>
      </trkpt>
      <trkpt lat="45.46115" lon="3.86563">
        <ele>966.74</ele>
        <time>2022-08-27T10:42:43Z</time>
      </trkpt>
      <trkpt lat="45.46116" lon="3.86562">
        <ele>967.22</ele>
        <time>2022-08-27T10:42:44Z</time>
      </trkpt>
      <trkpt lat="45.46133" lon="3.86541">
        <ele>967.22</ele>
        <time>2022-08-27T10:43:03Z</time>
      </trkpt>
      <trkpt lat="45.46153" lon="3.86518">
        <ele>965.78</ele>
        <time>2022-08-27T10:43:23Z</time>
      </trkpt>
      <trkpt lat="45.46177" lon="3.86494">
        <ele>963.38</ele>
        <time>2022-08-27T10:43:41Z</time>
      </trkpt>
      <trkpt lat="45.46208" lon="3.86466">
        <ele>962.9</ele>
        <time>2022-08-27T10:43:59Z</time>
      </trkpt>
      <trkpt lat="45.46226" lon="3.86444">
        <ele>964.82</ele>
        <time>2022-08-27T10:44:15Z</time>
      </trkpt>
      <trkpt lat="45.46245" lon="3.86421">
        <ele>963.86</ele>
        <time>2022-08-27T10:44:33Z</time>
      </trkpt>
      <trkpt lat="45.46263" lon="3.86401">
        <ele>963.86</ele>
        <time>2022-08-27T10:44:50Z</time>
      </trkpt>
      <trkpt lat="45.46282" lon="3.86366">
        <ele>964.82</ele>
        <time>2022-08-27T10:45:11Z</time>
      </trkpt>
      <trkpt lat="45.46292" lon="3.86325">
        <ele>968.67</ele>
        <time>2022-08-27T10:45:31Z</time>
      </trkpt>
      <trkpt lat="45.463" lon="3.86291">
        <ele>972.99</ele>
        <time>2022-08-27T10:45:48Z</time>
      </trkpt>
      <trkpt lat="45.46316" lon="3.86261">
        <ele>975.39</ele>
        <time>2022-08-27T10:46:04Z</time>
      </trkpt>
      <trkpt lat="45.46335" lon="3.86244">
        <ele>977.32</ele>
        <time>2022-08-27T10:46:26Z</time>
      </trkpt>
      <trkpt lat="45.46342" lon="3.86222">
        <ele>975.88</ele>
        <time>2022-08-27T10:46:49Z</time>
      </trkpt>
      <trkpt lat="45.46344" lon="3.86228">
        <ele>976.36</ele>
        <time>2022-08-27T10:47:22Z</time>
      </trkpt>
      <trkpt lat="45.46346" lon="3.86241">
        <ele>975.88</ele>
        <time>2022-08-27T10:47:58Z</time>
      </trkpt>
      <trkpt lat="45.46348" lon="3.86226">
        <ele>974.43</ele>
        <time>2022-08-27T10:48:25Z</time>
      </trkpt>
      <trkpt lat="45.46363" lon="3.8622">
        <ele>970.59</ele>
        <time>2022-08-27T10:48:47Z</time>
      </trkpt>
      <trkpt lat="45.46361" lon="3.86216">
        <ele>968.67</ele>
        <time>2022-08-27T10:49:10Z</time>
      </trkpt>
      <trkpt lat="45.46358" lon="3.86225">
        <ele>972.99</ele>
        <time>2022-08-27T10:49:36Z</time>
      </trkpt>
      <trkpt lat="45.4636" lon="3.8622">
        <ele>973.95</ele>
        <time>2022-08-27T10:49:57Z</time>
      </trkpt>
      <trkpt lat="45.46371" lon="3.86199">
        <ele>979.24</ele>
        <time>2022-08-27T10:50:16Z</time>
      </trkpt>
      <trkpt lat="45.46387" lon="3.86184">
        <ele>985.49</ele>
        <time>2022-08-27T10:50:37Z</time>
      </trkpt>
      <trkpt lat="45.46416" lon="3.86155">
        <ele>988.37</ele>
        <time>2022-08-27T10:51:01Z</time>
      </trkpt>
      <trkpt lat="45.46435" lon="3.86141">
        <ele>997.02</ele>
        <time>2022-08-27T10:51:23Z</time>
      </trkpt>
      <trkpt lat="45.46465" lon="3.86141">
        <ele>1008.56</ele>
        <time>2022-08-27T10:51:44Z</time>
      </trkpt>
      <trkpt lat="45.46502" lon="3.86141">
        <ele>1011.93</ele>
        <time>2022-08-27T10:52:06Z</time>
      </trkpt>
      <trkpt lat="45.46531" lon="3.86126">
        <ele>1015.29</ele>
        <time>2022-08-27T10:52:27Z</time>
      </trkpt>
      <trkpt lat="45.46543" lon="3.86116">
        <ele>1017.69</ele>
        <time>2022-08-27T10:52:38Z</time>
      </trkpt>
      <trkpt lat="45.46543" lon="3.86115">
        <ele>1018.17</ele>
        <time>2022-08-27T10:52:39Z</time>
      </trkpt>
      <trkpt lat="45.46544" lon="3.86107">
        <ele>1023.46</ele>
        <time>2022-08-27T10:52:56Z</time>
      </trkpt>
      <trkpt lat="45.46535" lon="3.86097">
        <ele>1027.31</ele>
        <time>2022-08-27T10:53:13Z</time>
      </trkpt>
      <trkpt lat="45.46508" lon="3.86092">
        <ele>1023.46</ele>
        <time>2022-08-27T10:53:31Z</time>
      </trkpt>
      <trkpt lat="45.46486" lon="3.86056">
        <ele>1027.79</ele>
        <time>2022-08-27T10:53:54Z</time>
      </trkpt>
      <trkpt lat="45.46487" lon="3.86021">
        <ele>1031.15</ele>
        <time>2022-08-27T10:54:13Z</time>
      </trkpt>
      <trkpt lat="45.46497" lon="3.85976">
        <ele>1029.71</ele>
        <time>2022-08-27T10:54:32Z</time>
      </trkpt>
      <trkpt lat="45.46505" lon="3.85959">
        <ele>1029.71</ele>
        <time>2022-08-27T10:54:51Z</time>
      </trkpt>
      <trkpt lat="45.46516" lon="3.85922">
        <ele>1028.27</ele>
        <time>2022-08-27T10:55:10Z</time>
      </trkpt>
      <trkpt lat="45.46517" lon="3.85919">
        <ele>1028.75</ele>
        <time>2022-08-27T10:55:11Z</time>
      </trkpt>
      <trkpt lat="45.46528" lon="3.8588">
        <ele>1031.63</ele>
        <time>2022-08-27T10:55:30Z</time>
      </trkpt>
      <trkpt lat="45.46535" lon="3.85857">
        <ele>1032.11</ele>
        <time>2022-08-27T10:55:52Z</time>
      </trkpt>
      <trkpt lat="45.46542" lon="3.8582">
        <ele>1032.59</ele>
        <time>2022-08-27T10:56:12Z</time>
      </trkpt>
      <trkpt lat="45.46548" lon="3.85798">
        <ele>1038.36</ele>
        <time>2022-08-27T10:56:24Z</time>
      </trkpt>
      <trkpt lat="45.46548" lon="3.85796">
        <ele>1038.84</ele>
        <time>2022-08-27T10:56:25Z</time>
      </trkpt>
      <trkpt lat="45.46548" lon="3.85794">
        <ele>1039.32</ele>
        <time>2022-08-27T10:56:26Z</time>
      </trkpt>
      <trkpt lat="45.46548" lon="3.85792">
        <ele>1040.28</ele>
        <time>2022-08-27T10:56:27Z</time>
      </trkpt>
      <trkpt lat="45.46548" lon="3.8579">
        <ele>1041.25</ele>
        <time>2022-08-27T10:56:28Z</time>
      </trkpt>
      <trkpt lat="45.4654" lon="3.85779">
        <ele>1048.94</ele>
        <time>2022-08-27T10:56:46Z</time>
      </trkpt>
      <trkpt lat="45.46521" lon="3.85776">
        <ele>1059.99</ele>
        <time>2022-08-27T10:57:09Z</time>
      </trkpt>
      <trkpt lat="45.46497" lon="3.85758">
        <ele>1066.72</ele>
        <time>2022-08-27T10:57:31Z</time>
      </trkpt>
      <trkpt lat="45.46468" lon="3.85751">
        <ele>1073.45</ele>
        <time>2022-08-27T10:57:55Z</time>
      </trkpt>
      <trkpt lat="45.46447" lon="3.85744">
        <ele>1077.78</ele>
        <time>2022-08-27T10:58:14Z</time>
      </trkpt>
      <trkpt lat="45.46415" lon="3.85733">
        <ele>1070.57</ele>
        <time>2022-08-27T10:58:34Z</time>
      </trkpt>
      <trkpt lat="45.46402" lon="3.85731">
        <ele>1065.28</ele>
        <time>2022-08-27T10:58:40Z</time>
      </trkpt>
      <trkpt lat="45.46384" lon="3.85722">
        <ele>1061.91</ele>
        <time>2022-08-27T10:59:02Z</time>
      </trkpt>
      <trkpt lat="45.46378" lon="3.85728">
        <ele>1065.76</ele>
        <time>2022-08-27T10:59:08Z</time>
      </trkpt>
      <trkpt lat="45.46355" lon="3.85741">
        <ele>1073.93</ele>
        <time>2022-08-27T10:59:25Z</time>
      </trkpt>
      <trkpt lat="45.46321" lon="3.85736">
        <ele>1076.81</ele>
        <time>2022-08-27T10:59:48Z</time>
      </trkpt>
      <trkpt lat="45.46297" lon="3.85741">
        <ele>1078.26</ele>
        <time>2022-08-27T11:00:10Z</time>
      </trkpt>
      <trkpt lat="45.46272" lon="3.85741">
        <ele>1078.74</ele>
        <time>2022-08-27T11:00:27Z</time>
      </trkpt>
      <trkpt lat="45.46247" lon="3.85737">
        <ele>1082.1</ele>
        <time>2022-08-27T11:00:50Z</time>
      </trkpt>
      <trkpt lat="45.46241" lon="3.85735">
        <ele>1081.62</ele>
        <time>2022-08-27T11:00:53Z</time>
      </trkpt>
      <trkpt lat="45.46211" lon="3.85717">
        <ele>1085.95</ele>
        <time>2022-08-27T11:01:15Z</time>
      </trkpt>
      <trkpt lat="45.46197" lon="3.85691">
        <ele>1094.6</ele>
        <time>2022-08-27T11:01:36Z</time>
      </trkpt>
      <trkpt lat="45.46167" lon="3.85672">
        <ele>1097</ele>
        <time>2022-08-27T11:01:56Z</time>
      </trkpt>
      <trkpt lat="45.46139" lon="3.85653">
        <ele>1099.4</ele>
        <time>2022-08-27T11:02:18Z</time>
      </trkpt>
      <trkpt lat="45.46122" lon="3.85632">
        <ele>1105.65</ele>
        <time>2022-08-27T11:02:37Z</time>
      </trkpt>
      <trkpt lat="45.46117" lon="3.85629">
        <ele>1104.21</ele>
        <time>2022-08-27T11:02:44Z</time>
      </trkpt>
      <trkpt lat="45.46114" lon="3.85628">
        <ele>1103.73</ele>
        <time>2022-08-27T11:02:45Z</time>
      </trkpt>
      <trkpt lat="45.46111" lon="3.85627">
        <ele>1101.81</ele>
        <time>2022-08-27T11:02:46Z</time>
      </trkpt>
      <trkpt lat="45.46096" lon="3.85591">
        <ele>1099.4</ele>
        <time>2022-08-27T11:03:03Z</time>
      </trkpt>
      <trkpt lat="45.46098" lon="3.85568">
        <ele>1101.81</ele>
        <time>2022-08-27T11:03:11Z</time>
      </trkpt>
      <trkpt lat="45.46116" lon="3.85532">
        <ele>1105.17</ele>
        <time>2022-08-27T11:03:33Z</time>
      </trkpt>
      <trkpt lat="45.4614" lon="3.85511">
        <ele>1115.27</ele>
        <time>2022-08-27T11:03:56Z</time>
      </trkpt>
      <trkpt lat="45.46167" lon="3.85478">
        <ele>1121.03</ele>
        <time>2022-08-27T11:04:21Z</time>
      </trkpt>
      <trkpt lat="45.46191" lon="3.85465">
        <ele>1128.73</ele>
        <time>2022-08-27T11:04:43Z</time>
      </trkpt>
      <trkpt lat="45.46219" lon="3.8545">
        <ele>1129.69</ele>
        <time>2022-08-27T11:05:02Z</time>
      </trkpt>
      <trkpt lat="45.46249" lon="3.85428">
        <ele>1130.65</ele>
        <time>2022-08-27T11:05:17Z</time>
      </trkpt>
      <trkpt lat="45.46269" lon="3.8541">
        <ele>1132.57</ele>
        <time>2022-08-27T11:05:37Z</time>
      </trkpt>
      <trkpt lat="45.46294" lon="3.85396">
        <ele>1137.38</ele>
        <time>2022-08-27T11:05:55Z</time>
      </trkpt>
      <trkpt lat="45.46317" lon="3.85397">
        <ele>1143.63</ele>
        <time>2022-08-27T11:06:12Z</time>
      </trkpt>
      <trkpt lat="45.46339" lon="3.854">
        <ele>1145.55</ele>
        <time>2022-08-27T11:06:30Z</time>
      </trkpt>
      <trkpt lat="45.46372" lon="3.85396">
        <ele>1146.99</ele>
        <time>2022-08-27T11:06:52Z</time>
      </trkpt>
      <trkpt lat="45.46383" lon="3.85377">
        <ele>1148.43</ele>
        <time>2022-08-27T11:07:08Z</time>
      </trkpt>
      <trkpt lat="45.46381" lon="3.85373">
        <ele>1147.95</ele>
        <time>2022-08-27T11:07:27Z</time>
      </trkpt>
      <trkpt lat="45.46376" lon="3.85344">
        <ele>1150.35</ele>
        <time>2022-08-27T11:07:46Z</time>
      </trkpt>
      <trkpt lat="45.46368" lon="3.85296">
        <ele>1149.87</ele>
        <time>2022-08-27T11:08:06Z</time>
      </trkpt>
      <trkpt lat="45.4637" lon="3.85261">
        <ele>1147.95</ele>
        <time>2022-08-27T11:08:24Z</time>
      </trkpt>
      <trkpt lat="45.46371" lon="3.85237">
        <ele>1152.76</ele>
        <time>2022-08-27T11:08:42Z</time>
      </trkpt>
      <trkpt lat="45.46371" lon="3.85201">
        <ele>1156.12</ele>
        <time>2022-08-27T11:09:02Z</time>
      </trkpt>
      <trkpt lat="45.4638" lon="3.8515">
        <ele>1155.16</ele>
        <time>2022-08-27T11:09:24Z</time>
      </trkpt>
      <trkpt lat="45.46383" lon="3.85111">
        <ele>1159.01</ele>
        <time>2022-08-27T11:09:45Z</time>
      </trkpt>
      <trkpt lat="45.46389" lon="3.85081">
        <ele>1163.81</ele>
        <time>2022-08-27T11:10:05Z</time>
      </trkpt>
      <trkpt lat="45.46398" lon="3.85046">
        <ele>1167.66</ele>
        <time>2022-08-27T11:10:25Z</time>
      </trkpt>
      <trkpt lat="45.46412" lon="3.85013">
        <ele>1171.02</ele>
        <time>2022-08-27T11:10:47Z</time>
      </trkpt>
      <trkpt lat="45.46411" lon="3.84989">
        <ele>1172.95</ele>
        <time>2022-08-27T11:11:08Z</time>
      </trkpt>
      <trkpt lat="45.46417" lon="3.8497">
        <ele>1184</ele>
        <time>2022-08-27T11:11:30Z</time>
      </trkpt>
      <trkpt lat="45.46445" lon="3.84978">
        <ele>1179.67</ele>
        <time>2022-08-27T11:11:49Z</time>
      </trkpt>
      <trkpt lat="45.46448" lon="3.84982">
        <ele>1177.75</ele>
        <time>2022-08-27T11:12:20Z</time>
      </trkpt>
      <trkpt lat="45.46441" lon="3.84984">
        <ele>1179.19</ele>
        <time>2022-08-27T11:12:54Z</time>
      </trkpt>
      <trkpt lat="45.46441" lon="3.84986">
        <ele>1178.23</ele>
        <time>2022-08-27T11:13:23Z</time>
      </trkpt>
      <trkpt lat="45.46444" lon="3.84984">
        <ele>1175.35</ele>
        <time>2022-08-27T11:13:48Z</time>
      </trkpt>
      <trkpt lat="45.46439" lon="3.84985">
        <ele>1176.31</ele>
        <time>2022-08-27T11:14:12Z</time>
      </trkpt>
      <trkpt lat="45.46439" lon="3.84983">
        <ele>1176.79</ele>
        <time>2022-08-27T11:14:34Z</time>
      </trkpt>
      <trkpt lat="45.46443" lon="3.84981">
        <ele>1175.35</ele>
        <time>2022-08-27T11:15:00Z</time>
      </trkpt>
      <trkpt lat="45.4644" lon="3.84988">
        <ele>1173.91</ele>
        <time>2022-08-27T11:15:34Z</time>
      </trkpt>
      <trkpt lat="45.46442" lon="3.84983">
        <ele>1172.95</ele>
        <time>2022-08-27T11:16:00Z</time>
      </trkpt>
      <trkpt lat="45.46443" lon="3.84985">
        <ele>1171.5</ele>
        <time>2022-08-27T11:16:19Z</time>
      </trkpt>
      <trkpt lat="45.46439" lon="3.84971">
        <ele>1168.14</ele>
        <time>2022-08-27T11:16:51Z</time>
      </trkpt>
      <trkpt lat="45.46441" lon="3.84981">
        <ele>1169.58</ele>
        <time>2022-08-27T11:17:08Z</time>
      </trkpt>
      <trkpt lat="45.4644" lon="3.84981">
        <ele>1169.1</ele>
        <time>2022-08-27T11:17:33Z</time>
      </trkpt>
      <trkpt lat="45.46446" lon="3.84981">
        <ele>1170.54</ele>
        <time>2022-08-27T11:17:54Z</time>
      </trkpt>
      <trkpt lat="45.46444" lon="3.84984">
        <ele>1169.1</ele>
        <time>2022-08-27T11:18:23Z</time>
      </trkpt>
      <trkpt lat="45.46443" lon="3.84974">
        <ele>1169.1</ele>
        <time>2022-08-27T11:18:50Z</time>
      </trkpt>
      <trkpt lat="45.46442" lon="3.84975">
        <ele>1167.66</ele>
        <time>2022-08-27T11:19:14Z</time>
      </trkpt>
      <trkpt lat="45.46446" lon="3.84979">
        <ele>1166.22</ele>
        <time>2022-08-27T11:19:41Z</time>
      </trkpt>
      <trkpt lat="45.46444" lon="3.84984">
        <ele>1169.1</ele>
        <time>2022-08-27T11:20:00Z</time>
      </trkpt>
      <trkpt lat="45.46446" lon="3.84981">
        <ele>1168.62</ele>
        <time>2022-08-27T11:20:18Z</time>
      </trkpt>
      <trkpt lat="45.46454" lon="3.84993">
        <ele>1174.39</ele>
        <time>2022-08-27T11:20:40Z</time>
      </trkpt>
      <trkpt lat="45.46461" lon="3.84993">
        <ele>1175.35</ele>
        <time>2022-08-27T11:21:04Z</time>
      </trkpt>
      <trkpt lat="45.46458" lon="3.85008">
        <ele>1178.23</ele>
        <time>2022-08-27T11:21:29Z</time>
      </trkpt>
      <trkpt lat="45.46454" lon="3.85">
        <ele>1182.56</ele>
        <time>2022-08-27T11:22:09Z</time>
      </trkpt>
      <trkpt lat="45.46455" lon="3.85001">
        <ele>1181.6</ele>
        <time>2022-08-27T11:22:48Z</time>
      </trkpt>
      <trkpt lat="45.46457" lon="3.85">
        <ele>1177.75</ele>
        <time>2022-08-27T11:23:20Z</time>
      </trkpt>
      <trkpt lat="45.46454" lon="3.84998">
        <ele>1176.31</ele>
        <time>2022-08-27T11:23:55Z</time>
      </trkpt>
      <trkpt lat="45.46452" lon="3.85001">
        <ele>1178.23</ele>
        <time>2022-08-27T11:24:27Z</time>
      </trkpt>
      <trkpt lat="45.46458" lon="3.85002">
        <ele>1178.71</ele>
        <time>2022-08-27T11:24:54Z</time>
      </trkpt>
      <trkpt lat="45.46457" lon="3.85004">
        <ele>1178.71</ele>
        <time>2022-08-27T11:25:26Z</time>
      </trkpt>
      <trkpt lat="45.46456" lon="3.85005">
        <ele>1176.31</ele>
        <time>2022-08-27T11:25:53Z</time>
      </trkpt>
      <trkpt lat="45.46456" lon="3.85004">
        <ele>1177.27</ele>
        <time>2022-08-27T11:26:26Z</time>
      </trkpt>
      <trkpt lat="45.46457" lon="3.85007">
        <ele>1181.6</ele>
        <time>2022-08-27T11:26:59Z</time>
      </trkpt>
      <trkpt lat="45.46454" lon="3.85001">
        <ele>1178.23</ele>
        <time>2022-08-27T11:27:27Z</time>
      </trkpt>
      <trkpt lat="45.46457" lon="3.85005">
        <ele>1176.79</ele>
        <time>2022-08-27T11:27:58Z</time>
      </trkpt>
      <trkpt lat="45.46454" lon="3.85003">
        <ele>1175.83</ele>
        <time>2022-08-27T11:28:42Z</time>
      </trkpt>
      <trkpt lat="45.46456" lon="3.85007">
        <ele>1174.87</ele>
        <time>2022-08-27T11:29:15Z</time>
      </trkpt>
      <trkpt lat="45.46461" lon="3.85001">
        <ele>1172.47</ele>
        <time>2022-08-27T11:29:44Z</time>
      </trkpt>
      <trkpt lat="45.46458" lon="3.85">
        <ele>1171.5</ele>
        <time>2022-08-27T11:30:21Z</time>
      </trkpt>
      <trkpt lat="45.46457" lon="3.85">
        <ele>1171.5</ele>
        <time>2022-08-27T11:30:52Z</time>
      </trkpt>
      <trkpt lat="45.46453" lon="3.84998">
        <ele>1178.23</ele>
        <time>2022-08-27T11:31:19Z</time>
      </trkpt>
      <trkpt lat="45.46456" lon="3.85003">
        <ele>1182.56</ele>
        <time>2022-08-27T11:31:49Z</time>
      </trkpt>
      <trkpt lat="45.46457" lon="3.85002">
        <ele>1188.33</ele>
        <time>2022-08-27T11:32:27Z</time>
      </trkpt>
      <trkpt lat="45.46458" lon="3.85005">
        <ele>1184.96</ele>
        <time>2022-08-27T11:32:59Z</time>
      </trkpt>
      <trkpt lat="45.46456" lon="3.85001">
        <ele>1182.56</ele>
        <time>2022-08-27T11:33:36Z</time>
      </trkpt>
      <trkpt lat="45.46457" lon="3.85001">
        <ele>1178.71</ele>
        <time>2022-08-27T11:34:21Z</time>
      </trkpt>
      <trkpt lat="45.46458" lon="3.85002">
        <ele>1178.71</ele>
        <time>2022-08-27T11:34:57Z</time>
      </trkpt>
      <trkpt lat="45.46453" lon="3.85001">
        <ele>1185.44</ele>
        <time>2022-08-27T11:35:37Z</time>
      </trkpt>
      <trkpt lat="45.46455" lon="3.85">
        <ele>1183.52</ele>
        <time>2022-08-27T11:36:21Z</time>
      </trkpt>
      <trkpt lat="45.46454" lon="3.84998">
        <ele>1185.92</ele>
        <time>2022-08-27T11:37:04Z</time>
      </trkpt>
      <trkpt lat="45.46455" lon="3.85002">
        <ele>1173.43</ele>
        <time>2022-08-27T11:37:47Z</time>
      </trkpt>
      <trkpt lat="45.46455" lon="3.84999">
        <ele>1178.23</ele>
        <time>2022-08-27T11:38:25Z</time>
      </trkpt>
      <trkpt lat="45.46454" lon="3.85003">
        <ele>1180.64</ele>
        <time>2022-08-27T11:39:02Z</time>
      </trkpt>
      <trkpt lat="45.46455" lon="3.85001">
        <ele>1179.67</ele>
        <time>2022-08-27T11:39:41Z</time>
      </trkpt>
      <trkpt lat="45.46455" lon="3.84997">
        <ele>1183.52</ele>
        <time>2022-08-27T11:40:24Z</time>
      </trkpt>
      <trkpt lat="45.46457" lon="3.85005">
        <ele>1185.92</ele>
        <time>2022-08-27T11:41:06Z</time>
      </trkpt>
      <trkpt lat="45.46458" lon="3.85005">
        <ele>1189.77</ele>
        <time>2022-08-27T11:41:39Z</time>
      </trkpt>
      <trkpt lat="45.46454" lon="3.84995">
        <ele>1184.48</ele>
        <time>2022-08-27T11:42:10Z</time>
      </trkpt>
      <trkpt lat="45.46454" lon="3.84998">
        <ele>1183.04</ele>
        <time>2022-08-27T11:42:55Z</time>
      </trkpt>
      <trkpt lat="45.46453" lon="3.85003">
        <ele>1181.6</ele>
        <time>2022-08-27T11:43:31Z</time>
      </trkpt>
      <trkpt lat="45.46454" lon="3.85001">
        <ele>1177.75</ele>
        <time>2022-08-27T11:44:05Z</time>
      </trkpt>
      <trkpt lat="45.46454" lon="3.85001">
        <ele>1171.98</ele>
        <time>2022-08-27T11:44:43Z</time>
      </trkpt>
      <trkpt lat="45.46452" lon="3.84999">
        <ele>1170.54</ele>
        <time>2022-08-27T11:45:21Z</time>
      </trkpt>
      <trkpt lat="45.46455" lon="3.85003">
        <ele>1171.5</ele>
        <time>2022-08-27T11:46:01Z</time>
      </trkpt>
      <trkpt lat="45.46452" lon="3.85004">
        <ele>1166.7</ele>
        <time>2022-08-27T11:46:43Z</time>
      </trkpt>
      <trkpt lat="45.46452" lon="3.84999">
        <ele>1163.81</ele>
        <time>2022-08-27T11:47:25Z</time>
      </trkpt>
      <trkpt lat="45.46448" lon="3.84998">
        <ele>1162.37</ele>
        <time>2022-08-27T11:48:15Z</time>
      </trkpt>
      <trkpt lat="45.46451" lon="3.85">
        <ele>1169.1</ele>
        <time>2022-08-27T11:48:59Z</time>
      </trkpt>
      <trkpt lat="45.46453" lon="3.84998">
        <ele>1162.37</ele>
        <time>2022-08-27T11:49:44Z</time>
      </trkpt>
      <trkpt lat="45.4645" lon="3.85003">
        <ele>1161.41</ele>
        <time>2022-08-27T11:50:27Z</time>
      </trkpt>
      <trkpt lat="45.4645" lon="3.85007">
        <ele>1174.87</ele>
        <time>2022-08-27T11:51:05Z</time>
      </trkpt>
      <trkpt lat="45.46452" lon="3.85002">
        <ele>1177.27</ele>
        <time>2022-08-27T11:51:48Z</time>
      </trkpt>
      <trkpt lat="45.46457" lon="3.85">
        <ele>1178.71</ele>
        <time>2022-08-27T11:52:26Z</time>
      </trkpt>
      <trkpt lat="45.46453" lon="3.85004">
        <ele>1175.35</ele>
        <time>2022-08-27T11:53:08Z</time>
      </trkpt>
      <trkpt lat="45.46459" lon="3.85002">
        <ele>1178.71</ele>
        <time>2022-08-27T11:53:45Z</time>
      </trkpt>
      <trkpt lat="45.46456" lon="3.85008">
        <ele>1184.96</ele>
        <time>2022-08-27T11:54:26Z</time>
      </trkpt>
      <trkpt lat="45.46453" lon="3.85008">
        <ele>1184.48</ele>
        <time>2022-08-27T11:55:08Z</time>
      </trkpt>
      <trkpt lat="45.46457" lon="3.85005">
        <ele>1177.75</ele>
        <time>2022-08-27T11:55:44Z</time>
      </trkpt>
      <trkpt lat="45.46461" lon="3.85002">
        <ele>1179.67</ele>
        <time>2022-08-27T11:56:27Z</time>
      </trkpt>
      <trkpt lat="45.46456" lon="3.85005">
        <ele>1179.67</ele>
        <time>2022-08-27T11:57:12Z</time>
      </trkpt>
      <trkpt lat="45.46453" lon="3.85004">
        <ele>1182.56</ele>
        <time>2022-08-27T11:57:49Z</time>
      </trkpt>
      <trkpt lat="45.46454" lon="3.85002">
        <ele>1180.64</ele>
        <time>2022-08-27T11:58:23Z</time>
      </trkpt>
      <trkpt lat="45.46458" lon="3.85002">
        <ele>1181.6</ele>
        <time>2022-08-27T11:58:54Z</time>
      </trkpt>
      <trkpt lat="45.46457" lon="3.85001">
        <ele>1185.44</ele>
        <time>2022-08-27T11:59:31Z</time>
      </trkpt>
      <trkpt lat="45.46455" lon="3.85013">
        <ele>1190.73</ele>
        <time>2022-08-27T12:00:04Z</time>
      </trkpt>
      <trkpt lat="45.46455" lon="3.85006">
        <ele>1193.61</ele>
        <time>2022-08-27T12:00:46Z</time>
      </trkpt>
      <trkpt lat="45.46456" lon="3.85011">
        <ele>1188.81</ele>
        <time>2022-08-27T12:01:27Z</time>
      </trkpt>
      <trkpt lat="45.4646" lon="3.85004">
        <ele>1181.12</ele>
        <time>2022-08-27T12:02:08Z</time>
      </trkpt>
      <trkpt lat="45.46454" lon="3.85005">
        <ele>1180.64</ele>
        <time>2022-08-27T12:02:47Z</time>
      </trkpt>
      <trkpt lat="45.46456" lon="3.85003">
        <ele>1177.27</ele>
        <time>2022-08-27T12:03:25Z</time>
      </trkpt>
      <trkpt lat="45.46454" lon="3.85009">
        <ele>1185.92</ele>
        <time>2022-08-27T12:04:02Z</time>
      </trkpt>
      <trkpt lat="45.46458" lon="3.85006">
        <ele>1187.37</ele>
        <time>2022-08-27T12:04:30Z</time>
      </trkpt>
      <trkpt lat="45.4646" lon="3.85008">
        <ele>1187.37</ele>
        <time>2022-08-27T12:05:08Z</time>
      </trkpt>
      <trkpt lat="45.46455" lon="3.85004">
        <ele>1188.81</ele>
        <time>2022-08-27T12:05:38Z</time>
      </trkpt>
      <trkpt lat="45.46458" lon="3.85003">
        <ele>1188.33</ele>
        <time>2022-08-27T12:06:01Z</time>
      </trkpt>
      <trkpt lat="45.46458" lon="3.85004">
        <ele>1186.88</ele>
        <time>2022-08-27T12:06:33Z</time>
      </trkpt>
      <trkpt lat="45.46453" lon="3.85002">
        <ele>1183.52</ele>
        <time>2022-08-27T12:06:54Z</time>
      </trkpt>
      <trkpt lat="45.46453" lon="3.84997">
        <ele>1182.56</ele>
        <time>2022-08-27T12:07:14Z</time>
      </trkpt>
      <trkpt lat="45.46451" lon="3.84994">
        <ele>1184</ele>
        <time>2022-08-27T12:07:35Z</time>
      </trkpt>
      <trkpt lat="45.46442" lon="3.84988">
        <ele>1182.56</ele>
        <time>2022-08-27T12:07:57Z</time>
      </trkpt>
      <trkpt lat="45.46444" lon="3.84979">
        <ele>1183.04</ele>
        <time>2022-08-27T12:08:22Z</time>
      </trkpt>
      <trkpt lat="45.46441" lon="3.84978">
        <ele>1187.85</ele>
        <time>2022-08-27T12:08:45Z</time>
      </trkpt>
      <trkpt lat="45.4644" lon="3.84974">
        <ele>1185.92</ele>
        <time>2022-08-27T12:09:10Z</time>
      </trkpt>
      <trkpt lat="45.46445" lon="3.84984">
        <ele>1181.12</ele>
        <time>2022-08-27T12:09:32Z</time>
      </trkpt>
      <trkpt lat="45.4644" lon="3.84981">
        <ele>1179.19</ele>
        <time>2022-08-27T12:09:54Z</time>
      </trkpt>
      <trkpt lat="45.46442" lon="3.84976">
        <ele>1184.48</ele>
        <time>2022-08-27T12:10:18Z</time>
      </trkpt>
      <trkpt lat="45.46438" lon="3.84986">
        <ele>1180.16</ele>
        <time>2022-08-27T12:10:42Z</time>
      </trkpt>
      <trkpt lat="45.46444" lon="3.8499">
        <ele>1178.71</ele>
        <time>2022-08-27T12:11:08Z</time>
      </trkpt>
      <trkpt lat="45.46437" lon="3.84982">
        <ele>1178.23</ele>
        <time>2022-08-27T12:11:32Z</time>
      </trkpt>
      <trkpt lat="45.46443" lon="3.84987">
        <ele>1176.31</ele>
        <time>2022-08-27T12:12:00Z</time>
      </trkpt>
      <trkpt lat="45.46441" lon="3.84991">
        <ele>1175.83</ele>
        <time>2022-08-27T12:12:19Z</time>
      </trkpt>
      <trkpt lat="45.46437" lon="3.84994">
        <ele>1178.23</ele>
        <time>2022-08-27T12:12:46Z</time>
      </trkpt>
      <trkpt lat="45.46427" lon="3.84997">
        <ele>1187.85</ele>
        <time>2022-08-27T12:13:22Z</time>
      </trkpt>
      <trkpt lat="45.46433" lon="3.84999">
        <ele>1187.37</ele>
        <time>2022-08-27T12:13:43Z</time>
      </trkpt>
      <trkpt lat="45.46433" lon="3.84994">
        <ele>1186.88</ele>
        <time>2022-08-27T12:14:00Z</time>
      </trkpt>
      <trkpt lat="45.46444" lon="3.84988">
        <ele>1183.04</ele>
        <time>2022-08-27T12:14:20Z</time>
      </trkpt>
      <trkpt lat="45.46442" lon="3.84987">
        <ele>1179.67</ele>
        <time>2022-08-27T12:14:46Z</time>
      </trkpt>
      <trkpt lat="45.46449" lon="3.84985">
        <ele>1176.79</ele>
        <time>2022-08-27T12:15:18Z</time>
      </trkpt>
      <trkpt lat="45.46429" lon="3.84978">
        <ele>1174.87</ele>
        <time>2022-08-27T12:15:48Z</time>
      </trkpt>
      <trkpt lat="45.46434" lon="3.84976">
        <ele>1177.27</ele>
        <time>2022-08-27T12:16:10Z</time>
      </trkpt>
      <trkpt lat="45.46443" lon="3.84985">
        <ele>1182.56</ele>
        <time>2022-08-27T12:16:28Z</time>
      </trkpt>
      <trkpt lat="45.46444" lon="3.84985">
        <ele>1179.19</ele>
        <time>2022-08-27T12:16:53Z</time>
      </trkpt>
      <trkpt lat="45.46445" lon="3.84989">
        <ele>1179.67</ele>
        <time>2022-08-27T12:17:18Z</time>
      </trkpt>
      <trkpt lat="45.46444" lon="3.84983">
        <ele>1182.08</ele>
        <time>2022-08-27T12:17:43Z</time>
      </trkpt>
      <trkpt lat="45.46444" lon="3.84983">
        <ele>1182.08</ele>
        <time>2022-08-27T12:18:10Z</time>
      </trkpt>
      <trkpt lat="45.46443" lon="3.84994">
        <ele>1181.6</ele>
        <time>2022-08-27T12:18:45Z</time>
      </trkpt>
      <trkpt lat="45.46436" lon="3.84977">
        <ele>1182.08</ele>
        <time>2022-08-27T12:19:04Z</time>
      </trkpt>
      <trkpt lat="45.46426" lon="3.84965">
        <ele>1175.83</ele>
        <time>2022-08-27T12:19:24Z</time>
      </trkpt>
      <trkpt lat="45.46441" lon="3.84945">
        <ele>1181.12</ele>
        <time>2022-08-27T12:19:43Z</time>
      </trkpt>
      <trkpt lat="45.4645" lon="3.84941">
        <ele>1183.52</ele>
        <time>2022-08-27T12:20:02Z</time>
      </trkpt>
      <trkpt lat="45.46458" lon="3.84933">
        <ele>1183.52</ele>
        <time>2022-08-27T12:20:22Z</time>
      </trkpt>
      <trkpt lat="45.46458" lon="3.84922">
        <ele>1186.88</ele>
        <time>2022-08-27T12:20:52Z</time>
      </trkpt>
      <trkpt lat="45.46456" lon="3.84923">
        <ele>1185.92</ele>
        <time>2022-08-27T12:21:14Z</time>
      </trkpt>
      <trkpt lat="45.46459" lon="3.849">
        <ele>1194.58</ele>
        <time>2022-08-27T12:21:35Z</time>
      </trkpt>
      <trkpt lat="45.46475" lon="3.8488">
        <ele>1201.3</ele>
        <time>2022-08-27T12:21:56Z</time>
      </trkpt>
      <trkpt lat="45.46489" lon="3.84864">
        <ele>1198.42</ele>
        <time>2022-08-27T12:22:17Z</time>
      </trkpt>
      <trkpt lat="45.46504" lon="3.84839">
        <ele>1199.38</ele>
        <time>2022-08-27T12:22:39Z</time>
      </trkpt>
      <trkpt lat="45.46517" lon="3.84819">
        <ele>1199.38</ele>
        <time>2022-08-27T12:22:58Z</time>
      </trkpt>
      <trkpt lat="45.46522" lon="3.84817">
        <ele>1202.27</ele>
        <time>2022-08-27T12:23:25Z</time>
      </trkpt>
      <trkpt lat="45.46522" lon="3.84809">
        <ele>1202.75</ele>
        <time>2022-08-27T12:23:49Z</time>
      </trkpt>
      <trkpt lat="45.46527" lon="3.84812">
        <ele>1203.23</ele>
        <time>2022-08-27T12:24:24Z</time>
      </trkpt>
      <trkpt lat="45.46523" lon="3.84814">
        <ele>1204.67</ele>
        <time>2022-08-27T12:25:02Z</time>
      </trkpt>
      <trkpt lat="45.46528" lon="3.84799">
        <ele>1206.11</ele>
        <time>2022-08-27T12:25:26Z</time>
      </trkpt>
      <trkpt lat="45.46545" lon="3.84781">
        <ele>1207.55</ele>
        <time>2022-08-27T12:25:45Z</time>
      </trkpt>
      <trkpt lat="45.46567" lon="3.8477">
        <ele>1207.55</ele>
        <time>2022-08-27T12:26:06Z</time>
      </trkpt>
      <trkpt lat="45.46589" lon="3.84759">
        <ele>1207.55</ele>
        <time>2022-08-27T12:26:26Z</time>
      </trkpt>
      <trkpt lat="45.4662" lon="3.8476">
        <ele>1204.67</ele>
        <time>2022-08-27T12:26:46Z</time>
      </trkpt>
      <trkpt lat="45.46644" lon="3.84753">
        <ele>1201.79</ele>
        <time>2022-08-27T12:27:05Z</time>
      </trkpt>
      <trkpt lat="45.46668" lon="3.84747">
        <ele>1202.27</ele>
        <time>2022-08-27T12:27:27Z</time>
      </trkpt>
      <trkpt lat="45.46686" lon="3.84736">
        <ele>1200.34</ele>
        <time>2022-08-27T12:27:46Z</time>
      </trkpt>
      <trkpt lat="45.46709" lon="3.84728">
        <ele>1197.94</ele>
        <time>2022-08-27T12:28:04Z</time>
      </trkpt>
      <trkpt lat="45.46731" lon="3.84729">
        <ele>1196.98</ele>
        <time>2022-08-27T12:28:25Z</time>
      </trkpt>
      <trkpt lat="45.46744" lon="3.84723">
        <ele>1197.46</ele>
        <time>2022-08-27T12:28:37Z</time>
      </trkpt>
      <trkpt lat="45.46765" lon="3.8472">
        <ele>1191.69</ele>
        <time>2022-08-27T12:28:57Z</time>
      </trkpt>
      <trkpt lat="45.46793" lon="3.84725">
        <ele>1188.33</ele>
        <time>2022-08-27T12:29:19Z</time>
      </trkpt>
      <trkpt lat="45.46812" lon="3.84728">
        <ele>1192.65</ele>
        <time>2022-08-27T12:29:34Z</time>
      </trkpt>
      <trkpt lat="45.4684" lon="3.84755">
        <ele>1187.37</ele>
        <time>2022-08-27T12:29:54Z</time>
      </trkpt>
      <trkpt lat="45.46841" lon="3.84753">
        <ele>1187.37</ele>
        <time>2022-08-27T12:29:56Z</time>
      </trkpt>
      <trkpt lat="45.46856" lon="3.84734">
        <ele>1184</ele>
        <time>2022-08-27T12:30:16Z</time>
      </trkpt>
      <trkpt lat="45.46868" lon="3.84712">
        <ele>1176.31</ele>
        <time>2022-08-27T12:30:35Z</time>
      </trkpt>
      <trkpt lat="45.46874" lon="3.84698">
        <ele>1170.06</ele>
        <time>2022-08-27T12:30:50Z</time>
      </trkpt>
      <trkpt lat="45.46885" lon="3.84681">
        <ele>1170.06</ele>
        <time>2022-08-27T12:31:07Z</time>
      </trkpt>
      <trkpt lat="45.46901" lon="3.84667">
        <ele>1168.14</ele>
        <time>2022-08-27T12:31:23Z</time>
      </trkpt>
      <trkpt lat="45.46918" lon="3.84645">
        <ele>1163.81</ele>
        <time>2022-08-27T12:31:43Z</time>
      </trkpt>
      <trkpt lat="45.4694" lon="3.8463">
        <ele>1156.12</ele>
        <time>2022-08-27T12:32:02Z</time>
      </trkpt>
      <trkpt lat="45.46952" lon="3.84619">
        <ele>1153.72</ele>
        <time>2022-08-27T12:32:12Z</time>
      </trkpt>
      <trkpt lat="45.46974" lon="3.84605">
        <ele>1154.2</ele>
        <time>2022-08-27T12:32:29Z</time>
      </trkpt>
      <trkpt lat="45.4699" lon="3.84598">
        <ele>1152.28</ele>
        <time>2022-08-27T12:32:43Z</time>
      </trkpt>
      <trkpt lat="45.47" lon="3.84593">
        <ele>1148.91</ele>
        <time>2022-08-27T12:32:52Z</time>
      </trkpt>
      <trkpt lat="45.47004" lon="3.84587">
        <ele>1148.91</ele>
        <time>2022-08-27T12:32:56Z</time>
      </trkpt>
      <trkpt lat="45.47012" lon="3.84576">
        <ele>1148.43</ele>
        <time>2022-08-27T12:33:06Z</time>
      </trkpt>
      <trkpt lat="45.47021" lon="3.84566">
        <ele>1147.47</ele>
        <time>2022-08-27T12:33:17Z</time>
      </trkpt>
      <trkpt lat="45.47042" lon="3.84545">
        <ele>1141.22</ele>
        <time>2022-08-27T12:33:35Z</time>
      </trkpt>
      <trkpt lat="45.47065" lon="3.84518">
        <ele>1135.45</ele>
        <time>2022-08-27T12:33:58Z</time>
      </trkpt>
      <trkpt lat="45.47068" lon="3.84515">
        <ele>1134.49</ele>
        <time>2022-08-27T12:34:01Z</time>
      </trkpt>
      <trkpt lat="45.47084" lon="3.84487">
        <ele>1134.97</ele>
        <time>2022-08-27T12:34:20Z</time>
      </trkpt>
      <trkpt lat="45.471" lon="3.84463">
        <ele>1138.82</ele>
        <time>2022-08-27T12:34:37Z</time>
      </trkpt>
      <trkpt lat="45.4712" lon="3.84446">
        <ele>1136.42</ele>
        <time>2022-08-27T12:34:55Z</time>
      </trkpt>
      <trkpt lat="45.47145" lon="3.84419">
        <ele>1131.13</ele>
        <time>2022-08-27T12:35:14Z</time>
      </trkpt>
      <trkpt lat="45.4716" lon="3.84399">
        <ele>1130.65</ele>
        <time>2022-08-27T12:35:32Z</time>
      </trkpt>
      <trkpt lat="45.47178" lon="3.84377">
        <ele>1126.32</ele>
        <time>2022-08-27T12:35:50Z</time>
      </trkpt>
      <trkpt lat="45.47202" lon="3.84353">
        <ele>1120.55</ele>
        <time>2022-08-27T12:36:10Z</time>
      </trkpt>
      <trkpt lat="45.47218" lon="3.84323">
        <ele>1117.67</ele>
        <time>2022-08-27T12:36:31Z</time>
      </trkpt>
      <trkpt lat="45.47233" lon="3.84301">
        <ele>1115.27</ele>
        <time>2022-08-27T12:36:51Z</time>
      </trkpt>
      <trkpt lat="45.47244" lon="3.84274">
        <ele>1109.5</ele>
        <time>2022-08-27T12:37:12Z</time>
      </trkpt>
      <trkpt lat="45.47247" lon="3.84251">
        <ele>1105.17</ele>
        <time>2022-08-27T12:37:32Z</time>
      </trkpt>
      <trkpt lat="45.4724" lon="3.84231">
        <ele>1106.13</ele>
        <time>2022-08-27T12:37:50Z</time>
      </trkpt>
      <trkpt lat="45.47233" lon="3.84207">
        <ele>1107.1</ele>
        <time>2022-08-27T12:38:06Z</time>
      </trkpt>
      <trkpt lat="45.47228" lon="3.84194">
        <ele>1106.13</ele>
        <time>2022-08-27T12:38:17Z</time>
      </trkpt>
      <trkpt lat="45.47219" lon="3.84162">
        <ele>1103.25</ele>
        <time>2022-08-27T12:38:35Z</time>
      </trkpt>
      <trkpt lat="45.47211" lon="3.84134">
        <ele>1100.85</ele>
        <time>2022-08-27T12:38:52Z</time>
      </trkpt>
      <trkpt lat="45.4722" lon="3.84099">
        <ele>1097.48</ele>
        <time>2022-08-27T12:39:05Z</time>
      </trkpt>
      <trkpt lat="45.47239" lon="3.84079">
        <ele>1097</ele>
        <time>2022-08-27T12:39:22Z</time>
      </trkpt>
      <trkpt lat="45.47271" lon="3.84061">
        <ele>1093.16</ele>
        <time>2022-08-27T12:39:46Z</time>
      </trkpt>
      <trkpt lat="45.47295" lon="3.84046">
        <ele>1096.04</ele>
        <time>2022-08-27T12:40:05Z</time>
      </trkpt>
      <trkpt lat="45.47324" lon="3.84035">
        <ele>1092.2</ele>
        <time>2022-08-27T12:40:25Z</time>
      </trkpt>
      <trkpt lat="45.47345" lon="3.8402">
        <ele>1087.87</ele>
        <time>2022-08-27T12:40:42Z</time>
      </trkpt>
      <trkpt lat="45.4737" lon="3.84011">
        <ele>1086.91</ele>
        <time>2022-08-27T12:40:58Z</time>
      </trkpt>
      <trkpt lat="45.47391" lon="3.84003">
        <ele>1086.43</ele>
        <time>2022-08-27T12:41:16Z</time>
      </trkpt>
      <trkpt lat="45.47413" lon="3.83998">
        <ele>1083.06</ele>
        <time>2022-08-27T12:41:35Z</time>
      </trkpt>
      <trkpt lat="45.47428" lon="3.83991">
        <ele>1080.66</ele>
        <time>2022-08-27T12:41:47Z</time>
      </trkpt>
      <trkpt lat="45.4744" lon="3.83972">
        <ele>1077.78</ele>
        <time>2022-08-27T12:42:04Z</time>
      </trkpt>
      <trkpt lat="45.47453" lon="3.83959">
        <ele>1073.93</ele>
        <time>2022-08-27T12:42:17Z</time>
      </trkpt>
      <trkpt lat="45.47483" lon="3.8393">
        <ele>1066.24</ele>
        <time>2022-08-27T12:42:33Z</time>
      </trkpt>
      <trkpt lat="45.47502" lon="3.83923">
        <ele>1058.07</ele>
        <time>2022-08-27T12:42:52Z</time>
      </trkpt>
      <trkpt lat="45.47522" lon="3.83908">
        <ele>1062.39</ele>
        <time>2022-08-27T12:43:13Z</time>
      </trkpt>
      <trkpt lat="45.47544" lon="3.83892">
        <ele>1067.2</ele>
        <time>2022-08-27T12:43:32Z</time>
      </trkpt>
      <trkpt lat="45.47569" lon="3.8388">
        <ele>1059.03</ele>
        <time>2022-08-27T12:43:50Z</time>
      </trkpt>
      <trkpt lat="45.47595" lon="3.83865">
        <ele>1059.03</ele>
        <time>2022-08-27T12:44:10Z</time>
      </trkpt>
      <trkpt lat="45.47608" lon="3.83848">
        <ele>1059.99</ele>
        <time>2022-08-27T12:44:26Z</time>
      </trkpt>
      <trkpt lat="45.47628" lon="3.83825">
        <ele>1058.55</ele>
        <time>2022-08-27T12:44:45Z</time>
      </trkpt>
      <trkpt lat="45.47644" lon="3.83806">
        <ele>1056.63</ele>
        <time>2022-08-27T12:45:01Z</time>
      </trkpt>
      <trkpt lat="45.47645" lon="3.83804">
        <ele>1056.63</ele>
        <time>2022-08-27T12:45:02Z</time>
      </trkpt>
      <trkpt lat="45.47659" lon="3.83772">
        <ele>1054.22</ele>
        <time>2022-08-27T12:45:19Z</time>
      </trkpt>
      <trkpt lat="45.47668" lon="3.83747">
        <ele>1051.34</ele>
        <time>2022-08-27T12:45:32Z</time>
      </trkpt>
      <trkpt lat="45.47674" lon="3.83727">
        <ele>1048.94</ele>
        <time>2022-08-27T12:45:44Z</time>
      </trkpt>
      <trkpt lat="45.47674" lon="3.83725">
        <ele>1048.94</ele>
        <time>2022-08-27T12:45:45Z</time>
      </trkpt>
      <trkpt lat="45.47674" lon="3.83724">
        <ele>1048.94</ele>
        <time>2022-08-27T12:45:46Z</time>
      </trkpt>
      <trkpt lat="45.47675" lon="3.83722">
        <ele>1048.45</ele>
        <time>2022-08-27T12:45:47Z</time>
      </trkpt>
      <trkpt lat="45.47675" lon="3.8372">
        <ele>1048.45</ele>
        <time>2022-08-27T12:45:48Z</time>
      </trkpt>
      <trkpt lat="45.47695" lon="3.83691">
        <ele>1045.57</ele>
        <time>2022-08-27T12:46:08Z</time>
      </trkpt>
      <trkpt lat="45.47713" lon="3.83669">
        <ele>1044.13</ele>
        <time>2022-08-27T12:46:23Z</time>
      </trkpt>
      <trkpt lat="45.47736" lon="3.83649">
        <ele>1041.25</ele>
        <time>2022-08-27T12:46:38Z</time>
      </trkpt>
      <trkpt lat="45.47756" lon="3.83631">
        <ele>1038.36</ele>
        <time>2022-08-27T12:47:01Z</time>
      </trkpt>
      <trkpt lat="45.47783" lon="3.83609">
        <ele>1032.59</ele>
        <time>2022-08-27T12:47:24Z</time>
      </trkpt>
      <trkpt lat="45.478" lon="3.83596">
        <ele>1031.63</ele>
        <time>2022-08-27T12:47:46Z</time>
      </trkpt>
      <trkpt lat="45.4783" lon="3.83578">
        <ele>1031.63</ele>
        <time>2022-08-27T12:48:08Z</time>
      </trkpt>
      <trkpt lat="45.47859" lon="3.83569">
        <ele>1036.92</ele>
        <time>2022-08-27T12:48:29Z</time>
      </trkpt>
      <trkpt lat="45.47882" lon="3.83568">
        <ele>1039.8</ele>
        <time>2022-08-27T12:48:49Z</time>
      </trkpt>
      <trkpt lat="45.47917" lon="3.83562">
        <ele>1036.44</ele>
        <time>2022-08-27T12:49:12Z</time>
      </trkpt>
      <trkpt lat="45.47938" lon="3.83552">
        <ele>1035.96</ele>
        <time>2022-08-27T12:49:31Z</time>
      </trkpt>
      <trkpt lat="45.47967" lon="3.8355">
        <ele>1036.44</ele>
        <time>2022-08-27T12:49:51Z</time>
      </trkpt>
      <trkpt lat="45.47991" lon="3.83553">
        <ele>1037.88</ele>
        <time>2022-08-27T12:50:14Z</time>
      </trkpt>
      <trkpt lat="45.48015" lon="3.83545">
        <ele>1035.96</ele>
        <time>2022-08-27T12:50:35Z</time>
      </trkpt>
      <trkpt lat="45.48016" lon="3.83544">
        <ele>1035.96</ele>
        <time>2022-08-27T12:50:36Z</time>
      </trkpt>
      <trkpt lat="45.48031" lon="3.83532">
        <ele>1036.44</ele>
        <time>2022-08-27T12:50:50Z</time>
      </trkpt>
      <trkpt lat="45.48036" lon="3.83521">
        <ele>1034.52</ele>
        <time>2022-08-27T12:51:01Z</time>
      </trkpt>
      <trkpt lat="45.48039" lon="3.83498">
        <ele>1034.04</ele>
        <time>2022-08-27T12:51:19Z</time>
      </trkpt>
      <trkpt lat="45.48043" lon="3.83467">
        <ele>1032.59</ele>
        <time>2022-08-27T12:51:38Z</time>
      </trkpt>
      <trkpt lat="45.48037" lon="3.83446">
        <ele>1028.27</ele>
        <time>2022-08-27T12:51:52Z</time>
      </trkpt>
      <trkpt lat="45.48025" lon="3.83434">
        <ele>1022.02</ele>
        <time>2022-08-27T12:52:10Z</time>
      </trkpt>
      <trkpt lat="45.48021" lon="3.83431">
        <ele>1021.06</ele>
        <time>2022-08-27T12:52:15Z</time>
      </trkpt>
      <trkpt lat="45.47999" lon="3.83424">
        <ele>1017.21</ele>
        <time>2022-08-27T12:52:30Z</time>
      </trkpt>
      <trkpt lat="45.47983" lon="3.83425">
        <ele>1021.06</ele>
        <time>2022-08-27T12:52:49Z</time>
      </trkpt>
      <trkpt lat="45.47954" lon="3.83414">
        <ele>1024.42</ele>
        <time>2022-08-27T12:53:02Z</time>
      </trkpt>
      <trkpt lat="45.47919" lon="3.83411">
        <ele>1033.55</ele>
        <time>2022-08-27T12:53:16Z</time>
      </trkpt>
      <trkpt lat="45.47874" lon="3.83403">
        <ele>1043.65</ele>
        <time>2022-08-27T12:53:30Z</time>
      </trkpt>
      <trkpt lat="45.4785" lon="3.83399">
        <ele>1044.13</ele>
        <time>2022-08-27T12:53:34Z</time>
      </trkpt>
      <trkpt lat="45.47843" lon="3.83399">
        <ele>1044.13</ele>
        <time>2022-08-27T12:53:35Z</time>
      </trkpt>
      <trkpt lat="45.47835" lon="3.83398">
        <ele>1043.65</ele>
        <time>2022-08-27T12:53:36Z</time>
      </trkpt>
      <trkpt lat="45.47763" lon="3.83375">
        <ele>1039.8</ele>
        <time>2022-08-27T12:53:51Z</time>
      </trkpt>
      <trkpt lat="45.47715" lon="3.83381">
        <ele>1040.28</ele>
        <time>2022-08-27T12:54:06Z</time>
      </trkpt>
      <trkpt lat="45.47646" lon="3.83407">
        <ele>1041.25</ele>
        <time>2022-08-27T12:54:21Z</time>
      </trkpt>
      <trkpt lat="45.47601" lon="3.83428">
        <ele>1041.25</ele>
        <time>2022-08-27T12:54:36Z</time>
      </trkpt>
      <trkpt lat="45.47516" lon="3.83433">
        <ele>1043.17</ele>
        <time>2022-08-27T12:54:50Z</time>
      </trkpt>
      <trkpt lat="45.47471" lon="3.83453">
        <ele>1039.32</ele>
        <time>2022-08-27T12:55:03Z</time>
      </trkpt>
      <trkpt lat="45.47417" lon="3.83483">
        <ele>1042.69</ele>
        <time>2022-08-27T12:55:21Z</time>
      </trkpt>
      <trkpt lat="45.47363" lon="3.83541">
        <ele>1044.13</ele>
        <time>2022-08-27T12:55:34Z</time>
      </trkpt>
      <trkpt lat="45.47315" lon="3.83583">
        <ele>1048.94</ele>
        <time>2022-08-27T12:55:49Z</time>
      </trkpt>
      <trkpt lat="45.47261" lon="3.83614">
        <ele>1053.26</ele>
        <time>2022-08-27T12:56:02Z</time>
      </trkpt>
      <trkpt lat="45.47204" lon="3.83629">
        <ele>1057.59</ele>
        <time>2022-08-27T12:56:16Z</time>
      </trkpt>
      <trkpt lat="45.47187" lon="3.83634">
        <ele>1062.87</ele>
        <time>2022-08-27T12:56:28Z</time>
      </trkpt>
      <trkpt lat="45.47155" lon="3.83634">
        <ele>1065.28</ele>
        <time>2022-08-27T12:56:46Z</time>
      </trkpt>
      <trkpt lat="45.47108" lon="3.83639">
        <ele>1058.07</ele>
        <time>2022-08-27T12:57:09Z</time>
      </trkpt>
      <trkpt lat="45.47085" lon="3.83639">
        <ele>1050.86</ele>
        <time>2022-08-27T12:57:28Z</time>
      </trkpt>
      <trkpt lat="45.47075" lon="3.83638">
        <ele>1043.65</ele>
        <time>2022-08-27T12:57:45Z</time>
      </trkpt>
      <trkpt lat="45.47049" lon="3.83642">
        <ele>1036.92</ele>
        <time>2022-08-27T12:58:04Z</time>
      </trkpt>
      <trkpt lat="45.47024" lon="3.83637">
        <ele>1035.48</ele>
        <time>2022-08-27T12:58:25Z</time>
      </trkpt>
      <trkpt lat="45.47005" lon="3.83642">
        <ele>1035.96</ele>
        <time>2022-08-27T12:58:46Z</time>
      </trkpt>
      <trkpt lat="45.46979" lon="3.83651">
        <ele>1033.07</ele>
        <time>2022-08-27T12:59:06Z</time>
      </trkpt>
      <trkpt lat="45.46958" lon="3.8367">
        <ele>1033.55</ele>
        <time>2022-08-27T12:59:22Z</time>
      </trkpt>
      <trkpt lat="45.46923" lon="3.83687">
        <ele>1031.63</ele>
        <time>2022-08-27T12:59:40Z</time>
      </trkpt>
      <trkpt lat="45.469" lon="3.83699">
        <ele>1037.4</ele>
        <time>2022-08-27T12:59:56Z</time>
      </trkpt>
      <trkpt lat="45.46884" lon="3.8373">
        <ele>1036.92</ele>
        <time>2022-08-27T13:00:16Z</time>
      </trkpt>
      <trkpt lat="45.46854" lon="3.83748">
        <ele>1030.67</ele>
        <time>2022-08-27T13:00:32Z</time>
      </trkpt>
      <trkpt lat="45.4682" lon="3.83773">
        <ele>1008.08</ele>
        <time>2022-08-27T13:00:50Z</time>
      </trkpt>
      <trkpt lat="45.46805" lon="3.83792">
        <ele>1005.2</ele>
        <time>2022-08-27T13:01:09Z</time>
      </trkpt>
      <trkpt lat="45.46763" lon="3.83805">
        <ele>1005.2</ele>
        <time>2022-08-27T13:01:33Z</time>
      </trkpt>
      <trkpt lat="45.4673" lon="3.83816">
        <ele>1003.27</ele>
        <time>2022-08-27T13:01:55Z</time>
      </trkpt>
      <trkpt lat="45.4669" lon="3.83819">
        <ele>1000.87</ele>
        <time>2022-08-27T13:02:17Z</time>
      </trkpt>
      <trkpt lat="45.46671" lon="3.83813">
        <ele>1003.27</ele>
        <time>2022-08-27T13:02:35Z</time>
      </trkpt>
      <trkpt lat="45.4665" lon="3.83824">
        <ele>1011.44</ele>
        <time>2022-08-27T13:02:57Z</time>
      </trkpt>
      <trkpt lat="45.46605" lon="3.83846">
        <ele>1008.56</ele>
        <time>2022-08-27T13:03:20Z</time>
      </trkpt>
      <trkpt lat="45.46574" lon="3.8387">
        <ele>1006.64</ele>
        <time>2022-08-27T13:03:41Z</time>
      </trkpt>
      <trkpt lat="45.46562" lon="3.83891">
        <ele>997.99</ele>
        <time>2022-08-27T13:04:00Z</time>
      </trkpt>
      <trkpt lat="45.4656" lon="3.83894">
        <ele>997.51</ele>
        <time>2022-08-27T13:04:02Z</time>
      </trkpt>
      <trkpt lat="45.4654" lon="3.83924">
        <ele>999.43</ele>
        <time>2022-08-27T13:04:23Z</time>
      </trkpt>
      <trkpt lat="45.46515" lon="3.83935">
        <ele>1003.27</ele>
        <time>2022-08-27T13:04:45Z</time>
      </trkpt>
      <trkpt lat="45.46471" lon="3.8397">
        <ele>999.43</ele>
        <time>2022-08-27T13:05:12Z</time>
      </trkpt>
      <trkpt lat="45.46446" lon="3.83989">
        <ele>999.43</ele>
        <time>2022-08-27T13:05:32Z</time>
      </trkpt>
      <trkpt lat="45.46414" lon="3.84029">
        <ele>995.1</ele>
        <time>2022-08-27T13:05:50Z</time>
      </trkpt>
      <trkpt lat="45.46384" lon="3.84054">
        <ele>997.99</ele>
        <time>2022-08-27T13:06:15Z</time>
      </trkpt>
      <trkpt lat="45.46371" lon="3.84057">
        <ele>1000.39</ele>
        <time>2022-08-27T13:06:23Z</time>
      </trkpt>
      <trkpt lat="45.46369" lon="3.84057">
        <ele>1000.39</ele>
        <time>2022-08-27T13:06:24Z</time>
      </trkpt>
      <trkpt lat="45.46337" lon="3.84068">
        <ele>1004.72</ele>
        <time>2022-08-27T13:06:45Z</time>
      </trkpt>
      <trkpt lat="45.46312" lon="3.84073">
        <ele>1007.6</ele>
        <time>2022-08-27T13:07:04Z</time>
      </trkpt>
      <trkpt lat="45.46291" lon="3.84087">
        <ele>1020.58</ele>
        <time>2022-08-27T13:07:25Z</time>
      </trkpt>
      <trkpt lat="45.46267" lon="3.84116">
        <ele>1016.73</ele>
        <time>2022-08-27T13:07:48Z</time>
      </trkpt>
      <trkpt lat="45.46247" lon="3.84137">
        <ele>1016.73</ele>
        <time>2022-08-27T13:08:10Z</time>
      </trkpt>
      <trkpt lat="45.4622" lon="3.84159">
        <ele>1022.5</ele>
        <time>2022-08-27T13:08:35Z</time>
      </trkpt>
      <trkpt lat="45.46218" lon="3.84164">
        <ele>1024.42</ele>
        <time>2022-08-27T13:08:37Z</time>
      </trkpt>
      <trkpt lat="45.46191" lon="3.84188">
        <ele>1025.38</ele>
        <time>2022-08-27T13:08:57Z</time>
      </trkpt>
      <trkpt lat="45.46166" lon="3.8422">
        <ele>1029.23</ele>
        <time>2022-08-27T13:09:20Z</time>
      </trkpt>
      <trkpt lat="45.46142" lon="3.84234">
        <ele>1034.04</ele>
        <time>2022-08-27T13:09:44Z</time>
      </trkpt>
      <trkpt lat="45.46108" lon="3.84261">
        <ele>1037.88</ele>
        <time>2022-08-27T13:10:03Z</time>
      </trkpt>
      <trkpt lat="45.46074" lon="3.8428">
        <ele>1034.52</ele>
        <time>2022-08-27T13:10:25Z</time>
      </trkpt>
      <trkpt lat="45.46048" lon="3.84293">
        <ele>1038.36</ele>
        <time>2022-08-27T13:10:41Z</time>
      </trkpt>
      <trkpt lat="45.46046" lon="3.84293">
        <ele>1039.32</ele>
        <time>2022-08-27T13:10:42Z</time>
      </trkpt>
      <trkpt lat="45.46044" lon="3.84295">
        <ele>1039.8</ele>
        <time>2022-08-27T13:10:43Z</time>
      </trkpt>
      <trkpt lat="45.46034" lon="3.84309">
        <ele>1039.8</ele>
        <time>2022-08-27T13:11:01Z</time>
      </trkpt>
      <trkpt lat="45.45997" lon="3.84339">
        <ele>1037.88</ele>
        <time>2022-08-27T13:11:23Z</time>
      </trkpt>
      <trkpt lat="45.4597" lon="3.84349">
        <ele>1035.48</ele>
        <time>2022-08-27T13:11:44Z</time>
      </trkpt>
      <trkpt lat="45.4595" lon="3.8436">
        <ele>1032.59</ele>
        <time>2022-08-27T13:12:01Z</time>
      </trkpt>
      <trkpt lat="45.45926" lon="3.84373">
        <ele>1032.11</ele>
        <time>2022-08-27T13:12:15Z</time>
      </trkpt>
      <trkpt lat="45.45904" lon="3.84393">
        <ele>1027.79</ele>
        <time>2022-08-27T13:12:33Z</time>
      </trkpt>
      <trkpt lat="45.45876" lon="3.84418">
        <ele>1022.98</ele>
        <time>2022-08-27T13:12:53Z</time>
      </trkpt>
      <trkpt lat="45.45849" lon="3.84435">
        <ele>1018.65</ele>
        <time>2022-08-27T13:13:10Z</time>
      </trkpt>
      <trkpt lat="45.45825" lon="3.84446">
        <ele>1012.89</ele>
        <time>2022-08-27T13:13:28Z</time>
      </trkpt>
      <trkpt lat="45.4581" lon="3.84446">
        <ele>1010.96</ele>
        <time>2022-08-27T13:13:40Z</time>
      </trkpt>
      <trkpt lat="45.4578" lon="3.84444">
        <ele>1017.69</ele>
        <time>2022-08-27T13:13:59Z</time>
      </trkpt>
      <trkpt lat="45.45781" lon="3.84443">
        <ele>1018.65</ele>
        <time>2022-08-27T13:14:17Z</time>
      </trkpt>
      <trkpt lat="45.45773" lon="3.84437">
        <ele>1017.69</ele>
        <time>2022-08-27T13:14:40Z</time>
      </trkpt>
      <trkpt lat="45.45773" lon="3.84434">
        <ele>1015.77</ele>
        <time>2022-08-27T13:15:08Z</time>
      </trkpt>
      <trkpt lat="45.45771" lon="3.84435">
        <ele>1013.37</ele>
        <time>2022-08-27T13:15:32Z</time>
      </trkpt>
      <trkpt lat="45.45772" lon="3.84433">
        <ele>1013.85</ele>
        <time>2022-08-27T13:15:54Z</time>
      </trkpt>
      <trkpt lat="45.45771" lon="3.84434">
        <ele>1019.62</ele>
        <time>2022-08-27T13:16:20Z</time>
      </trkpt>
      <trkpt lat="45.45772" lon="3.84428">
        <ele>1020.58</ele>
        <time>2022-08-27T13:16:35Z</time>
      </trkpt>
      <trkpt lat="45.45772" lon="3.84431">
        <ele>1020.1</ele>
        <time>2022-08-27T13:17:04Z</time>
      </trkpt>
      <trkpt lat="45.45772" lon="3.84423">
        <ele>1024.42</ele>
        <time>2022-08-27T13:17:33Z</time>
      </trkpt>
      <trkpt lat="45.45771" lon="3.84415">
        <ele>1022.5</ele>
        <time>2022-08-27T13:17:53Z</time>
      </trkpt>
      <trkpt lat="45.45774" lon="3.84413">
        <ele>1023.46</ele>
        <time>2022-08-27T13:18:13Z</time>
      </trkpt>
      <trkpt lat="45.45776" lon="3.84416">
        <ele>1026.34</ele>
        <time>2022-08-27T13:18:38Z</time>
      </trkpt>
      <trkpt lat="45.45779" lon="3.84415">
        <ele>1029.71</ele>
        <time>2022-08-27T13:19:08Z</time>
      </trkpt>
      <trkpt lat="45.45783" lon="3.84421">
        <ele>1032.11</ele>
        <time>2022-08-27T13:19:35Z</time>
      </trkpt>
      <trkpt lat="45.45783" lon="3.84431">
        <ele>1030.67</ele>
        <time>2022-08-27T13:19:58Z</time>
      </trkpt>
      <trkpt lat="45.45784" lon="3.84425">
        <ele>1030.19</ele>
        <time>2022-08-27T13:20:30Z</time>
      </trkpt>
      <trkpt lat="45.45781" lon="3.84433">
        <ele>1030.67</ele>
        <time>2022-08-27T13:20:50Z</time>
      </trkpt>
      <trkpt lat="45.45776" lon="3.84436">
        <ele>1030.19</ele>
        <time>2022-08-27T13:21:22Z</time>
      </trkpt>
      <trkpt lat="45.45774" lon="3.84437">
        <ele>1028.27</ele>
        <time>2022-08-27T13:21:38Z</time>
      </trkpt>
      <trkpt lat="45.4577" lon="3.84428">
        <ele>1024.9</ele>
        <time>2022-08-27T13:21:54Z</time>
      </trkpt>
      <trkpt lat="45.4577" lon="3.84423">
        <ele>1022.98</ele>
        <time>2022-08-27T13:22:10Z</time>
      </trkpt>
      <trkpt lat="45.45776" lon="3.84416">
        <ele>1025.86</ele>
        <time>2022-08-27T13:22:29Z</time>
      </trkpt>
      <trkpt lat="45.45779" lon="3.84418">
        <ele>1028.27</ele>
        <time>2022-08-27T13:22:34Z</time>
      </trkpt>
      <trkpt lat="45.45782" lon="3.84423">
        <ele>1029.71</ele>
        <time>2022-08-27T13:22:38Z</time>
      </trkpt>
      <trkpt lat="45.45783" lon="3.84431">
        <ele>1028.75</ele>
        <time>2022-08-27T13:22:57Z</time>
      </trkpt>
      <trkpt lat="45.45785" lon="3.84441">
        <ele>1027.79</ele>
        <time>2022-08-27T13:23:17Z</time>
      </trkpt>
      <trkpt lat="45.45781" lon="3.84444">
        <ele>1025.86</ele>
        <time>2022-08-27T13:23:32Z</time>
      </trkpt>
      <trkpt lat="45.45783" lon="3.84439">
        <ele>1025.86</ele>
        <time>2022-08-27T13:23:37Z</time>
      </trkpt>
      <trkpt lat="45.45796" lon="3.84447">
        <ele>1029.71</ele>
        <time>2022-08-27T13:23:52Z</time>
      </trkpt>
      <trkpt lat="45.4581" lon="3.84467">
        <ele>1028.75</ele>
        <time>2022-08-27T13:24:10Z</time>
      </trkpt>
      <trkpt lat="45.45815" lon="3.84479">
        <ele>1024.9</ele>
        <time>2022-08-27T13:24:26Z</time>
      </trkpt>
      <trkpt lat="45.45815" lon="3.84482">
        <ele>1022.98</ele>
        <time>2022-08-27T13:24:54Z</time>
      </trkpt>
      <trkpt lat="45.45819" lon="3.84484">
        <ele>1025.38</ele>
        <time>2022-08-27T13:25:12Z</time>
      </trkpt>
      <trkpt lat="45.45813" lon="3.84485">
        <ele>1009.52</ele>
        <time>2022-08-27T13:55:45Z</time>
      </trkpt>
      <trkpt lat="45.45811" lon="3.84473">
        <ele>1026.34</ele>
        <time>2022-08-27T13:55:59Z</time>
      </trkpt>
      <trkpt lat="45.45806" lon="3.84464">
        <ele>1023.46</ele>
        <time>2022-08-27T13:56:14Z</time>
      </trkpt>
      <trkpt lat="45.458" lon="3.84453">
        <ele>1022.5</ele>
        <time>2022-08-27T13:56:32Z</time>
      </trkpt>
      <trkpt lat="45.45793" lon="3.84446">
        <ele>1023.94</ele>
        <time>2022-08-27T13:56:47Z</time>
      </trkpt>
      <trkpt lat="45.45788" lon="3.84444">
        <ele>1020.58</ele>
        <time>2022-08-27T13:57:03Z</time>
      </trkpt>
      <trkpt lat="45.45781" lon="3.84442">
        <ele>1021.06</ele>
        <time>2022-08-27T13:57:21Z</time>
      </trkpt>
      <trkpt lat="45.45775" lon="3.84438">
        <ele>1019.62</ele>
        <time>2022-08-27T13:57:39Z</time>
      </trkpt>
      <trkpt lat="45.4577" lon="3.84427">
        <ele>1021.54</ele>
        <time>2022-08-27T13:58:02Z</time>
      </trkpt>
      <trkpt lat="45.45771" lon="3.84418">
        <ele>1021.54</ele>
        <time>2022-08-27T13:58:16Z</time>
      </trkpt>
      <trkpt lat="45.45771" lon="3.84416">
        <ele>1023.94</ele>
        <time>2022-08-27T13:58:34Z</time>
      </trkpt>
      <trkpt lat="45.45773" lon="3.84425">
        <ele>1022.98</ele>
        <time>2022-08-27T13:59:02Z</time>
      </trkpt>
      <trkpt lat="45.45775" lon="3.84432">
        <ele>1021.54</ele>
        <time>2022-08-27T13:59:25Z</time>
      </trkpt>
      <trkpt lat="45.45779" lon="3.8444">
        <ele>1024.42</ele>
        <time>2022-08-27T13:59:45Z</time>
      </trkpt>
      <trkpt lat="45.45779" lon="3.84441">
        <ele>1024.42</ele>
        <time>2022-08-27T14:00:07Z</time>
      </trkpt>
      <trkpt lat="45.45776" lon="3.84425">
        <ele>1026.83</ele>
        <time>2022-08-27T14:00:34Z</time>
      </trkpt>
      <trkpt lat="45.45776" lon="3.84424">
        <ele>1027.31</ele>
        <time>2022-08-27T14:00:58Z</time>
      </trkpt>
      <trkpt lat="45.45778" lon="3.84418">
        <ele>1031.63</ele>
        <time>2022-08-27T14:01:24Z</time>
      </trkpt>
      <trkpt lat="45.45776" lon="3.84416">
        <ele>1035</ele>
        <time>2022-08-27T14:01:51Z</time>
      </trkpt>
      <trkpt lat="45.45778" lon="3.84418">
        <ele>1036.44</ele>
        <time>2022-08-27T14:02:14Z</time>
      </trkpt>
      <trkpt lat="45.45785" lon="3.84431">
        <ele>1034.04</ele>
        <time>2022-08-27T14:02:30Z</time>
      </trkpt>
      <trkpt lat="45.45784" lon="3.84432">
        <ele>1033.55</ele>
        <time>2022-08-27T14:02:59Z</time>
      </trkpt>
      <trkpt lat="45.45784" lon="3.84438">
        <ele>1032.11</ele>
        <time>2022-08-27T14:03:17Z</time>
      </trkpt>
      <trkpt lat="45.45791" lon="3.84443">
        <ele>1031.15</ele>
        <time>2022-08-27T14:03:32Z</time>
      </trkpt>
      <trkpt lat="45.45796" lon="3.84448">
        <ele>1034.52</ele>
        <time>2022-08-27T14:03:41Z</time>
      </trkpt>
      <trkpt lat="45.45801" lon="3.84464">
        <ele>1034.04</ele>
        <time>2022-08-27T14:03:51Z</time>
      </trkpt>
      <trkpt lat="45.45792" lon="3.845">
        <ele>1031.63</ele>
        <time>2022-08-27T14:04:10Z</time>
      </trkpt>
      <trkpt lat="45.45783" lon="3.84531">
        <ele>1028.75</ele>
        <time>2022-08-27T14:04:29Z</time>
      </trkpt>
      <trkpt lat="45.45776" lon="3.84559">
        <ele>1027.79</ele>
        <time>2022-08-27T14:04:46Z</time>
      </trkpt>
      <trkpt lat="45.45773" lon="3.84582">
        <ele>1027.31</ele>
        <time>2022-08-27T14:05:02Z</time>
      </trkpt>
      <trkpt lat="45.45771" lon="3.84584">
        <ele>1027.31</ele>
        <time>2022-08-27T14:05:05Z</time>
      </trkpt>
      <trkpt lat="45.45747" lon="3.84568">
        <ele>1024.42</ele>
        <time>2022-08-27T14:05:26Z</time>
      </trkpt>
      <trkpt lat="45.45727" lon="3.84566">
        <ele>1024.9</ele>
        <time>2022-08-27T14:05:44Z</time>
      </trkpt>
      <trkpt lat="45.45705" lon="3.84577">
        <ele>1024.9</ele>
        <time>2022-08-27T14:06:01Z</time>
      </trkpt>
      <trkpt lat="45.45682" lon="3.84586">
        <ele>1026.34</ele>
        <time>2022-08-27T14:06:19Z</time>
      </trkpt>
      <trkpt lat="45.45671" lon="3.84595">
        <ele>1027.31</ele>
        <time>2022-08-27T14:06:30Z</time>
      </trkpt>
      <trkpt lat="45.45666" lon="3.84604">
        <ele>1028.27</ele>
        <time>2022-08-27T14:06:34Z</time>
      </trkpt>
      <trkpt lat="45.45664" lon="3.84607">
        <ele>1028.27</ele>
        <time>2022-08-27T14:06:35Z</time>
      </trkpt>
      <trkpt lat="45.45664" lon="3.84609">
        <ele>1028.27</ele>
        <time>2022-08-27T14:06:36Z</time>
      </trkpt>
      <trkpt lat="45.45639" lon="3.8464">
        <ele>1029.23</ele>
        <time>2022-08-27T14:06:51Z</time>
      </trkpt>
      <trkpt lat="45.45612" lon="3.84664">
        <ele>1032.59</ele>
        <time>2022-08-27T14:07:11Z</time>
      </trkpt>
      <trkpt lat="45.45593" lon="3.84691">
        <ele>1034.52</ele>
        <time>2022-08-27T14:07:32Z</time>
      </trkpt>
      <trkpt lat="45.45578" lon="3.84714">
        <ele>1039.8</ele>
        <time>2022-08-27T14:07:56Z</time>
      </trkpt>
      <trkpt lat="45.45565" lon="3.84741">
        <ele>1045.09</ele>
        <time>2022-08-27T14:08:18Z</time>
      </trkpt>
      <trkpt lat="45.45555" lon="3.84759">
        <ele>1048.45</ele>
        <time>2022-08-27T14:08:39Z</time>
      </trkpt>
      <trkpt lat="45.45544" lon="3.84774">
        <ele>1050.86</ele>
        <time>2022-08-27T14:08:57Z</time>
      </trkpt>
      <trkpt lat="45.45533" lon="3.84792">
        <ele>1059.03</ele>
        <time>2022-08-27T14:09:15Z</time>
      </trkpt>
      <trkpt lat="45.45516" lon="3.84822">
        <ele>1064.8</ele>
        <time>2022-08-27T14:09:34Z</time>
      </trkpt>
      <trkpt lat="45.45513" lon="3.84849">
        <ele>1065.76</ele>
        <time>2022-08-27T14:09:53Z</time>
      </trkpt>
      <trkpt lat="45.45509" lon="3.84865">
        <ele>1065.28</ele>
        <time>2022-08-27T14:10:01Z</time>
      </trkpt>
      <trkpt lat="45.45506" lon="3.84871">
        <ele>1065.28</ele>
        <time>2022-08-27T14:10:05Z</time>
      </trkpt>
      <trkpt lat="45.45505" lon="3.84873">
        <ele>1065.28</ele>
        <time>2022-08-27T14:10:06Z</time>
      </trkpt>
      <trkpt lat="45.45486" lon="3.84899">
        <ele>1063.84</ele>
        <time>2022-08-27T14:10:24Z</time>
      </trkpt>
      <trkpt lat="45.45465" lon="3.84933">
        <ele>1059.51</ele>
        <time>2022-08-27T14:10:43Z</time>
      </trkpt>
      <trkpt lat="45.45443" lon="3.84962">
        <ele>1057.59</ele>
        <time>2022-08-27T14:10:57Z</time>
      </trkpt>
      <trkpt lat="45.45418" lon="3.8499">
        <ele>1055.18</ele>
        <time>2022-08-27T14:11:19Z</time>
      </trkpt>
      <trkpt lat="45.45398" lon="3.85009">
        <ele>1053.26</ele>
        <time>2022-08-27T14:11:35Z</time>
      </trkpt>
      <trkpt lat="45.4538" lon="3.85022">
        <ele>1053.26</ele>
        <time>2022-08-27T14:11:53Z</time>
      </trkpt>
      <trkpt lat="45.45366" lon="3.85051">
        <ele>1050.38</ele>
        <time>2022-08-27T14:12:12Z</time>
      </trkpt>
      <trkpt lat="45.45354" lon="3.8507">
        <ele>1050.38</ele>
        <time>2022-08-27T14:12:30Z</time>
      </trkpt>
      <trkpt lat="45.45339" lon="3.85096">
        <ele>1045.57</ele>
        <time>2022-08-27T14:12:50Z</time>
      </trkpt>
      <trkpt lat="45.45326" lon="3.85113">
        <ele>1041.73</ele>
        <time>2022-08-27T14:13:12Z</time>
      </trkpt>
      <trkpt lat="45.45314" lon="3.85131">
        <ele>1038.36</ele>
        <time>2022-08-27T14:13:31Z</time>
      </trkpt>
      <trkpt lat="45.45299" lon="3.85152">
        <ele>1036.92</ele>
        <time>2022-08-27T14:13:48Z</time>
      </trkpt>
      <trkpt lat="45.45274" lon="3.8518">
        <ele>1030.19</ele>
        <time>2022-08-27T14:14:09Z</time>
      </trkpt>
      <trkpt lat="45.45257" lon="3.85194">
        <ele>1027.79</ele>
        <time>2022-08-27T14:14:21Z</time>
      </trkpt>
      <trkpt lat="45.45238" lon="3.85211">
        <ele>1025.38</ele>
        <time>2022-08-27T14:14:36Z</time>
      </trkpt>
      <trkpt lat="45.45233" lon="3.85222">
        <ele>1024.9</ele>
        <time>2022-08-27T14:14:54Z</time>
      </trkpt>
      <trkpt lat="45.45225" lon="3.85236">
        <ele>1021.06</ele>
        <time>2022-08-27T14:15:09Z</time>
      </trkpt>
      <trkpt lat="45.45218" lon="3.85251">
        <ele>1011.44</ele>
        <time>2022-08-27T14:15:32Z</time>
      </trkpt>
      <trkpt lat="45.45209" lon="3.85263">
        <ele>1012.89</ele>
        <time>2022-08-27T14:15:52Z</time>
      </trkpt>
      <trkpt lat="45.45196" lon="3.85287">
        <ele>1010</ele>
        <time>2022-08-27T14:16:11Z</time>
      </trkpt>
      <trkpt lat="45.45192" lon="3.85305">
        <ele>1010.48</ele>
        <time>2022-08-27T14:16:28Z</time>
      </trkpt>
      <trkpt lat="45.45185" lon="3.85322">
        <ele>1008.56</ele>
        <time>2022-08-27T14:16:46Z</time>
      </trkpt>
      <trkpt lat="45.45175" lon="3.85347">
        <ele>1006.64</ele>
        <time>2022-08-27T14:17:06Z</time>
      </trkpt>
      <trkpt lat="45.45167" lon="3.85365">
        <ele>1003.27</ele>
        <time>2022-08-27T14:17:22Z</time>
      </trkpt>
      <trkpt lat="45.45162" lon="3.85392">
        <ele>1005.2</ele>
        <time>2022-08-27T14:17:42Z</time>
      </trkpt>
      <trkpt lat="45.45151" lon="3.85412">
        <ele>1001.35</ele>
        <time>2022-08-27T14:17:58Z</time>
      </trkpt>
      <trkpt lat="45.45141" lon="3.8543">
        <ele>995.58</ele>
        <time>2022-08-27T14:18:15Z</time>
      </trkpt>
      <trkpt lat="45.45121" lon="3.85452">
        <ele>992.22</ele>
        <time>2022-08-27T14:18:30Z</time>
      </trkpt>
      <trkpt lat="45.45108" lon="3.85465">
        <ele>991.26</ele>
        <time>2022-08-27T14:18:48Z</time>
      </trkpt>
      <trkpt lat="45.45096" lon="3.85475">
        <ele>990.3</ele>
        <time>2022-08-27T14:19:08Z</time>
      </trkpt>
      <trkpt lat="45.45076" lon="3.85482">
        <ele>986.93</ele>
        <time>2022-08-27T14:19:24Z</time>
      </trkpt>
      <trkpt lat="45.45068" lon="3.8549">
        <ele>985.97</ele>
        <time>2022-08-27T14:19:41Z</time>
      </trkpt>
      <trkpt lat="45.45051" lon="3.85504">
        <ele>986.93</ele>
        <time>2022-08-27T14:20:01Z</time>
      </trkpt>
      <trkpt lat="45.45029" lon="3.85525">
        <ele>989.33</ele>
        <time>2022-08-27T14:20:24Z</time>
      </trkpt>
      <trkpt lat="45.45014" lon="3.85542">
        <ele>987.89</ele>
        <time>2022-08-27T14:20:43Z</time>
      </trkpt>
      <trkpt lat="45.44982" lon="3.85556">
        <ele>984.53</ele>
        <time>2022-08-27T14:21:07Z</time>
      </trkpt>
      <trkpt lat="45.44955" lon="3.85572">
        <ele>981.16</ele>
        <time>2022-08-27T14:21:26Z</time>
      </trkpt>
      <trkpt lat="45.44948" lon="3.8558">
        <ele>980.2</ele>
        <time>2022-08-27T14:21:48Z</time>
      </trkpt>
      <trkpt lat="45.44934" lon="3.85598">
        <ele>979.72</ele>
        <time>2022-08-27T14:22:10Z</time>
      </trkpt>
      <trkpt lat="45.44926" lon="3.85613">
        <ele>979.72</ele>
        <time>2022-08-27T14:22:27Z</time>
      </trkpt>
      <trkpt lat="45.44923" lon="3.85631">
        <ele>980.68</ele>
        <time>2022-08-27T14:22:47Z</time>
      </trkpt>
      <trkpt lat="45.44919" lon="3.85647">
        <ele>982.6</ele>
        <time>2022-08-27T14:23:05Z</time>
      </trkpt>
      <trkpt lat="45.44919" lon="3.85669">
        <ele>985.49</ele>
        <time>2022-08-27T14:23:24Z</time>
      </trkpt>
      <trkpt lat="45.44916" lon="3.85691">
        <ele>983.09</ele>
        <time>2022-08-27T14:23:42Z</time>
      </trkpt>
      <trkpt lat="45.44923" lon="3.8572">
        <ele>982.6</ele>
        <time>2022-08-27T14:24:02Z</time>
      </trkpt>
      <trkpt lat="45.44924" lon="3.85741">
        <ele>983.09</ele>
        <time>2022-08-27T14:24:19Z</time>
      </trkpt>
      <trkpt lat="45.44925" lon="3.85765">
        <ele>983.09</ele>
        <time>2022-08-27T14:24:39Z</time>
      </trkpt>
      <trkpt lat="45.44913" lon="3.85795">
        <ele>983.09</ele>
        <time>2022-08-27T14:25:00Z</time>
      </trkpt>
      <trkpt lat="45.44909" lon="3.8582">
        <ele>980.68</ele>
        <time>2022-08-27T14:25:20Z</time>
      </trkpt>
      <trkpt lat="45.44908" lon="3.85841">
        <ele>983.09</ele>
        <time>2022-08-27T14:25:38Z</time>
      </trkpt>
      <trkpt lat="45.44897" lon="3.85872">
        <ele>979.72</ele>
        <time>2022-08-27T14:25:54Z</time>
      </trkpt>
      <trkpt lat="45.44894" lon="3.85894">
        <ele>981.64</ele>
        <time>2022-08-27T14:26:13Z</time>
      </trkpt>
      <trkpt lat="45.44887" lon="3.85923">
        <ele>983.09</ele>
        <time>2022-08-27T14:26:34Z</time>
      </trkpt>
      <trkpt lat="45.4489" lon="3.85959">
        <ele>979.24</ele>
        <time>2022-08-27T14:26:47Z</time>
      </trkpt>
      <trkpt lat="45.44889" lon="3.85991">
        <ele>971.07</ele>
        <time>2022-08-27T14:27:08Z</time>
      </trkpt>
      <trkpt lat="45.44893" lon="3.86021">
        <ele>973.47</ele>
        <time>2022-08-27T14:27:23Z</time>
      </trkpt>
      <trkpt lat="45.44884" lon="3.86054">
        <ele>968.18</ele>
        <time>2022-08-27T14:27:40Z</time>
      </trkpt>
      <trkpt lat="45.44874" lon="3.86062">
        <ele>968.67</ele>
        <time>2022-08-27T14:27:58Z</time>
      </trkpt>
      <trkpt lat="45.44857" lon="3.86088">
        <ele>964.82</ele>
        <time>2022-08-27T14:28:18Z</time>
      </trkpt>
      <trkpt lat="45.44843" lon="3.86107">
        <ele>959.05</ele>
        <time>2022-08-27T14:28:36Z</time>
      </trkpt>
      <trkpt lat="45.4484" lon="3.8612">
        <ele>961.94</ele>
        <time>2022-08-27T14:28:53Z</time>
      </trkpt>
      <trkpt lat="45.44839" lon="3.86139">
        <ele>963.86</ele>
        <time>2022-08-27T14:29:09Z</time>
      </trkpt>
      <trkpt lat="45.44835" lon="3.86168">
        <ele>968.18</ele>
        <time>2022-08-27T14:29:26Z</time>
      </trkpt>
      <trkpt lat="45.44824" lon="3.86197">
        <ele>974.43</ele>
        <time>2022-08-27T14:29:40Z</time>
      </trkpt>
      <trkpt lat="45.44808" lon="3.86222">
        <ele>974.43</ele>
        <time>2022-08-27T14:29:59Z</time>
      </trkpt>
      <trkpt lat="45.44795" lon="3.86238">
        <ele>973.47</ele>
        <time>2022-08-27T14:30:10Z</time>
      </trkpt>
      <trkpt lat="45.4478" lon="3.86254">
        <ele>970.59</ele>
        <time>2022-08-27T14:30:26Z</time>
      </trkpt>
      <trkpt lat="45.44763" lon="3.86272">
        <ele>967.22</ele>
        <time>2022-08-27T14:30:46Z</time>
      </trkpt>
      <trkpt lat="45.44742" lon="3.86288">
        <ele>964.34</ele>
        <time>2022-08-27T14:31:08Z</time>
      </trkpt>
      <trkpt lat="45.4472" lon="3.86308">
        <ele>963.38</ele>
        <time>2022-08-27T14:31:29Z</time>
      </trkpt>
      <trkpt lat="45.44705" lon="3.86329">
        <ele>956.65</ele>
        <time>2022-08-27T14:31:48Z</time>
      </trkpt>
      <trkpt lat="45.44694" lon="3.86341">
        <ele>954.25</ele>
        <time>2022-08-27T14:32:06Z</time>
      </trkpt>
      <trkpt lat="45.44669" lon="3.86361">
        <ele>946.07</ele>
        <time>2022-08-27T14:32:22Z</time>
      </trkpt>
      <trkpt lat="45.44646" lon="3.86383">
        <ele>942.71</ele>
        <time>2022-08-27T14:32:35Z</time>
      </trkpt>
      <trkpt lat="45.44626" lon="3.8642">
        <ele>940.31</ele>
        <time>2022-08-27T14:32:49Z</time>
      </trkpt>
      <trkpt lat="45.44608" lon="3.86438">
        <ele>934.06</ele>
        <time>2022-08-27T14:33:05Z</time>
      </trkpt>
      <trkpt lat="45.44575" lon="3.86465">
        <ele>916.27</ele>
        <time>2022-08-27T14:33:26Z</time>
      </trkpt>
      <trkpt lat="45.44551" lon="3.86477">
        <ele>907.62</ele>
        <time>2022-08-27T14:33:44Z</time>
      </trkpt>
      <trkpt lat="45.44542" lon="3.8647">
        <ele>901.85</ele>
        <time>2022-08-27T14:33:57Z</time>
      </trkpt>
      <trkpt lat="45.44547" lon="3.86467">
        <ele>899.45</ele>
        <time>2022-08-27T14:34:30Z</time>
      </trkpt>
      <trkpt lat="45.44541" lon="3.86468">
        <ele>896.09</ele>
        <time>2022-08-27T14:34:46Z</time>
      </trkpt>
      <trkpt lat="45.44538" lon="3.86469">
        <ele>895.61</ele>
        <time>2022-08-27T14:35:13Z</time>
      </trkpt>
      <trkpt lat="45.44536" lon="3.86467">
        <ele>894.64</ele>
        <time>2022-08-27T14:35:43Z</time>
      </trkpt>
      <trkpt lat="45.44534" lon="3.86471">
        <ele>898.97</ele>
        <time>2022-08-27T14:36:06Z</time>
      </trkpt>
      <trkpt lat="45.44542" lon="3.86463">
        <ele>898.49</ele>
        <time>2022-08-27T14:36:25Z</time>
      </trkpt>
      <trkpt lat="45.44544" lon="3.86468">
        <ele>898.97</ele>
        <time>2022-08-27T14:36:31Z</time>
      </trkpt>
      <trkpt lat="45.44544" lon="3.86474">
        <ele>898.97</ele>
        <time>2022-08-27T14:36:35Z</time>
      </trkpt>
      <trkpt lat="45.44544" lon="3.86475">
        <ele>898.97</ele>
        <time>2022-08-27T14:36:36Z</time>
      </trkpt>
      <trkpt lat="45.44543" lon="3.86477">
        <ele>898.97</ele>
        <time>2022-08-27T14:36:37Z</time>
      </trkpt>
      <trkpt lat="45.44542" lon="3.86478">
        <ele>899.45</ele>
        <time>2022-08-27T14:36:38Z</time>
      </trkpt>
      <trkpt lat="45.44542" lon="3.86479">
        <ele>899.45</ele>
        <time>2022-08-27T14:36:39Z</time>
      </trkpt>
      <trkpt lat="45.44517" lon="3.86496">
        <ele>900.41</ele>
        <time>2022-08-27T14:36:58Z</time>
      </trkpt>
      <trkpt lat="45.44497" lon="3.86513">
        <ele>900.41</ele>
        <time>2022-08-27T14:37:15Z</time>
      </trkpt>
      <trkpt lat="45.44481" lon="3.86539">
        <ele>900.89</ele>
        <time>2022-08-27T14:37:33Z</time>
      </trkpt>
      <trkpt lat="45.44468" lon="3.86569">
        <ele>900.41</ele>
        <time>2022-08-27T14:37:52Z</time>
      </trkpt>
      <trkpt lat="45.44458" lon="3.86592">
        <ele>901.37</ele>
        <time>2022-08-27T14:38:07Z</time>
      </trkpt>
      <trkpt lat="45.44449" lon="3.86619">
        <ele>902.33</ele>
        <time>2022-08-27T14:38:24Z</time>
      </trkpt>
      <trkpt lat="45.44445" lon="3.86654">
        <ele>901.37</ele>
        <time>2022-08-27T14:38:44Z</time>
      </trkpt>
      <trkpt lat="45.4444" lon="3.86681">
        <ele>901.85</ele>
        <time>2022-08-27T14:39:01Z</time>
      </trkpt>
      <trkpt lat="45.44429" lon="3.86703">
        <ele>901.85</ele>
        <time>2022-08-27T14:39:17Z</time>
      </trkpt>
      <trkpt lat="45.44414" lon="3.86726">
        <ele>902.82</ele>
        <time>2022-08-27T14:39:36Z</time>
      </trkpt>
      <trkpt lat="45.44403" lon="3.86754">
        <ele>903.3</ele>
        <time>2022-08-27T14:39:53Z</time>
      </trkpt>
      <trkpt lat="45.44392" lon="3.86779">
        <ele>905.22</ele>
        <time>2022-08-27T14:40:13Z</time>
      </trkpt>
      <trkpt lat="45.44382" lon="3.86803">
        <ele>909.06</ele>
        <time>2022-08-27T14:40:31Z</time>
      </trkpt>
      <trkpt lat="45.44368" lon="3.86824">
        <ele>909.54</ele>
        <time>2022-08-27T14:40:49Z</time>
      </trkpt>
      <trkpt lat="45.44358" lon="3.86854">
        <ele>908.58</ele>
        <time>2022-08-27T14:41:07Z</time>
      </trkpt>
      <trkpt lat="45.44343" lon="3.86883">
        <ele>908.1</ele>
        <time>2022-08-27T14:41:26Z</time>
      </trkpt>
      <trkpt lat="45.44318" lon="3.86909">
        <ele>908.58</ele>
        <time>2022-08-27T14:41:45Z</time>
      </trkpt>
      <trkpt lat="45.44303" lon="3.86935">
        <ele>909.06</ele>
        <time>2022-08-27T14:42:04Z</time>
      </trkpt>
      <trkpt lat="45.44287" lon="3.8696">
        <ele>911.95</ele>
        <time>2022-08-27T14:42:22Z</time>
      </trkpt>
      <trkpt lat="45.44266" lon="3.86986">
        <ele>910.03</ele>
        <time>2022-08-27T14:42:40Z</time>
      </trkpt>
      <trkpt lat="45.44242" lon="3.87009">
        <ele>907.62</ele>
        <time>2022-08-27T14:43:00Z</time>
      </trkpt>
      <trkpt lat="45.44221" lon="3.8703">
        <ele>908.58</ele>
        <time>2022-08-27T14:43:20Z</time>
      </trkpt>
      <trkpt lat="45.442" lon="3.87054">
        <ele>910.03</ele>
        <time>2022-08-27T14:43:39Z</time>
      </trkpt>
      <trkpt lat="45.44176" lon="3.87083">
        <ele>908.58</ele>
        <time>2022-08-27T14:44:00Z</time>
      </trkpt>
      <trkpt lat="45.44158" lon="3.87113">
        <ele>909.06</ele>
        <time>2022-08-27T14:44:20Z</time>
      </trkpt>
      <trkpt lat="45.44145" lon="3.87142">
        <ele>909.54</ele>
        <time>2022-08-27T14:44:38Z</time>
      </trkpt>
      <trkpt lat="45.44137" lon="3.87172">
        <ele>910.99</ele>
        <time>2022-08-27T14:44:56Z</time>
      </trkpt>
      <trkpt lat="45.44134" lon="3.87206">
        <ele>912.91</ele>
        <time>2022-08-27T14:45:17Z</time>
      </trkpt>
      <trkpt lat="45.4413" lon="3.87243">
        <ele>913.87</ele>
        <time>2022-08-27T14:45:38Z</time>
      </trkpt>
      <trkpt lat="45.44122" lon="3.87275">
        <ele>914.83</ele>
        <time>2022-08-27T14:45:55Z</time>
      </trkpt>
      <trkpt lat="45.44106" lon="3.87303">
        <ele>915.79</ele>
        <time>2022-08-27T14:46:14Z</time>
      </trkpt>
      <trkpt lat="45.44089" lon="3.87327">
        <ele>914.83</ele>
        <time>2022-08-27T14:46:31Z</time>
      </trkpt>
      <trkpt lat="45.44076" lon="3.87351">
        <ele>914.83</ele>
        <time>2022-08-27T14:46:47Z</time>
      </trkpt>
      <trkpt lat="45.44069" lon="3.87372">
        <ele>914.83</ele>
        <time>2022-08-27T14:47:00Z</time>
      </trkpt>
      <trkpt lat="45.44059" lon="3.87403">
        <ele>915.79</ele>
        <time>2022-08-27T14:47:19Z</time>
      </trkpt>
      <trkpt lat="45.44047" lon="3.87434">
        <ele>913.87</ele>
        <time>2022-08-27T14:47:38Z</time>
      </trkpt>
      <trkpt lat="45.4404" lon="3.87465">
        <ele>912.43</ele>
        <time>2022-08-27T14:47:55Z</time>
      </trkpt>
      <trkpt lat="45.44036" lon="3.87501">
        <ele>910.99</ele>
        <time>2022-08-27T14:48:13Z</time>
      </trkpt>
      <trkpt lat="45.4403" lon="3.87541">
        <ele>909.06</ele>
        <time>2022-08-27T14:48:32Z</time>
      </trkpt>
      <trkpt lat="45.44021" lon="3.87571">
        <ele>907.14</ele>
        <time>2022-08-27T14:48:48Z</time>
      </trkpt>
      <trkpt lat="45.44008" lon="3.87598">
        <ele>905.22</ele>
        <time>2022-08-27T14:49:04Z</time>
      </trkpt>
      <trkpt lat="45.43989" lon="3.87624">
        <ele>904.74</ele>
        <time>2022-08-27T14:49:22Z</time>
      </trkpt>
      <trkpt lat="45.43966" lon="3.8764">
        <ele>904.74</ele>
        <time>2022-08-27T14:49:40Z</time>
      </trkpt>
      <trkpt lat="45.43943" lon="3.87652">
        <ele>905.7</ele>
        <time>2022-08-27T14:49:58Z</time>
      </trkpt>
      <trkpt lat="45.43917" lon="3.87667">
        <ele>905.7</ele>
        <time>2022-08-27T14:50:18Z</time>
      </trkpt>
      <trkpt lat="45.43894" lon="3.87684">
        <ele>905.7</ele>
        <time>2022-08-27T14:50:36Z</time>
      </trkpt>
      <trkpt lat="45.43871" lon="3.87704">
        <ele>904.26</ele>
        <time>2022-08-27T14:50:54Z</time>
      </trkpt>
      <trkpt lat="45.43849" lon="3.87731">
        <ele>903.78</ele>
        <time>2022-08-27T14:51:13Z</time>
      </trkpt>
      <trkpt lat="45.4383" lon="3.87759">
        <ele>903.3</ele>
        <time>2022-08-27T14:51:32Z</time>
      </trkpt>
      <trkpt lat="45.43807" lon="3.87789">
        <ele>902.33</ele>
        <time>2022-08-27T14:51:52Z</time>
      </trkpt>
      <trkpt lat="45.43788" lon="3.87817">
        <ele>902.82</ele>
        <time>2022-08-27T14:52:11Z</time>
      </trkpt>
      <trkpt lat="45.43769" lon="3.87842">
        <ele>903.3</ele>
        <time>2022-08-27T14:52:30Z</time>
      </trkpt>
      <trkpt lat="45.43753" lon="3.8787">
        <ele>903.3</ele>
        <time>2022-08-27T14:52:48Z</time>
      </trkpt>
      <trkpt lat="45.43743" lon="3.879">
        <ele>906.66</ele>
        <time>2022-08-27T14:53:06Z</time>
      </trkpt>
      <trkpt lat="45.43735" lon="3.87928">
        <ele>910.03</ele>
        <time>2022-08-27T14:53:23Z</time>
      </trkpt>
      <trkpt lat="45.43724" lon="3.87961">
        <ele>908.1</ele>
        <time>2022-08-27T14:53:42Z</time>
      </trkpt>
      <trkpt lat="45.43712" lon="3.87996">
        <ele>904.74</ele>
        <time>2022-08-27T14:54:00Z</time>
      </trkpt>
      <trkpt lat="45.43695" lon="3.88017">
        <ele>903.3</ele>
        <time>2022-08-27T14:54:17Z</time>
      </trkpt>
      <trkpt lat="45.43675" lon="3.88031">
        <ele>904.74</ele>
        <time>2022-08-27T14:54:35Z</time>
      </trkpt>
      <trkpt lat="45.43656" lon="3.8805">
        <ele>909.06</ele>
        <time>2022-08-27T14:54:55Z</time>
      </trkpt>
      <trkpt lat="45.43638" lon="3.8806">
        <ele>911.95</ele>
        <time>2022-08-27T14:55:12Z</time>
      </trkpt>
      <trkpt lat="45.43617" lon="3.88064">
        <ele>913.87</ele>
        <time>2022-08-27T14:55:31Z</time>
      </trkpt>
      <trkpt lat="45.43592" lon="3.88065">
        <ele>917.72</ele>
        <time>2022-08-27T14:55:51Z</time>
      </trkpt>
      <trkpt lat="45.43562" lon="3.88074">
        <ele>915.79</ele>
        <time>2022-08-27T14:56:11Z</time>
      </trkpt>
      <trkpt lat="45.43543" lon="3.88077">
        <ele>915.31</ele>
        <time>2022-08-27T14:56:27Z</time>
      </trkpt>
      <trkpt lat="45.43513" lon="3.88085">
        <ele>913.87</ele>
        <time>2022-08-27T14:56:45Z</time>
      </trkpt>
      <trkpt lat="45.43491" lon="3.88096">
        <ele>914.83</ele>
        <time>2022-08-27T14:57:01Z</time>
      </trkpt>
      <trkpt lat="45.43467" lon="3.88108">
        <ele>911.47</ele>
        <time>2022-08-27T14:57:15Z</time>
      </trkpt>
      <trkpt lat="45.43456" lon="3.88121">
        <ele>912.43</ele>
        <time>2022-08-27T14:57:31Z</time>
      </trkpt>
      <trkpt lat="45.4346" lon="3.88121">
        <ele>910.51</ele>
        <time>2022-08-27T14:57:59Z</time>
      </trkpt>
      <trkpt lat="45.43466" lon="3.8812">
        <ele>910.03</ele>
        <time>2022-08-27T14:58:25Z</time>
      </trkpt>
      <trkpt lat="45.43466" lon="3.8812">
        <ele>910.99</ele>
        <time>2022-08-27T14:58:57Z</time>
      </trkpt>
      <trkpt lat="45.43464" lon="3.88127">
        <ele>911.95</ele>
        <time>2022-08-27T14:59:04Z</time>
      </trkpt>
      <trkpt lat="45.43432" lon="3.88139">
        <ele>907.62</ele>
        <time>2022-08-27T14:59:22Z</time>
      </trkpt>
      <trkpt lat="45.43426" lon="3.8814">
        <ele>907.62</ele>
        <time>2022-08-27T14:59:39Z</time>
      </trkpt>
      <trkpt lat="45.43423" lon="3.8814">
        <ele>906.18</ele>
        <time>2022-08-27T14:59:51Z</time>
      </trkpt>
      <trkpt lat="45.43418" lon="3.88141">
        <ele>905.7</ele>
        <time>2022-08-27T15:00:12Z</time>
      </trkpt>
      <trkpt lat="45.43415" lon="3.88135">
        <ele>905.22</ele>
        <time>2022-08-27T15:00:34Z</time>
      </trkpt>
      <trkpt lat="45.43416" lon="3.88134">
        <ele>906.18</ele>
        <time>2022-08-27T15:00:55Z</time>
      </trkpt>
      <trkpt lat="45.43418" lon="3.88135">
        <ele>907.62</ele>
        <time>2022-08-27T15:01:17Z</time>
      </trkpt>
      <trkpt lat="45.43421" lon="3.88137">
        <ele>907.62</ele>
        <time>2022-08-27T15:01:24Z</time>
      </trkpt>
      <trkpt lat="45.43443" lon="3.88141">
        <ele>906.66</ele>
        <time>2022-08-27T15:01:38Z</time>
      </trkpt>
      <trkpt lat="45.43457" lon="3.88125">
        <ele>906.66</ele>
        <time>2022-08-27T15:01:52Z</time>
      </trkpt>
      <trkpt lat="45.4346" lon="3.88121">
        <ele>906.66</ele>
        <time>2022-08-27T15:01:55Z</time>
      </trkpt>
      <trkpt lat="45.43462" lon="3.88127">
        <ele>906.66</ele>
        <time>2022-08-27T15:01:59Z</time>
      </trkpt>
      <trkpt lat="45.43461" lon="3.8813">
        <ele>906.66</ele>
        <time>2022-08-27T15:02:00Z</time>
      </trkpt>
      <trkpt lat="45.43459" lon="3.88134">
        <ele>906.66</ele>
        <time>2022-08-27T15:02:01Z</time>
      </trkpt>
      <trkpt lat="45.43456" lon="3.88139">
        <ele>906.66</ele>
        <time>2022-08-27T15:02:02Z</time>
      </trkpt>
      <trkpt lat="45.43431" lon="3.88151">
        <ele>906.66</ele>
        <time>2022-08-27T15:02:11Z</time>
      </trkpt>
      <trkpt lat="45.4343" lon="3.88151">
        <ele>906.18</ele>
        <time>2022-08-27T15:02:26Z</time>
      </trkpt>
      <trkpt lat="45.43422" lon="3.88147">
        <ele>906.18</ele>
        <time>2022-08-27T15:02:41Z</time>
      </trkpt>
      <trkpt lat="45.43413" lon="3.88146">
        <ele>906.66</ele>
        <time>2022-08-27T15:02:58Z</time>
      </trkpt>
      <trkpt lat="45.43411" lon="3.88156">
        <ele>906.66</ele>
        <time>2022-08-27T15:03:16Z</time>
      </trkpt>
      <trkpt lat="45.43412" lon="3.88161">
        <ele>906.18</ele>
        <time>2022-08-27T15:03:21Z</time>
      </trkpt>
      <trkpt lat="45.43416" lon="3.88172">
        <ele>905.7</ele>
        <time>2022-08-27T15:03:31Z</time>
      </trkpt>
      <trkpt lat="45.43417" lon="3.88173">
        <ele>905.7</ele>
        <time>2022-08-27T15:03:32Z</time>
      </trkpt>
      <trkpt lat="45.43427" lon="3.88191">
        <ele>901.85</ele>
        <time>2022-08-27T15:03:49Z</time>
      </trkpt>
      <trkpt lat="45.43429" lon="3.88195">
        <ele>900.89</ele>
        <time>2022-08-27T15:03:53Z</time>
      </trkpt>
      <trkpt lat="45.43429" lon="3.88217">
        <ele>897.53</ele>
        <time>2022-08-27T15:04:09Z</time>
      </trkpt>
      <trkpt lat="45.43427" lon="3.88232">
        <ele>896.09</ele>
        <time>2022-08-27T15:04:19Z</time>
      </trkpt>
      <trkpt lat="45.43423" lon="3.88261">
        <ele>893.68</ele>
        <time>2022-08-27T15:04:37Z</time>
      </trkpt>
      <trkpt lat="45.43419" lon="3.88286">
        <ele>894.64</ele>
        <time>2022-08-27T15:04:55Z</time>
      </trkpt>
      <trkpt lat="45.43427" lon="3.88302">
        <ele>893.68</ele>
        <time>2022-08-27T15:05:13Z</time>
      </trkpt>
      <trkpt lat="45.43436" lon="3.88325">
        <ele>893.68</ele>
        <time>2022-08-27T15:05:30Z</time>
      </trkpt>
      <trkpt lat="45.43436" lon="3.88327">
        <ele>893.68</ele>
        <time>2022-08-27T15:05:31Z</time>
      </trkpt>
      <trkpt lat="45.43435" lon="3.88328">
        <ele>893.2</ele>
        <time>2022-08-27T15:05:32Z</time>
      </trkpt>
      <trkpt lat="45.43419" lon="3.88331">
        <ele>891.28</ele>
        <time>2022-08-27T15:05:49Z</time>
      </trkpt>
      <trkpt lat="45.43399" lon="3.8834">
        <ele>889.36</ele>
        <time>2022-08-27T15:06:07Z</time>
      </trkpt>
      <trkpt lat="45.43376" lon="3.88354">
        <ele>888.4</ele>
        <time>2022-08-27T15:06:27Z</time>
      </trkpt>
      <trkpt lat="45.43355" lon="3.88369">
        <ele>891.76</ele>
        <time>2022-08-27T15:06:47Z</time>
      </trkpt>
      <trkpt lat="45.43354" lon="3.88372">
        <ele>892.24</ele>
        <time>2022-08-27T15:06:49Z</time>
      </trkpt>
      <trkpt lat="45.43354" lon="3.88381">
        <ele>892.24</ele>
        <time>2022-08-27T15:06:53Z</time>
      </trkpt>
      <trkpt lat="45.43361" lon="3.88415">
        <ele>888.88</ele>
        <time>2022-08-27T15:07:13Z</time>
      </trkpt>
      <trkpt lat="45.43378" lon="3.88439">
        <ele>886.47</ele>
        <time>2022-08-27T15:07:32Z</time>
      </trkpt>
      <trkpt lat="45.43396" lon="3.88476">
        <ele>879.74</ele>
        <time>2022-08-27T15:07:52Z</time>
      </trkpt>
      <trkpt lat="45.43395" lon="3.88513">
        <ele>880.71</ele>
        <time>2022-08-27T15:08:09Z</time>
      </trkpt>
      <trkpt lat="45.43389" lon="3.88545">
        <ele>881.19</ele>
        <time>2022-08-27T15:08:25Z</time>
      </trkpt>
      <trkpt lat="45.43382" lon="3.88576">
        <ele>879.74</ele>
        <time>2022-08-27T15:08:42Z</time>
      </trkpt>
      <trkpt lat="45.43374" lon="3.88607">
        <ele>879.26</ele>
        <time>2022-08-27T15:08:59Z</time>
      </trkpt>
      <trkpt lat="45.43365" lon="3.88643">
        <ele>876.86</ele>
        <time>2022-08-27T15:09:18Z</time>
      </trkpt>
      <trkpt lat="45.4336" lon="3.88681">
        <ele>874.94</ele>
        <time>2022-08-27T15:09:38Z</time>
      </trkpt>
      <trkpt lat="45.43357" lon="3.88716">
        <ele>876.38</ele>
        <time>2022-08-27T15:09:57Z</time>
      </trkpt>
      <trkpt lat="45.43348" lon="3.88759">
        <ele>874.94</ele>
        <time>2022-08-27T15:10:18Z</time>
      </trkpt>
      <trkpt lat="45.43337" lon="3.88791">
        <ele>875.42</ele>
        <time>2022-08-27T15:10:35Z</time>
      </trkpt>
      <trkpt lat="45.43317" lon="3.88822">
        <ele>875.42</ele>
        <time>2022-08-27T15:10:55Z</time>
      </trkpt>
      <trkpt lat="45.43297" lon="3.88858">
        <ele>875.42</ele>
        <time>2022-08-27T15:11:17Z</time>
      </trkpt>
      <trkpt lat="45.43284" lon="3.88893">
        <ele>876.86</ele>
        <time>2022-08-27T15:11:38Z</time>
      </trkpt>
      <trkpt lat="45.43283" lon="3.88927">
        <ele>878.3</ele>
        <time>2022-08-27T15:11:57Z</time>
      </trkpt>
      <trkpt lat="45.43288" lon="3.88963">
        <ele>877.82</ele>
        <time>2022-08-27T15:12:17Z</time>
      </trkpt>
      <trkpt lat="45.43293" lon="3.89001">
        <ele>876.86</ele>
        <time>2022-08-27T15:12:38Z</time>
      </trkpt>
      <trkpt lat="45.43298" lon="3.89039">
        <ele>877.34</ele>
        <time>2022-08-27T15:12:59Z</time>
      </trkpt>
      <trkpt lat="45.43299" lon="3.89071">
        <ele>876.86</ele>
        <time>2022-08-27T15:13:17Z</time>
      </trkpt>
      <trkpt lat="45.43296" lon="3.89108">
        <ele>875.42</ele>
        <time>2022-08-27T15:13:36Z</time>
      </trkpt>
      <trkpt lat="45.43289" lon="3.89142">
        <ele>874.46</ele>
        <time>2022-08-27T15:13:54Z</time>
      </trkpt>
      <trkpt lat="45.43283" lon="3.89176">
        <ele>873.98</ele>
        <time>2022-08-27T15:14:12Z</time>
      </trkpt>
      <trkpt lat="45.43276" lon="3.89206">
        <ele>873.98</ele>
        <time>2022-08-27T15:14:29Z</time>
      </trkpt>
      <trkpt lat="45.43271" lon="3.89238">
        <ele>873.98</ele>
        <time>2022-08-27T15:14:47Z</time>
      </trkpt>
      <trkpt lat="45.43267" lon="3.8927">
        <ele>871.57</ele>
        <time>2022-08-27T15:15:09Z</time>
      </trkpt>
      <trkpt lat="45.4326" lon="3.89307">
        <ele>869.17</ele>
        <time>2022-08-27T15:15:31Z</time>
      </trkpt>
      <trkpt lat="45.43252" lon="3.89341">
        <ele>869.65</ele>
        <time>2022-08-27T15:15:52Z</time>
      </trkpt>
      <trkpt lat="45.43244" lon="3.89375">
        <ele>867.73</ele>
        <time>2022-08-27T15:16:11Z</time>
      </trkpt>
      <trkpt lat="45.43237" lon="3.89417">
        <ele>866.29</ele>
        <time>2022-08-27T15:16:33Z</time>
      </trkpt>
      <trkpt lat="45.43238" lon="3.89455">
        <ele>865.8</ele>
        <time>2022-08-27T15:16:49Z</time>
      </trkpt>
      <trkpt lat="45.43245" lon="3.89497">
        <ele>866.29</ele>
        <time>2022-08-27T15:17:04Z</time>
      </trkpt>
      <trkpt lat="45.43228" lon="3.89528">
        <ele>868.69</ele>
        <time>2022-08-27T15:17:16Z</time>
      </trkpt>
      <trkpt lat="45.4321" lon="3.89544">
        <ele>870.61</ele>
        <time>2022-08-27T15:17:32Z</time>
      </trkpt>
      <trkpt lat="45.43189" lon="3.89568">
        <ele>874.46</ele>
        <time>2022-08-27T15:17:52Z</time>
      </trkpt>
      <trkpt lat="45.43171" lon="3.89598">
        <ele>877.34</ele>
        <time>2022-08-27T15:18:12Z</time>
      </trkpt>
      <trkpt lat="45.43152" lon="3.89628">
        <ele>875.9</ele>
        <time>2022-08-27T15:18:31Z</time>
      </trkpt>
      <trkpt lat="45.43133" lon="3.89655">
        <ele>877.34</ele>
        <time>2022-08-27T15:18:51Z</time>
      </trkpt>
      <trkpt lat="45.43114" lon="3.89682">
        <ele>877.34</ele>
        <time>2022-08-27T15:19:11Z</time>
      </trkpt>
      <trkpt lat="45.43093" lon="3.89711">
        <ele>878.3</ele>
        <time>2022-08-27T15:19:28Z</time>
      </trkpt>
      <trkpt lat="45.4308" lon="3.89745">
        <ele>882.15</ele>
        <time>2022-08-27T15:19:48Z</time>
      </trkpt>
      <trkpt lat="45.43067" lon="3.89775">
        <ele>884.07</ele>
        <time>2022-08-27T15:20:06Z</time>
      </trkpt>
      <trkpt lat="45.43055" lon="3.89803">
        <ele>886.47</ele>
        <time>2022-08-27T15:20:24Z</time>
      </trkpt>
      <trkpt lat="45.43043" lon="3.89831">
        <ele>887.43</ele>
        <time>2022-08-27T15:20:42Z</time>
      </trkpt>
      <trkpt lat="45.4303" lon="3.89861">
        <ele>887.43</ele>
        <time>2022-08-27T15:21:01Z</time>
      </trkpt>
      <trkpt lat="45.43018" lon="3.89888">
        <ele>888.4</ele>
        <time>2022-08-27T15:21:18Z</time>
      </trkpt>
      <trkpt lat="45.43007" lon="3.89914">
        <ele>889.36</ele>
        <time>2022-08-27T15:21:35Z</time>
      </trkpt>
      <trkpt lat="45.42993" lon="3.89943">
        <ele>892.24</ele>
        <time>2022-08-27T15:21:55Z</time>
      </trkpt>
      <trkpt lat="45.42976" lon="3.89973">
        <ele>892.72</ele>
        <time>2022-08-27T15:22:15Z</time>
      </trkpt>
      <trkpt lat="45.42963" lon="3.90002">
        <ele>894.64</ele>
        <time>2022-08-27T15:22:34Z</time>
      </trkpt>
      <trkpt lat="45.42953" lon="3.90029">
        <ele>897.53</ele>
        <time>2022-08-27T15:22:52Z</time>
      </trkpt>
      <trkpt lat="45.42945" lon="3.90068">
        <ele>898.97</ele>
        <time>2022-08-27T15:23:11Z</time>
      </trkpt>
      <trkpt lat="45.42937" lon="3.90098">
        <ele>900.89</ele>
        <time>2022-08-27T15:23:28Z</time>
      </trkpt>
      <trkpt lat="45.42929" lon="3.90133">
        <ele>902.33</ele>
        <time>2022-08-27T15:23:48Z</time>
      </trkpt>
      <trkpt lat="45.42912" lon="3.90165">
        <ele>901.37</ele>
        <time>2022-08-27T15:24:08Z</time>
      </trkpt>
      <trkpt lat="45.42896" lon="3.90187">
        <ele>901.85</ele>
        <time>2022-08-27T15:24:25Z</time>
      </trkpt>
      <trkpt lat="45.42874" lon="3.90199">
        <ele>907.14</ele>
        <time>2022-08-27T15:24:44Z</time>
      </trkpt>
      <trkpt lat="45.4285" lon="3.90222">
        <ele>908.1</ele>
        <time>2022-08-27T15:25:04Z</time>
      </trkpt>
      <trkpt lat="45.42828" lon="3.90245">
        <ele>908.1</ele>
        <time>2022-08-27T15:25:23Z</time>
      </trkpt>
      <trkpt lat="45.42809" lon="3.90272">
        <ele>909.06</ele>
        <time>2022-08-27T15:25:42Z</time>
      </trkpt>
      <trkpt lat="45.42793" lon="3.90297">
        <ele>910.03</ele>
        <time>2022-08-27T15:26:00Z</time>
      </trkpt>
      <trkpt lat="45.42778" lon="3.90321">
        <ele>910.03</ele>
        <time>2022-08-27T15:26:18Z</time>
      </trkpt>
      <trkpt lat="45.4276" lon="3.90345">
        <ele>909.54</ele>
        <time>2022-08-27T15:26:38Z</time>
      </trkpt>
      <trkpt lat="45.42744" lon="3.90368">
        <ele>908.58</ele>
        <time>2022-08-27T15:26:56Z</time>
      </trkpt>
      <trkpt lat="45.42732" lon="3.90392">
        <ele>907.14</ele>
        <time>2022-08-27T15:27:16Z</time>
      </trkpt>
      <trkpt lat="45.42723" lon="3.90412">
        <ele>906.66</ele>
        <time>2022-08-27T15:27:32Z</time>
      </trkpt>
      <trkpt lat="45.42714" lon="3.90439">
        <ele>906.18</ele>
        <time>2022-08-27T15:27:50Z</time>
      </trkpt>
      <trkpt lat="45.42704" lon="3.90469">
        <ele>906.66</ele>
        <time>2022-08-27T15:28:08Z</time>
      </trkpt>
      <trkpt lat="45.42693" lon="3.90499">
        <ele>911.95</ele>
        <time>2022-08-27T15:28:26Z</time>
      </trkpt>
      <trkpt lat="45.42682" lon="3.90544">
        <ele>912.43</ele>
        <time>2022-08-27T15:28:45Z</time>
      </trkpt>
      <trkpt lat="45.42667" lon="3.90572">
        <ele>914.83</ele>
        <time>2022-08-27T15:29:03Z</time>
      </trkpt>
      <trkpt lat="45.42652" lon="3.90597">
        <ele>910.99</ele>
        <time>2022-08-27T15:29:23Z</time>
      </trkpt>
      <trkpt lat="45.42642" lon="3.90633">
        <ele>910.51</ele>
        <time>2022-08-27T15:29:41Z</time>
      </trkpt>
      <trkpt lat="45.42634" lon="3.90663">
        <ele>907.62</ele>
        <time>2022-08-27T15:29:59Z</time>
      </trkpt>
      <trkpt lat="45.42624" lon="3.90686">
        <ele>906.66</ele>
        <time>2022-08-27T15:30:13Z</time>
      </trkpt>
      <trkpt lat="45.4261" lon="3.90717">
        <ele>907.62</ele>
        <time>2022-08-27T15:30:34Z</time>
      </trkpt>
      <trkpt lat="45.42605" lon="3.90738">
        <ele>905.7</ele>
        <time>2022-08-27T15:30:51Z</time>
      </trkpt>
      <trkpt lat="45.42596" lon="3.90768">
        <ele>897.53</ele>
        <time>2022-08-27T15:31:12Z</time>
      </trkpt>
      <trkpt lat="45.42592" lon="3.90781">
        <ele>893.2</ele>
        <time>2022-08-27T15:31:20Z</time>
      </trkpt>
      <trkpt lat="45.42582" lon="3.90811">
        <ele>891.28</ele>
        <time>2022-08-27T15:31:40Z</time>
      </trkpt>
      <trkpt lat="45.42572" lon="3.90837">
        <ele>894.64</ele>
        <time>2022-08-27T15:31:59Z</time>
      </trkpt>
      <trkpt lat="45.4257" lon="3.90841">
        <ele>895.61</ele>
        <time>2022-08-27T15:32:02Z</time>
      </trkpt>
      <trkpt lat="45.4257" lon="3.90842">
        <ele>895.61</ele>
        <time>2022-08-27T15:32:03Z</time>
      </trkpt>
      <trkpt lat="45.42569" lon="3.90844">
        <ele>896.09</ele>
        <time>2022-08-27T15:32:04Z</time>
      </trkpt>
      <trkpt lat="45.42553" lon="3.90863">
        <ele>896.57</ele>
        <time>2022-08-27T15:32:21Z</time>
      </trkpt>
      <trkpt lat="45.42532" lon="3.90882">
        <ele>892.24</ele>
        <time>2022-08-27T15:32:38Z</time>
      </trkpt>
      <trkpt lat="45.42513" lon="3.90901">
        <ele>891.76</ele>
        <time>2022-08-27T15:32:55Z</time>
      </trkpt>
      <trkpt lat="45.42512" lon="3.90903">
        <ele>891.28</ele>
        <time>2022-08-27T15:32:56Z</time>
      </trkpt>
      <trkpt lat="45.4251" lon="3.90904">
        <ele>891.28</ele>
        <time>2022-08-27T15:32:57Z</time>
      </trkpt>
      <trkpt lat="45.42509" lon="3.90906">
        <ele>890.32</ele>
        <time>2022-08-27T15:32:58Z</time>
      </trkpt>
      <trkpt lat="45.42508" lon="3.90907">
        <ele>889.84</ele>
        <time>2022-08-27T15:32:59Z</time>
      </trkpt>
      <trkpt lat="45.42507" lon="3.90909">
        <ele>889.36</ele>
        <time>2022-08-27T15:33:00Z</time>
      </trkpt>
      <trkpt lat="45.42506" lon="3.9091">
        <ele>888.4</ele>
        <time>2022-08-27T15:33:01Z</time>
      </trkpt>
      <trkpt lat="45.42505" lon="3.90912">
        <ele>887.91</ele>
        <time>2022-08-27T15:33:02Z</time>
      </trkpt>
      <trkpt lat="45.42504" lon="3.90913">
        <ele>887.91</ele>
        <time>2022-08-27T15:33:03Z</time>
      </trkpt>
      <trkpt lat="45.42503" lon="3.90914">
        <ele>887.43</ele>
        <time>2022-08-27T15:33:04Z</time>
      </trkpt>
      <trkpt lat="45.42502" lon="3.90915">
        <ele>886.95</ele>
        <time>2022-08-27T15:33:05Z</time>
      </trkpt>
      <trkpt lat="45.4249" lon="3.90943">
        <ele>882.63</ele>
        <time>2022-08-27T15:33:23Z</time>
      </trkpt>
      <trkpt lat="45.42487" lon="3.90968">
        <ele>883.59</ele>
        <time>2022-08-27T15:33:43Z</time>
      </trkpt>
      <trkpt lat="45.42468" lon="3.91004">
        <ele>881.19</ele>
        <time>2022-08-27T15:34:05Z</time>
      </trkpt>
      <trkpt lat="45.42456" lon="3.91032">
        <ele>874.94</ele>
        <time>2022-08-27T15:34:24Z</time>
      </trkpt>
      <trkpt lat="45.42448" lon="3.91055">
        <ele>872.53</ele>
        <time>2022-08-27T15:34:42Z</time>
      </trkpt>
      <trkpt lat="45.42444" lon="3.91081">
        <ele>874.94</ele>
        <time>2022-08-27T15:35:04Z</time>
      </trkpt>
      <trkpt lat="45.42429" lon="3.91086">
        <ele>873.01</ele>
        <time>2022-08-27T15:35:21Z</time>
      </trkpt>
      <trkpt lat="45.42412" lon="3.91088">
        <ele>872.53</ele>
        <time>2022-08-27T15:35:39Z</time>
      </trkpt>
      <trkpt lat="45.42396" lon="3.91109">
        <ele>870.61</ele>
        <time>2022-08-27T15:35:59Z</time>
      </trkpt>
      <trkpt lat="45.42386" lon="3.91141">
        <ele>862.92</ele>
        <time>2022-08-27T15:36:18Z</time>
      </trkpt>
      <trkpt lat="45.42375" lon="3.91169">
        <ele>866.77</ele>
        <time>2022-08-27T15:36:38Z</time>
      </trkpt>
      <trkpt lat="45.42363" lon="3.912">
        <ele>871.57</ele>
        <time>2022-08-27T15:36:57Z</time>
      </trkpt>
      <trkpt lat="45.42358" lon="3.91229">
        <ele>873.98</ele>
        <time>2022-08-27T15:37:15Z</time>
      </trkpt>
      <trkpt lat="45.42343" lon="3.91262">
        <ele>876.86</ele>
        <time>2022-08-27T15:37:37Z</time>
      </trkpt>
      <trkpt lat="45.42322" lon="3.91283">
        <ele>876.86</ele>
        <time>2022-08-27T15:37:54Z</time>
      </trkpt>
      <trkpt lat="45.4232" lon="3.91286">
        <ele>876.86</ele>
        <time>2022-08-27T15:37:56Z</time>
      </trkpt>
      <trkpt lat="45.42302" lon="3.91316">
        <ele>869.17</ele>
        <time>2022-08-27T15:38:16Z</time>
      </trkpt>
      <trkpt lat="45.42275" lon="3.91335">
        <ele>865.8</ele>
        <time>2022-08-27T15:38:35Z</time>
      </trkpt>
      <trkpt lat="45.42259" lon="3.91352">
        <ele>854.27</ele>
        <time>2022-08-27T15:38:46Z</time>
      </trkpt>
      <trkpt lat="45.42249" lon="3.91366">
        <ele>842.73</ele>
        <time>2022-08-27T15:39:01Z</time>
      </trkpt>
      <trkpt lat="45.42246" lon="3.91381">
        <ele>832.64</ele>
        <time>2022-08-27T15:39:19Z</time>
      </trkpt>
      <trkpt lat="45.42242" lon="3.91405">
        <ele>827.83</ele>
        <time>2022-08-27T15:39:36Z</time>
      </trkpt>
    </trkseg>
  </trk>
</gpx>